<?xml version='1.0' encoding='UTF-8'?><gpx version="1.1" creator="JPX - https://github.com/jenetics/jpx" xmlns="http://www.topografix.com/GPX/1/1"><trk><trkseg><trkpt lat="45.5081817" lon="9.2535233"><ele>133.0</ele><time>2026-04-26T14:02:28.727Z</time></trkpt><trkpt lat="45.5072803" lon="9.2531997"><ele>133.0</ele><time>2026-04-26T14:02:40.696Z</time></trkpt><trkpt lat="45.5073463" lon="9.2531266"><ele>133.0</ele><time>2026-04-26T14:02:52.328Z</time></trkpt><trkpt lat="45.5073368" lon="9.2528565"><ele>133.0</ele><time>2026-04-26T14:03:00.453Z</time></trkpt><trkpt lat="45.5074728" lon="9.2529412"><ele>133.0</ele><time>2026-04-26T14:03:10.254Z</time></trkpt><trkpt lat="45.5074877" lon="9.2530814"><ele>133.0</ele><time>2026-04-26T14:03:17.48Z</time></trkpt><trkpt lat="45.5074544" lon="9.2531644"><ele>133.0</ele><time>2026-04-26T14:03:20.46Z</time></trkpt><trkpt lat="45.5074326" lon="9.2532517"><ele>133.0</ele><time>2026-04-26T14:03:25.468Z</time></trkpt><trkpt lat="45.5073956" lon="9.2533469"><ele>133.0</ele><time>2026-04-26T14:03:30.461Z</time></trkpt><trkpt lat="45.5073673" lon="9.2534336"><ele>133.0</ele><time>2026-04-26T14:03:39.463Z</time></trkpt><trkpt lat="45.507331" lon="9.2535202"><ele>133.0</ele><time>2026-04-26T14:03:45.466Z</time></trkpt><trkpt lat="45.5072846" lon="9.2535813"><ele>133.0</ele><time>2026-04-26T14:03:49.465Z</time></trkpt><trkpt lat="45.5073188" lon="9.253679"><ele>133.0</ele><time>2026-04-26T14:03:54.475Z</time></trkpt><trkpt lat="45.5073602" lon="9.2537486"><ele>133.0</ele><time>2026-04-26T14:03:58.496Z</time></trkpt><trkpt lat="45.5074099" lon="9.2538197"><ele>133.0</ele><time>2026-04-26T14:04:04.342Z</time></trkpt><trkpt lat="45.5074757" lon="9.2538544"><ele>133.0</ele><time>2026-04-26T14:04:11.462Z</time></trkpt><trkpt lat="45.507545" lon="9.2538423"><ele>133.0</ele><time>2026-04-26T14:04:15.464Z</time></trkpt><trkpt lat="45.5076106" lon="9.2538522"><ele>133.0</ele><time>2026-04-26T14:04:19.292Z</time></trkpt><trkpt lat="45.5076635" lon="9.2539231"><ele>133.0</ele><time>2026-04-26T14:04:25.888Z</time></trkpt><trkpt lat="45.5077171" lon="9.2539906"><ele>132.42857142857142</ele><time>2026-04-26T14:04:31.465Z</time></trkpt><trkpt lat="45.507777" lon="9.2540497"><ele>131.85714285714286</ele><time>2026-04-26T14:04:44.465Z</time></trkpt><trkpt lat="45.5078284" lon="9.2541179"><ele>131.28571428571428</ele><time>2026-04-26T14:04:49.471Z</time></trkpt><trkpt lat="45.5078962" lon="9.2541277"><ele>130.71428571428572</ele><time>2026-04-26T14:04:54.465Z</time></trkpt><trkpt lat="45.5079484" lon="9.2540663"><ele>130.14285714285714</ele><time>2026-04-26T14:05:14.458Z</time></trkpt><trkpt lat="45.5080195" lon="9.2541251"><ele>129.57142857142856</ele><time>2026-04-26T14:05:20.459Z</time></trkpt><trkpt lat="45.508066" lon="9.254186"><ele>129.0</ele><time>2026-04-26T14:05:24.46Z</time></trkpt><trkpt lat="45.5081162" lon="9.2542531"><ele>128.99999999999997</ele><time>2026-04-26T14:05:29.463Z</time></trkpt><trkpt lat="45.5081689" lon="9.2543033"><ele>129.0</ele><time>2026-04-26T14:05:33.489Z</time></trkpt><trkpt lat="45.5082279" lon="9.2543649"><ele>129.0</ele><time>2026-04-26T14:05:39.464Z</time></trkpt><trkpt lat="45.5082878" lon="9.2544065"><ele>129.0</ele><time>2026-04-26T14:05:45.444Z</time></trkpt><trkpt lat="45.5083616" lon="9.2544123"><ele>129.0</ele><time>2026-04-26T14:05:52.46Z</time></trkpt><trkpt lat="45.5084215" lon="9.2543698"><ele>128.99999999999997</ele><time>2026-04-26T14:05:57.465Z</time></trkpt><trkpt lat="45.5084917" lon="9.2543457"><ele>129.0</ele><time>2026-04-26T14:06:02.425Z</time></trkpt><trkpt lat="45.5085415" lon="9.2544011"><ele>128.99999999999997</ele><time>2026-04-26T14:06:06.32Z</time></trkpt><trkpt lat="45.5085882" lon="9.25447"><ele>129.0</ele><time>2026-04-26T14:06:11.455Z</time></trkpt><trkpt lat="45.5086562" lon="9.2544272"><ele>129.0</ele><time>2026-04-26T14:06:17.46Z</time></trkpt><trkpt lat="45.5086888" lon="9.2543368"><ele>129.0</ele><time>2026-04-26T14:06:21.483Z</time></trkpt><trkpt lat="45.5087338" lon="9.2542473"><ele>129.0</ele><time>2026-04-26T14:06:27.466Z</time></trkpt><trkpt lat="45.5087857" lon="9.2541767"><ele>128.99999999999997</ele><time>2026-04-26T14:06:35.482Z</time></trkpt><trkpt lat="45.5088288" lon="9.2541092"><ele>129.0</ele><time>2026-04-26T14:06:41.355Z</time></trkpt><trkpt lat="45.5087441" lon="9.2542144"><ele>129.0</ele><time>2026-04-26T14:07:41.743Z</time></trkpt><trkpt lat="45.5087349" lon="9.2545634"><ele>129.0</ele><time>2026-04-26T14:07:46.462Z</time></trkpt><trkpt lat="45.5086703" lon="9.2546049"><ele>129.0</ele><time>2026-04-26T14:07:48.461Z</time></trkpt><trkpt lat="45.5085775" lon="9.2544385"><ele>129.0</ele><time>2026-04-26T14:08:05.452Z</time></trkpt><trkpt lat="45.5086335" lon="9.2543734"><ele>129.0</ele><time>2026-04-26T14:08:10.453Z</time></trkpt><trkpt lat="45.5087071" lon="9.2543185"><ele>129.0</ele><time>2026-04-26T14:08:15.451Z</time></trkpt><trkpt lat="45.5086421" lon="9.2542893"><ele>129.0</ele><time>2026-04-26T14:08:28.459Z</time></trkpt><trkpt lat="45.5085599" lon="9.2542978"><ele>129.0</ele><time>2026-04-26T14:08:31.451Z</time></trkpt><trkpt lat="45.5084922" lon="9.2543008"><ele>129.0</ele><time>2026-04-26T14:08:33.46Z</time></trkpt><trkpt lat="45.5084991" lon="9.2544119"><ele>128.99999999999997</ele><time>2026-04-26T14:08:53.57Z</time></trkpt><trkpt lat="45.5085192" lon="9.2545071"><ele>129.0</ele><time>2026-04-26T14:08:55.463Z</time></trkpt><trkpt lat="45.5085882" lon="9.2545128"><ele>129.0</ele><time>2026-04-26T14:08:59.462Z</time></trkpt><trkpt lat="45.5086481" lon="9.254544"><ele>129.0</ele><time>2026-04-26T14:09:02.469Z</time></trkpt><trkpt lat="45.5087066" lon="9.2544833"><ele>129.0</ele><time>2026-04-26T14:09:04.47Z</time></trkpt><trkpt lat="45.5087422" lon="9.2543938"><ele>128.99999999999997</ele><time>2026-04-26T14:09:06.466Z</time></trkpt><trkpt lat="45.5086751" lon="9.2544165"><ele>129.0</ele><time>2026-04-26T14:09:20.464Z</time></trkpt><trkpt lat="45.5085954" lon="9.2543887"><ele>129.0</ele><time>2026-04-26T14:09:32.464Z</time></trkpt><trkpt lat="45.5084928" lon="9.2543253"><ele>129.0</ele><time>2026-04-26T14:09:34.463Z</time></trkpt><trkpt lat="45.5084217" lon="9.2542461"><ele>129.0</ele><time>2026-04-26T14:09:35.468Z</time></trkpt><trkpt lat="45.5083586" lon="9.2541715"><ele>129.0</ele><time>2026-04-26T14:09:36.465Z</time></trkpt><trkpt lat="45.5083044" lon="9.2541084"><ele>129.0</ele><time>2026-04-26T14:09:37.475Z</time></trkpt><trkpt lat="45.508229" lon="9.2539893"><ele>129.0</ele><time>2026-04-26T14:09:39.475Z</time></trkpt><trkpt lat="45.5081777" lon="9.2538979"><ele>129.0</ele><time>2026-04-26T14:09:41.473Z</time></trkpt><trkpt lat="45.5081073" lon="9.2538791"><ele>129.0</ele><time>2026-04-26T14:09:44.456Z</time></trkpt><trkpt lat="45.5080268" lon="9.2539788"><ele>129.0</ele><time>2026-04-26T14:10:22.468Z</time></trkpt><trkpt lat="45.5079371" lon="9.2540813"><ele>129.0</ele><time>2026-04-26T14:10:24.458Z</time></trkpt><trkpt lat="45.5078926" lon="9.2541452"><ele>129.0</ele><time>2026-04-26T14:10:25.458Z</time></trkpt><trkpt lat="45.5078274" lon="9.2542605"><ele>128.6</ele><time>2026-04-26T14:10:27.462Z</time></trkpt><trkpt lat="45.5077781" lon="9.2543233"><ele>128.2</ele><time>2026-04-26T14:10:29.459Z</time></trkpt><trkpt lat="45.5076426" lon="9.2542194"><ele>127.79999999999998</ele><time>2026-04-26T14:10:32.469Z</time></trkpt><trkpt lat="45.5075734" lon="9.2541313"><ele>127.39999999999999</ele><time>2026-04-26T14:10:33.456Z</time></trkpt><trkpt lat="45.5074853" lon="9.2540132"><ele>127.0</ele><time>2026-04-26T14:10:34.465Z</time></trkpt><trkpt lat="45.5073784" lon="9.2538689"><ele>127.25</ele><time>2026-04-26T14:10:35.473Z</time></trkpt><trkpt lat="45.5072843" lon="9.2537475"><ele>127.5</ele><time>2026-04-26T14:10:36.46Z</time></trkpt><trkpt lat="45.5071996" lon="9.2536328"><ele>127.75</ele><time>2026-04-26T14:10:37.56Z</time></trkpt><trkpt lat="45.5071209" lon="9.2535312"><ele>128.0</ele><time>2026-04-26T14:10:38.464Z</time></trkpt><trkpt lat="45.5070394" lon="9.2534271"><ele>127.99999999999999</ele><time>2026-04-26T14:10:39.469Z</time></trkpt><trkpt lat="45.5069749" lon="9.2533434"><ele>128.0</ele><time>2026-04-26T14:10:40.458Z</time></trkpt><trkpt lat="45.5069028" lon="9.2532561"><ele>128.0</ele><time>2026-04-26T14:10:41.468Z</time></trkpt><trkpt lat="45.5068348" lon="9.2531709"><ele>128.0</ele><time>2026-04-26T14:10:42.466Z</time></trkpt><trkpt lat="45.5067808" lon="9.2531104"><ele>127.99999999999999</ele><time>2026-04-26T14:10:43.469Z</time></trkpt><trkpt lat="45.5066828" lon="9.2530451"><ele>128.0</ele><time>2026-04-26T14:10:45.468Z</time></trkpt><trkpt lat="45.5066185" lon="9.2531082"><ele>127.99999999999999</ele><time>2026-04-26T14:10:47.468Z</time></trkpt><trkpt lat="45.5065862" lon="9.2532217"><ele>128.0</ele><time>2026-04-26T14:10:49.459Z</time></trkpt><trkpt lat="45.5065911" lon="9.2533203"><ele>128.0</ele><time>2026-04-26T14:10:52.461Z</time></trkpt><trkpt lat="45.5066454" lon="9.253375"><ele>128.0</ele><time>2026-04-26T14:13:14.451Z</time></trkpt><trkpt lat="45.5067385" lon="9.2534091"><ele>127.99999999999999</ele><time>2026-04-26T14:13:17.454Z</time></trkpt><trkpt lat="45.50681" lon="9.253361"><ele>128.0</ele><time>2026-04-26T14:13:20.455Z</time></trkpt><trkpt lat="45.5068523" lon="9.2532836"><ele>128.0</ele><time>2026-04-26T14:13:29.463Z</time></trkpt><trkpt lat="45.5068119" lon="9.253148"><ele>128.0</ele><time>2026-04-26T14:13:31.46Z</time></trkpt><trkpt lat="45.5067625" lon="9.2530642"><ele>128.0</ele><time>2026-04-26T14:13:32.455Z</time></trkpt><trkpt lat="45.5066916" lon="9.252965"><ele>128.0</ele><time>2026-04-26T14:13:33.48Z</time></trkpt><trkpt lat="45.5066034" lon="9.2528403"><ele>128.0</ele><time>2026-04-26T14:13:34.452Z</time></trkpt><trkpt lat="45.5065068" lon="9.2527104"><ele>127.75</ele><time>2026-04-26T14:13:35.458Z</time></trkpt><trkpt lat="45.5064067" lon="9.2525841"><ele>127.5</ele><time>2026-04-26T14:13:36.452Z</time></trkpt><trkpt lat="45.5063156" lon="9.2524695"><ele>127.25</ele><time>2026-04-26T14:13:37.455Z</time></trkpt><trkpt lat="45.5062321" lon="9.2523612"><ele>127.0</ele><time>2026-04-26T14:13:38.453Z</time></trkpt><trkpt lat="45.5061484" lon="9.2522591"><ele>126.8</ele><time>2026-04-26T14:13:39.463Z</time></trkpt><trkpt lat="45.5060644" lon="9.2521511"><ele>126.6</ele><time>2026-04-26T14:13:40.454Z</time></trkpt><trkpt lat="45.5059785" lon="9.2520413"><ele>126.39999999999999</ele><time>2026-04-26T14:13:41.461Z</time></trkpt><trkpt lat="45.5058976" lon="9.2519381"><ele>126.19999999999999</ele><time>2026-04-26T14:13:42.452Z</time></trkpt><trkpt lat="45.5058236" lon="9.2518439"><ele>126.0</ele><time>2026-04-26T14:13:43.459Z</time></trkpt><trkpt lat="45.5057568" lon="9.2517606"><ele>126.0</ele><time>2026-04-26T14:13:44.454Z</time></trkpt><trkpt lat="45.5056874" lon="9.2516761"><ele>126.0</ele><time>2026-04-26T14:13:45.463Z</time></trkpt><trkpt lat="45.5056174" lon="9.2515877"><ele>126.0</ele><time>2026-04-26T14:13:46.458Z</time></trkpt><trkpt lat="45.5055416" lon="9.2514892"><ele>126.0</ele><time>2026-04-26T14:13:47.462Z</time></trkpt><trkpt lat="45.5054533" lon="9.2513959"><ele>126.0</ele><time>2026-04-26T14:13:48.453Z</time></trkpt><trkpt lat="45.5053675" lon="9.2512938"><ele>127.0</ele><time>2026-04-26T14:13:49.459Z</time></trkpt><trkpt lat="45.505286" lon="9.2511995"><ele>128.0</ele><time>2026-04-26T14:13:50.452Z</time></trkpt><trkpt lat="45.5051977" lon="9.2511137"><ele>129.0</ele><time>2026-04-26T14:13:51.455Z</time></trkpt><trkpt lat="45.505107" lon="9.2510138"><ele>130.0</ele><time>2026-04-26T14:13:52.459Z</time></trkpt><trkpt lat="45.5050294" lon="9.2509302"><ele>131.0</ele><time>2026-04-26T14:13:53.462Z</time></trkpt><trkpt lat="45.5049578" lon="9.2508442"><ele>131.0</ele><time>2026-04-26T14:13:54.456Z</time></trkpt><trkpt lat="45.5048844" lon="9.2507618"><ele>131.0</ele><time>2026-04-26T14:13:55.455Z</time></trkpt><trkpt lat="45.5048059" lon="9.2506456"><ele>131.0</ele><time>2026-04-26T14:13:56.455Z</time></trkpt><trkpt lat="45.5047181" lon="9.2505208"><ele>131.0</ele><time>2026-04-26T14:13:57.464Z</time></trkpt><trkpt lat="45.5046197" lon="9.2503738"><ele>130.33333333333331</ele><time>2026-04-26T14:13:58.454Z</time></trkpt><trkpt lat="45.5045062" lon="9.2502193"><ele>129.66666666666666</ele><time>2026-04-26T14:13:59.453Z</time></trkpt><trkpt lat="45.5043812" lon="9.2500445"><ele>129.0</ele><time>2026-04-26T14:14:00.453Z</time></trkpt><trkpt lat="45.5042463" lon="9.2498485"><ele>128.66666666666666</ele><time>2026-04-26T14:14:01.463Z</time></trkpt><trkpt lat="45.5041089" lon="9.2496448"><ele>128.33333333333331</ele><time>2026-04-26T14:14:02.456Z</time></trkpt><trkpt lat="45.5039772" lon="9.2494645"><ele>128.0</ele><time>2026-04-26T14:14:03.463Z</time></trkpt><trkpt lat="45.503842" lon="9.2492754"><ele>127.66666666666666</ele><time>2026-04-26T14:14:04.454Z</time></trkpt><trkpt lat="45.5037001" lon="9.2490964"><ele>127.33333333333334</ele><time>2026-04-26T14:14:05.458Z</time></trkpt><trkpt lat="45.5035664" lon="9.2489161"><ele>127.0</ele><time>2026-04-26T14:14:06.45Z</time></trkpt><trkpt lat="45.5034417" lon="9.2487507"><ele>126.5</ele><time>2026-04-26T14:14:07.455Z</time></trkpt><trkpt lat="45.503324" lon="9.2485961"><ele>126.0</ele><time>2026-04-26T14:14:08.452Z</time></trkpt><trkpt lat="45.5032138" lon="9.2484566"><ele>125.5</ele><time>2026-04-26T14:14:09.46Z</time></trkpt><trkpt lat="45.5031148" lon="9.2483283"><ele>125.0</ele><time>2026-04-26T14:14:10.449Z</time></trkpt><trkpt lat="45.5030236" lon="9.2482123"><ele>125.16666666666666</ele><time>2026-04-26T14:14:11.462Z</time></trkpt><trkpt lat="45.5029405" lon="9.2481072"><ele>125.33333333333333</ele><time>2026-04-26T14:14:12.453Z</time></trkpt><trkpt lat="45.5028696" lon="9.2480163"><ele>125.5</ele><time>2026-04-26T14:14:13.464Z</time></trkpt><trkpt lat="45.5028067" lon="9.2479358"><ele>125.66666666666666</ele><time>2026-04-26T14:14:14.453Z</time></trkpt><trkpt lat="45.5027483" lon="9.2478609"><ele>125.83333333333333</ele><time>2026-04-26T14:14:15.459Z</time></trkpt><trkpt lat="45.5026894" lon="9.247787"><ele>126.0</ele><time>2026-04-26T14:14:16.457Z</time></trkpt><trkpt lat="45.5026352" lon="9.2477171"><ele>126.0</ele><time>2026-04-26T14:14:17.463Z</time></trkpt><trkpt lat="45.5025481" lon="9.2476077"><ele>126.0</ele><time>2026-04-26T14:14:19.462Z</time></trkpt><trkpt lat="45.5024826" lon="9.2475198"><ele>126.0</ele><time>2026-04-26T14:14:21.464Z</time></trkpt><trkpt lat="45.5024407" lon="9.247452"><ele>126.0</ele><time>2026-04-26T14:14:23.459Z</time></trkpt><trkpt lat="45.5023696" lon="9.2473296"><ele>126.0</ele><time>2026-04-26T14:14:27.463Z</time></trkpt><trkpt lat="45.502317" lon="9.2472548"><ele>126.4</ele><time>2026-04-26T14:14:28.462Z</time></trkpt><trkpt lat="45.5022467" lon="9.2471605"><ele>126.8</ele><time>2026-04-26T14:14:29.466Z</time></trkpt><trkpt lat="45.50218" lon="9.2470633"><ele>127.20000000000002</ele><time>2026-04-26T14:14:30.454Z</time></trkpt><trkpt lat="45.502103" lon="9.2469591"><ele>127.60000000000001</ele><time>2026-04-26T14:14:31.455Z</time></trkpt><trkpt lat="45.5020248" lon="9.2468509"><ele>128.0</ele><time>2026-04-26T14:14:32.456Z</time></trkpt><trkpt lat="45.5019315" lon="9.2467321"><ele>128.0</ele><time>2026-04-26T14:14:33.463Z</time></trkpt><trkpt lat="45.5018328" lon="9.2466065"><ele>128.0</ele><time>2026-04-26T14:14:34.455Z</time></trkpt><trkpt lat="45.5017307" lon="9.2464768"><ele>128.0</ele><time>2026-04-26T14:14:35.461Z</time></trkpt><trkpt lat="45.501631" lon="9.2463496"><ele>128.0</ele><time>2026-04-26T14:14:36.456Z</time></trkpt><trkpt lat="45.5015353" lon="9.2462288"><ele>128.25</ele><time>2026-04-26T14:14:37.464Z</time></trkpt><trkpt lat="45.5014658" lon="9.2460794"><ele>128.5</ele><time>2026-04-26T14:14:38.453Z</time></trkpt><trkpt lat="45.5014049" lon="9.2459145"><ele>128.75</ele><time>2026-04-26T14:14:39.458Z</time></trkpt><trkpt lat="45.5013635" lon="9.2457363"><ele>129.0</ele><time>2026-04-26T14:14:40.455Z</time></trkpt><trkpt lat="45.501343" lon="9.2455345"><ele>129.0</ele><time>2026-04-26T14:14:41.466Z</time></trkpt><trkpt lat="45.5013193" lon="9.24531"><ele>129.0</ele><time>2026-04-26T14:14:42.455Z</time></trkpt><trkpt lat="45.5012965" lon="9.2450782"><ele>129.0</ele><time>2026-04-26T14:14:43.455Z</time></trkpt><trkpt lat="45.5012761" lon="9.2448686"><ele>129.25</ele><time>2026-04-26T14:14:44.459Z</time></trkpt><trkpt lat="45.5012544" lon="9.2446627"><ele>129.5</ele><time>2026-04-26T14:14:45.455Z</time></trkpt><trkpt lat="45.5012351" lon="9.2444692"><ele>129.75</ele><time>2026-04-26T14:14:46.458Z</time></trkpt><trkpt lat="45.5012119" lon="9.2442912"><ele>130.0</ele><time>2026-04-26T14:14:47.459Z</time></trkpt><trkpt lat="45.5011647" lon="9.244123"><ele>129.5</ele><time>2026-04-26T14:14:48.482Z</time></trkpt><trkpt lat="45.5011072" lon="9.243961"><ele>129.0</ele><time>2026-04-26T14:14:49.453Z</time></trkpt><trkpt lat="45.5009941" lon="9.243814"><ele>128.5</ele><time>2026-04-26T14:14:50.461Z</time></trkpt><trkpt lat="45.5008765" lon="9.2436549"><ele>128.0</ele><time>2026-04-26T14:14:51.453Z</time></trkpt><trkpt lat="45.5007432" lon="9.2434816"><ele>128.0</ele><time>2026-04-26T14:14:52.462Z</time></trkpt><trkpt lat="45.5006096" lon="9.2433115"><ele>128.0</ele><time>2026-04-26T14:14:53.458Z</time></trkpt><trkpt lat="45.5004624" lon="9.2431283"><ele>128.0</ele><time>2026-04-26T14:14:54.462Z</time></trkpt><trkpt lat="45.5003092" lon="9.2429388"><ele>128.66666666666666</ele><time>2026-04-26T14:14:55.455Z</time></trkpt><trkpt lat="45.5001563" lon="9.2427434"><ele>129.33333333333334</ele><time>2026-04-26T14:14:56.459Z</time></trkpt><trkpt lat="45.5000041" lon="9.2425523"><ele>130.0</ele><time>2026-04-26T14:14:57.461Z</time></trkpt><trkpt lat="45.4998676" lon="9.2423804"><ele>130.0</ele><time>2026-04-26T14:14:58.464Z</time></trkpt><trkpt lat="45.4997522" lon="9.2422396"><ele>130.0</ele><time>2026-04-26T14:14:59.456Z</time></trkpt><trkpt lat="45.4996523" lon="9.2421132"><ele>130.0</ele><time>2026-04-26T14:15:00.48Z</time></trkpt><trkpt lat="45.4995888" lon="9.2420274"><ele>130.0</ele><time>2026-04-26T14:15:01.457Z</time></trkpt><trkpt lat="45.499542" lon="9.2419624"><ele>130.0</ele><time>2026-04-26T14:15:02.461Z</time></trkpt><trkpt lat="45.4994759" lon="9.2418724"><ele>129.8</ele><time>2026-04-26T14:15:04.464Z</time></trkpt><trkpt lat="45.4993916" lon="9.241777"><ele>129.6</ele><time>2026-04-26T14:15:27.461Z</time></trkpt><trkpt lat="45.4993401" lon="9.2417125"><ele>129.4</ele><time>2026-04-26T14:15:28.457Z</time></trkpt><trkpt lat="45.4992765" lon="9.2416287"><ele>129.2</ele><time>2026-04-26T14:15:29.46Z</time></trkpt><trkpt lat="45.4991836" lon="9.2415267"><ele>129.0</ele><time>2026-04-26T14:15:30.461Z</time></trkpt><trkpt lat="45.4990867" lon="9.2414091"><ele>129.0</ele><time>2026-04-26T14:15:31.456Z</time></trkpt><trkpt lat="45.498983" lon="9.2412784"><ele>129.0</ele><time>2026-04-26T14:15:32.464Z</time></trkpt><trkpt lat="45.4988683" lon="9.2411328"><ele>129.0</ele><time>2026-04-26T14:15:33.458Z</time></trkpt><trkpt lat="45.4987487" lon="9.2409822"><ele>128.25</ele><time>2026-04-26T14:15:34.453Z</time></trkpt><trkpt lat="45.4986367" lon="9.2408329"><ele>127.5</ele><time>2026-04-26T14:15:35.453Z</time></trkpt><trkpt lat="45.4985327" lon="9.2406952"><ele>126.75</ele><time>2026-04-26T14:15:36.456Z</time></trkpt><trkpt lat="45.498433" lon="9.2405663"><ele>126.0</ele><time>2026-04-26T14:15:37.454Z</time></trkpt><trkpt lat="45.4983391" lon="9.2404427"><ele>125.75</ele><time>2026-04-26T14:15:38.46Z</time></trkpt><trkpt lat="45.4982406" lon="9.2403151"><ele>125.5</ele><time>2026-04-26T14:15:39.456Z</time></trkpt><trkpt lat="45.4981366" lon="9.2401833"><ele>125.25</ele><time>2026-04-26T14:15:40.455Z</time></trkpt><trkpt lat="45.4980248" lon="9.2400398"><ele>125.0</ele><time>2026-04-26T14:15:41.454Z</time></trkpt><trkpt lat="45.4979141" lon="9.239895"><ele>125.33333333333333</ele><time>2026-04-26T14:15:42.458Z</time></trkpt><trkpt lat="45.4978018" lon="9.2397526"><ele>125.66666666666666</ele><time>2026-04-26T14:15:43.459Z</time></trkpt><trkpt lat="45.4976899" lon="9.2396073"><ele>126.0</ele><time>2026-04-26T14:15:44.458Z</time></trkpt><trkpt lat="45.4975779" lon="9.2394658"><ele>126.0</ele><time>2026-04-26T14:15:45.455Z</time></trkpt><trkpt lat="45.4974656" lon="9.2393267"><ele>126.0</ele><time>2026-04-26T14:15:46.483Z</time></trkpt><trkpt lat="45.4973639" lon="9.2391907"><ele>126.0</ele><time>2026-04-26T14:15:47.462Z</time></trkpt><trkpt lat="45.4972685" lon="9.2390672"><ele>126.0</ele><time>2026-04-26T14:15:48.456Z</time></trkpt><trkpt lat="45.4971787" lon="9.2389513"><ele>126.4</ele><time>2026-04-26T14:15:49.452Z</time></trkpt><trkpt lat="45.4970978" lon="9.2388478"><ele>126.8</ele><time>2026-04-26T14:15:50.448Z</time></trkpt><trkpt lat="45.4970218" lon="9.238752"><ele>127.20000000000002</ele><time>2026-04-26T14:15:51.448Z</time></trkpt><trkpt lat="45.4969546" lon="9.2386768"><ele>127.60000000000001</ele><time>2026-04-26T14:15:52.453Z</time></trkpt><trkpt lat="45.496895" lon="9.2386053"><ele>128.0</ele><time>2026-04-26T14:15:53.487Z</time></trkpt><trkpt lat="45.496806" lon="9.238493"><ele>128.20000000000002</ele><time>2026-04-26T14:15:55.458Z</time></trkpt><trkpt lat="45.4967445" lon="9.2384083"><ele>128.4</ele><time>2026-04-26T14:15:58.46Z</time></trkpt><trkpt lat="45.4966997" lon="9.2383292"><ele>128.60000000000002</ele><time>2026-04-26T14:16:08.452Z</time></trkpt><trkpt lat="45.4966023" lon="9.238215"><ele>128.8</ele><time>2026-04-26T14:16:10.452Z</time></trkpt><trkpt lat="45.4965182" lon="9.2381313"><ele>129.0</ele><time>2026-04-26T14:16:11.451Z</time></trkpt><trkpt lat="45.4964197" lon="9.2380405"><ele>129.0</ele><time>2026-04-26T14:16:12.454Z</time></trkpt><trkpt lat="45.496313" lon="9.2379462"><ele>129.0</ele><time>2026-04-26T14:16:13.45Z</time></trkpt><trkpt lat="45.4962049" lon="9.2378522"><ele>129.0</ele><time>2026-04-26T14:16:14.449Z</time></trkpt><trkpt lat="45.4960742" lon="9.2377788"><ele>129.0</ele><time>2026-04-26T14:16:15.454Z</time></trkpt><trkpt lat="45.4959437" lon="9.2376915"><ele>129.0</ele><time>2026-04-26T14:16:16.45Z</time></trkpt><trkpt lat="45.4957979" lon="9.2376003"><ele>129.0</ele><time>2026-04-26T14:16:17.448Z</time></trkpt><trkpt lat="45.4956616" lon="9.237548"><ele>129.0</ele><time>2026-04-26T14:16:18.463Z</time></trkpt><trkpt lat="45.4955119" lon="9.2374803"><ele>128.33333333333334</ele><time>2026-04-26T14:16:19.46Z</time></trkpt><trkpt lat="45.4953619" lon="9.2374327"><ele>127.66666666666667</ele><time>2026-04-26T14:16:20.46Z</time></trkpt><trkpt lat="45.4952125" lon="9.2373908"><ele>127.0</ele><time>2026-04-26T14:16:21.488Z</time></trkpt><trkpt lat="45.495054" lon="9.2373739"><ele>127.0</ele><time>2026-04-26T14:16:22.459Z</time></trkpt><trkpt lat="45.4949096" lon="9.2373641"><ele>127.0</ele><time>2026-04-26T14:16:23.486Z</time></trkpt><trkpt lat="45.4947666" lon="9.2373732"><ele>127.0</ele><time>2026-04-26T14:16:24.459Z</time></trkpt><trkpt lat="45.4946356" lon="9.237395"><ele>127.0</ele><time>2026-04-26T14:16:25.492Z</time></trkpt><trkpt lat="45.4945092" lon="9.2374195"><ele>127.0</ele><time>2026-04-26T14:16:26.455Z</time></trkpt><trkpt lat="45.4943912" lon="9.2374509"><ele>126.99999999999999</ele><time>2026-04-26T14:16:27.46Z</time></trkpt><trkpt lat="45.4942807" lon="9.2374762"><ele>126.99999999999999</ele><time>2026-04-26T14:16:28.46Z</time></trkpt><trkpt lat="45.4941798" lon="9.2375028"><ele>127.0</ele><time>2026-04-26T14:16:29.456Z</time></trkpt><trkpt lat="45.4940906" lon="9.237514"><ele>127.0</ele><time>2026-04-26T14:16:30.457Z</time></trkpt><trkpt lat="45.494023" lon="9.2375254"><ele>127.0</ele><time>2026-04-26T14:16:31.484Z</time></trkpt><trkpt lat="45.4939314" lon="9.2374514"><ele>126.99999999999999</ele><time>2026-04-26T14:16:33.464Z</time></trkpt><trkpt lat="45.4938986" lon="9.2372692"><ele>126.99999999999999</ele><time>2026-04-26T14:16:35.454Z</time></trkpt><trkpt lat="45.493889" lon="9.2371467"><ele>127.0</ele><time>2026-04-26T14:16:36.457Z</time></trkpt><trkpt lat="45.4938748" lon="9.2370016"><ele>127.0</ele><time>2026-04-26T14:16:37.482Z</time></trkpt><trkpt lat="45.4938585" lon="9.2368352"><ele>127.00000000000001</ele><time>2026-04-26T14:16:38.452Z</time></trkpt><trkpt lat="45.4938457" lon="9.2366913"><ele>127.0</ele><time>2026-04-26T14:16:39.453Z</time></trkpt><trkpt lat="45.4938327" lon="9.2365504"><ele>127.0</ele><time>2026-04-26T14:16:40.458Z</time></trkpt><trkpt lat="45.4938233" lon="9.2364205"><ele>127.0</ele><time>2026-04-26T14:16:41.482Z</time></trkpt><trkpt lat="45.4938089" lon="9.236307"><ele>127.00000000000001</ele><time>2026-04-26T14:16:42.453Z</time></trkpt><trkpt lat="45.4937804" lon="9.2362144"><ele>127.0</ele><time>2026-04-26T14:16:43.458Z</time></trkpt><trkpt lat="45.4936646" lon="9.2361503"><ele>127.0</ele><time>2026-04-26T14:16:45.483Z</time></trkpt><trkpt lat="45.4935672" lon="9.2361722"><ele>127.0</ele><time>2026-04-26T14:16:46.455Z</time></trkpt><trkpt lat="45.4934562" lon="9.2361903"><ele>127.0</ele><time>2026-04-26T14:16:47.482Z</time></trkpt><trkpt lat="45.4932801" lon="9.2362591"><ele>127.0</ele><time>2026-04-26T14:16:48.457Z</time></trkpt><trkpt lat="45.4931095" lon="9.2363148"><ele>127.0</ele><time>2026-04-26T14:16:49.46Z</time></trkpt><trkpt lat="45.492944" lon="9.2363637"><ele>127.0</ele><time>2026-04-26T14:16:50.453Z</time></trkpt><trkpt lat="45.4927874" lon="9.2364134"><ele>127.0</ele><time>2026-04-26T14:16:51.609Z</time></trkpt><trkpt lat="45.4924835" lon="9.2365213"><ele>127.0</ele><time>2026-04-26T14:16:53.454Z</time></trkpt><trkpt lat="45.4923205" lon="9.2365643"><ele>127.0</ele><time>2026-04-26T14:16:54.459Z</time></trkpt><trkpt lat="45.492181" lon="9.236607"><ele>127.0</ele><time>2026-04-26T14:16:55.461Z</time></trkpt><trkpt lat="45.4920514" lon="9.2366422"><ele>127.0</ele><time>2026-04-26T14:16:56.463Z</time></trkpt><trkpt lat="45.4919388" lon="9.2366856"><ele>126.33333333333334</ele><time>2026-04-26T14:16:57.462Z</time></trkpt><trkpt lat="45.4918376" lon="9.2367197"><ele>125.66666666666667</ele><time>2026-04-26T14:16:58.467Z</time></trkpt><trkpt lat="45.491741" lon="9.2367486"><ele>125.0</ele><time>2026-04-26T14:16:59.455Z</time></trkpt><trkpt lat="45.4916531" lon="9.236774"><ele>124.33333333333334</ele><time>2026-04-26T14:17:00.454Z</time></trkpt><trkpt lat="45.4915787" lon="9.2367964"><ele>123.66666666666667</ele><time>2026-04-26T14:17:01.455Z</time></trkpt><trkpt lat="45.4915103" lon="9.2368167"><ele>123.0</ele><time>2026-04-26T14:17:02.456Z</time></trkpt><trkpt lat="45.4914073" lon="9.236829"><ele>123.0</ele><time>2026-04-26T14:17:04.455Z</time></trkpt><trkpt lat="45.4913311" lon="9.2368024"><ele>123.00000000000001</ele><time>2026-04-26T14:17:07.456Z</time></trkpt><trkpt lat="45.4912253" lon="9.2366999"><ele>123.00000000000001</ele><time>2026-04-26T14:17:09.456Z</time></trkpt><trkpt lat="45.4911318" lon="9.236627"><ele>123.0</ele><time>2026-04-26T14:17:11.453Z</time></trkpt><trkpt lat="45.4910614" lon="9.2365868"><ele>123.0</ele><time>2026-04-26T14:17:14.46Z</time></trkpt><trkpt lat="45.4909961" lon="9.236548"><ele>124.2</ele><time>2026-04-26T14:17:20.46Z</time></trkpt><trkpt lat="45.4909292" lon="9.2364448"><ele>125.4</ele><time>2026-04-26T14:17:23.457Z</time></trkpt><trkpt lat="45.4908845" lon="9.2362962"><ele>126.60000000000001</ele><time>2026-04-26T14:17:25.456Z</time></trkpt><trkpt lat="45.4908441" lon="9.2361827"><ele>127.80000000000001</ele><time>2026-04-26T14:17:26.461Z</time></trkpt><trkpt lat="45.4908063" lon="9.2360737"><ele>129.0</ele><time>2026-04-26T14:17:27.455Z</time></trkpt><trkpt lat="45.4907676" lon="9.2359706"><ele>129.0</ele><time>2026-04-26T14:17:28.46Z</time></trkpt><trkpt lat="45.4907269" lon="9.2358682"><ele>129.0</ele><time>2026-04-26T14:17:29.454Z</time></trkpt><trkpt lat="45.4906854" lon="9.2357676"><ele>129.0</ele><time>2026-04-26T14:17:30.46Z</time></trkpt><trkpt lat="45.4906501" lon="9.235669"><ele>129.0</ele><time>2026-04-26T14:17:31.455Z</time></trkpt><trkpt lat="45.4906115" lon="9.2355701"><ele>129.0</ele><time>2026-04-26T14:17:32.452Z</time></trkpt><trkpt lat="45.4905721" lon="9.2354725"><ele>129.0</ele><time>2026-04-26T14:17:33.455Z</time></trkpt><trkpt lat="45.490534" lon="9.235371"><ele>129.16666666666666</ele><time>2026-04-26T14:17:34.458Z</time></trkpt><trkpt lat="45.4904999" lon="9.2352667"><ele>129.33333333333334</ele><time>2026-04-26T14:17:35.452Z</time></trkpt><trkpt lat="45.4904547" lon="9.2351698"><ele>129.5</ele><time>2026-04-26T14:17:36.455Z</time></trkpt><trkpt lat="45.4904205" lon="9.2350662"><ele>129.66666666666669</ele><time>2026-04-26T14:17:37.453Z</time></trkpt><trkpt lat="45.4903809" lon="9.2349673"><ele>129.83333333333334</ele><time>2026-04-26T14:17:38.452Z</time></trkpt><trkpt lat="45.4903441" lon="9.2348647"><ele>130.0</ele><time>2026-04-26T14:17:39.459Z</time></trkpt><trkpt lat="45.4902923" lon="9.2347767"><ele>130.0</ele><time>2026-04-26T14:17:40.452Z</time></trkpt><trkpt lat="45.4902536" lon="9.234689"><ele>130.0</ele><time>2026-04-26T14:17:41.46Z</time></trkpt><trkpt lat="45.4902123" lon="9.2345996"><ele>130.0</ele><time>2026-04-26T14:17:42.456Z</time></trkpt><trkpt lat="45.4901709" lon="9.2345088"><ele>130.0</ele><time>2026-04-26T14:17:43.462Z</time></trkpt><trkpt lat="45.4901288" lon="9.2344136"><ele>130.0</ele><time>2026-04-26T14:17:44.457Z</time></trkpt><trkpt lat="45.4900876" lon="9.2343117"><ele>130.0</ele><time>2026-04-26T14:17:45.455Z</time></trkpt><trkpt lat="45.490047" lon="9.2342174"><ele>130.0</ele><time>2026-04-26T14:17:46.457Z</time></trkpt><trkpt lat="45.4900007" lon="9.234117"><ele>130.0</ele><time>2026-04-26T14:17:47.461Z</time></trkpt><trkpt lat="45.4899619" lon="9.2340167"><ele>130.0</ele><time>2026-04-26T14:17:48.452Z</time></trkpt><trkpt lat="45.4899246" lon="9.2339282"><ele>130.0</ele><time>2026-04-26T14:17:49.452Z</time></trkpt><trkpt lat="45.4898942" lon="9.2338468"><ele>130.0</ele><time>2026-04-26T14:17:50.452Z</time></trkpt><trkpt lat="45.4898343" lon="9.2337077"><ele>130.0</ele><time>2026-04-26T14:17:52.448Z</time></trkpt><trkpt lat="45.4897891" lon="9.2335973"><ele>129.8</ele><time>2026-04-26T14:17:54.457Z</time></trkpt><trkpt lat="45.4897573" lon="9.2335131"><ele>129.6</ele><time>2026-04-26T14:17:57.482Z</time></trkpt><trkpt lat="45.4897156" lon="9.2333823"><ele>129.4</ele><time>2026-04-26T14:18:02.456Z</time></trkpt><trkpt lat="45.4896678" lon="9.2332416"><ele>129.2</ele><time>2026-04-26T14:18:04.452Z</time></trkpt><trkpt lat="45.4896143" lon="9.2330826"><ele>129.0</ele><time>2026-04-26T14:18:06.454Z</time></trkpt><trkpt lat="45.4895824" lon="9.2329904"><ele>128.83333333333334</ele><time>2026-04-26T14:18:07.455Z</time></trkpt><trkpt lat="45.4895479" lon="9.232885"><ele>128.66666666666666</ele><time>2026-04-26T14:18:08.454Z</time></trkpt><trkpt lat="45.4895073" lon="9.2327523"><ele>128.5</ele><time>2026-04-26T14:18:09.46Z</time></trkpt><trkpt lat="45.4894576" lon="9.2326946"><ele>128.33333333333331</ele><time>2026-04-26T14:18:10.451Z</time></trkpt><trkpt lat="45.4894355" lon="9.2326013"><ele>128.16666666666666</ele><time>2026-04-26T14:18:11.455Z</time></trkpt><trkpt lat="45.4894031" lon="9.2325112"><ele>128.0</ele><time>2026-04-26T14:18:12.449Z</time></trkpt><trkpt lat="45.4893647" lon="9.2324182"><ele>127.99999999999999</ele><time>2026-04-26T14:18:13.458Z</time></trkpt><trkpt lat="45.4893406" lon="9.2323282"><ele>128.0</ele><time>2026-04-26T14:18:14.454Z</time></trkpt><trkpt lat="45.4893242" lon="9.2322223"><ele>128.0</ele><time>2026-04-26T14:18:15.457Z</time></trkpt><trkpt lat="45.4893052" lon="9.2320905"><ele>128.0</ele><time>2026-04-26T14:18:16.454Z</time></trkpt><trkpt lat="45.4892896" lon="9.2319429"><ele>127.99999999999999</ele><time>2026-04-26T14:18:17.463Z</time></trkpt><trkpt lat="45.4892774" lon="9.2318072"><ele>128.0</ele><time>2026-04-26T14:18:18.458Z</time></trkpt><trkpt lat="45.4892654" lon="9.23167"><ele>128.0</ele><time>2026-04-26T14:18:19.467Z</time></trkpt><trkpt lat="45.4892509" lon="9.2315258"><ele>128.0</ele><time>2026-04-26T14:18:20.457Z</time></trkpt><trkpt lat="45.4892397" lon="9.2313935"><ele>128.0</ele><time>2026-04-26T14:18:21.463Z</time></trkpt><trkpt lat="45.4892297" lon="9.2312679"><ele>128.0</ele><time>2026-04-26T14:18:22.454Z</time></trkpt><trkpt lat="45.489218" lon="9.231139"><ele>128.0</ele><time>2026-04-26T14:18:23.457Z</time></trkpt><trkpt lat="45.4892114" lon="9.2310017"><ele>128.16666666666666</ele><time>2026-04-26T14:18:24.457Z</time></trkpt><trkpt lat="45.4891985" lon="9.2308819"><ele>128.33333333333331</ele><time>2026-04-26T14:18:25.462Z</time></trkpt><trkpt lat="45.4891901" lon="9.2307745"><ele>128.5</ele><time>2026-04-26T14:18:26.455Z</time></trkpt><trkpt lat="45.4891787" lon="9.230673"><ele>128.66666666666666</ele><time>2026-04-26T14:18:27.463Z</time></trkpt><trkpt lat="45.4891701" lon="9.2305787"><ele>128.83333333333334</ele><time>2026-04-26T14:18:28.453Z</time></trkpt><trkpt lat="45.4891528" lon="9.2304211"><ele>129.0</ele><time>2026-04-26T14:18:30.455Z</time></trkpt><trkpt lat="45.4891399" lon="9.2303091"><ele>129.0</ele><time>2026-04-26T14:18:32.454Z</time></trkpt><trkpt lat="45.4891178" lon="9.2302001"><ele>129.0</ele><time>2026-04-26T14:18:35.453Z</time></trkpt><trkpt lat="45.4891064" lon="9.2300805"><ele>129.0</ele><time>2026-04-26T14:19:12.459Z</time></trkpt><trkpt lat="45.4890832" lon="9.2299773"><ele>129.0</ele><time>2026-04-26T14:19:17.484Z</time></trkpt><trkpt lat="45.489048" lon="9.2299011"><ele>129.0</ele><time>2026-04-26T14:19:20.455Z</time></trkpt><trkpt lat="45.4889747" lon="9.2298735"><ele>129.0</ele><time>2026-04-26T14:19:24.448Z</time></trkpt><trkpt lat="45.4888873" lon="9.2298774"><ele>129.0</ele><time>2026-04-26T14:19:26.458Z</time></trkpt><trkpt lat="45.4887606" lon="9.2298846"><ele>129.0</ele><time>2026-04-26T14:19:28.447Z</time></trkpt><trkpt lat="45.4886913" lon="9.2298815"><ele>129.0</ele><time>2026-04-26T14:19:29.456Z</time></trkpt><trkpt lat="45.4886222" lon="9.2298868"><ele>129.0</ele><time>2026-04-26T14:19:30.457Z</time></trkpt><trkpt lat="45.4885159" lon="9.2299068"><ele>129.0</ele><time>2026-04-26T14:19:32.456Z</time></trkpt><trkpt lat="45.4883866" lon="9.2299069"><ele>129.0</ele><time>2026-04-26T14:19:34.456Z</time></trkpt><trkpt lat="45.4883081" lon="9.2299022"><ele>129.0</ele><time>2026-04-26T14:19:35.481Z</time></trkpt><trkpt lat="45.4882324" lon="9.2299055"><ele>129.0</ele><time>2026-04-26T14:19:36.455Z</time></trkpt><trkpt lat="45.4881549" lon="9.2299006"><ele>129.0</ele><time>2026-04-26T14:19:37.483Z</time></trkpt><trkpt lat="45.4880663" lon="9.2298922"><ele>129.0</ele><time>2026-04-26T14:19:38.455Z</time></trkpt><trkpt lat="45.4879565" lon="9.2298897"><ele>129.0</ele><time>2026-04-26T14:19:39.456Z</time></trkpt><trkpt lat="45.4878359" lon="9.2298777"><ele>129.0</ele><time>2026-04-26T14:19:40.452Z</time></trkpt><trkpt lat="45.4877025" lon="9.2298786"><ele>129.0</ele><time>2026-04-26T14:19:41.457Z</time></trkpt><trkpt lat="45.4875785" lon="9.22988"><ele>129.0</ele><time>2026-04-26T14:19:42.461Z</time></trkpt><trkpt lat="45.4874629" lon="9.2298718"><ele>129.0</ele><time>2026-04-26T14:19:43.455Z</time></trkpt><trkpt lat="45.4873482" lon="9.2298779"><ele>129.0</ele><time>2026-04-26T14:19:44.456Z</time></trkpt><trkpt lat="45.4872304" lon="9.229875"><ele>129.0</ele><time>2026-04-26T14:19:45.454Z</time></trkpt><trkpt lat="45.4871274" lon="9.2298756"><ele>129.0</ele><time>2026-04-26T14:19:46.46Z</time></trkpt><trkpt lat="45.4870258" lon="9.2298737"><ele>129.0</ele><time>2026-04-26T14:19:47.455Z</time></trkpt><trkpt lat="45.4869212" lon="9.2298765"><ele>129.0</ele><time>2026-04-26T14:19:48.453Z</time></trkpt><trkpt lat="45.4868225" lon="9.2298721"><ele>129.33333333333334</ele><time>2026-04-26T14:19:49.455Z</time></trkpt><trkpt lat="45.4867324" lon="9.2298794"><ele>129.66666666666666</ele><time>2026-04-26T14:19:50.46Z</time></trkpt><trkpt lat="45.486652" lon="9.2298881"><ele>130.0</ele><time>2026-04-26T14:19:51.455Z</time></trkpt><trkpt lat="45.4865763" lon="9.2298905"><ele>130.33333333333331</ele><time>2026-04-26T14:19:52.46Z</time></trkpt><trkpt lat="45.4865125" lon="9.2298975"><ele>130.66666666666666</ele><time>2026-04-26T14:19:53.459Z</time></trkpt><trkpt lat="45.4864481" lon="9.2298976"><ele>131.0</ele><time>2026-04-26T14:19:54.464Z</time></trkpt><trkpt lat="45.4863686" lon="9.2298906"><ele>131.0</ele><time>2026-04-26T14:19:56.463Z</time></trkpt><trkpt lat="45.4862821" lon="9.2298522"><ele>131.0</ele><time>2026-04-26T14:20:27.46Z</time></trkpt><trkpt lat="45.4861935" lon="9.2298701"><ele>131.0</ele><time>2026-04-26T14:20:29.455Z</time></trkpt><trkpt lat="45.4860962" lon="9.2298806"><ele>131.0</ele><time>2026-04-26T14:20:31.453Z</time></trkpt><trkpt lat="45.4859933" lon="9.229867"><ele>131.0</ele><time>2026-04-26T14:20:32.457Z</time></trkpt><trkpt lat="45.4858992" lon="9.229881"><ele>130.4</ele><time>2026-04-26T14:20:33.455Z</time></trkpt><trkpt lat="45.485819" lon="9.2298961"><ele>129.8</ele><time>2026-04-26T14:20:34.452Z</time></trkpt><trkpt lat="45.4857421" lon="9.2298999"><ele>129.20000000000002</ele><time>2026-04-26T14:20:35.457Z</time></trkpt><trkpt lat="45.4856725" lon="9.2299096"><ele>128.6</ele><time>2026-04-26T14:20:36.462Z</time></trkpt><trkpt lat="45.4855564" lon="9.2298958"><ele>128.0</ele><time>2026-04-26T14:20:38.458Z</time></trkpt><trkpt lat="45.4854404" lon="9.2299002"><ele>128.20000000000002</ele><time>2026-04-26T14:20:40.456Z</time></trkpt><trkpt lat="45.4853359" lon="9.2299018"><ele>128.4</ele><time>2026-04-26T14:20:42.45Z</time></trkpt><trkpt lat="45.4852398" lon="9.2299184"><ele>128.60000000000002</ele><time>2026-04-26T14:20:44.455Z</time></trkpt><trkpt lat="45.4851428" lon="9.2299307"><ele>128.8</ele><time>2026-04-26T14:20:46.453Z</time></trkpt><trkpt lat="45.4850665" lon="9.2299279"><ele>129.0</ele><time>2026-04-26T14:20:48.454Z</time></trkpt><trkpt lat="45.4849908" lon="9.2299049"><ele>129.0</ele><time>2026-04-26T14:20:51.461Z</time></trkpt><trkpt lat="45.4848431" lon="9.229899"><ele>129.0</ele><time>2026-04-26T14:20:53.461Z</time></trkpt><trkpt lat="45.4847283" lon="9.229903"><ele>129.0</ele><time>2026-04-26T14:20:54.455Z</time></trkpt><trkpt lat="45.4845826" lon="9.2299157"><ele>129.0</ele><time>2026-04-26T14:20:55.457Z</time></trkpt><trkpt lat="45.4844195" lon="9.2299214"><ele>129.33333333333334</ele><time>2026-04-26T14:20:56.455Z</time></trkpt><trkpt lat="45.4842363" lon="9.2299141"><ele>129.66666666666669</ele><time>2026-04-26T14:20:57.462Z</time></trkpt><trkpt lat="45.4840661" lon="9.2299289"><ele>130.0</ele><time>2026-04-26T14:20:58.454Z</time></trkpt><trkpt lat="45.4838994" lon="9.2299308"><ele>130.33333333333334</ele><time>2026-04-26T14:20:59.451Z</time></trkpt><trkpt lat="45.4837359" lon="9.2299333"><ele>130.66666666666666</ele><time>2026-04-26T14:21:00.454Z</time></trkpt><trkpt lat="45.4835832" lon="9.229927"><ele>131.0</ele><time>2026-04-26T14:21:01.452Z</time></trkpt><trkpt lat="45.4834421" lon="9.2299347"><ele>131.0</ele><time>2026-04-26T14:21:02.451Z</time></trkpt><trkpt lat="45.4833119" lon="9.2299263"><ele>131.0</ele><time>2026-04-26T14:21:03.455Z</time></trkpt><trkpt lat="45.4831905" lon="9.2299303"><ele>131.0</ele><time>2026-04-26T14:21:04.451Z</time></trkpt><trkpt lat="45.4830857" lon="9.2299442"><ele>131.0</ele><time>2026-04-26T14:21:05.453Z</time></trkpt><trkpt lat="45.4829895" lon="9.2299611"><ele>130.5</ele><time>2026-04-26T14:21:06.451Z</time></trkpt><trkpt lat="45.4829218" lon="9.2299527"><ele>130.0</ele><time>2026-04-26T14:21:07.473Z</time></trkpt><trkpt lat="45.4828177" lon="9.2299512"><ele>129.5</ele><time>2026-04-26T14:21:09.467Z</time></trkpt><trkpt lat="45.4827468" lon="9.2299443"><ele>129.0</ele><time>2026-04-26T14:21:12.458Z</time></trkpt><trkpt lat="45.4826751" lon="9.2299454"><ele>128.5</ele><time>2026-04-26T14:21:18.451Z</time></trkpt><trkpt lat="45.4825966" lon="9.2299374"><ele>128.0</ele><time>2026-04-26T14:21:22.449Z</time></trkpt><trkpt lat="45.4825191" lon="9.229932"><ele>128.0</ele><time>2026-04-26T14:21:23.447Z</time></trkpt><trkpt lat="45.4824323" lon="9.229936"><ele>128.0</ele><time>2026-04-26T14:21:24.451Z</time></trkpt><trkpt lat="45.4823385" lon="9.2299427"><ele>128.0</ele><time>2026-04-26T14:21:25.447Z</time></trkpt><trkpt lat="45.4822372" lon="9.22995"><ele>128.0</ele><time>2026-04-26T14:21:26.457Z</time></trkpt><trkpt lat="45.4821161" lon="9.2299554"><ele>128.0</ele><time>2026-04-26T14:21:27.486Z</time></trkpt><trkpt lat="45.4819929" lon="9.2299583"><ele>127.0</ele><time>2026-04-26T14:21:28.459Z</time></trkpt><trkpt lat="45.4818752" lon="9.2299587"><ele>126.0</ele><time>2026-04-26T14:21:29.455Z</time></trkpt><trkpt lat="45.4817587" lon="9.2299614"><ele>125.0</ele><time>2026-04-26T14:21:30.462Z</time></trkpt><trkpt lat="45.4816489" lon="9.229964"><ele>124.0</ele><time>2026-04-26T14:21:31.452Z</time></trkpt><trkpt lat="45.4815376" lon="9.2299486"><ele>124.0</ele><time>2026-04-26T14:21:32.461Z</time></trkpt><trkpt lat="45.4814256" lon="9.2299486"><ele>124.0</ele><time>2026-04-26T14:21:33.461Z</time></trkpt><trkpt lat="45.4813194" lon="9.2299507"><ele>124.0</ele><time>2026-04-26T14:21:34.453Z</time></trkpt><trkpt lat="45.4812238" lon="9.2299545"><ele>124.0</ele><time>2026-04-26T14:21:35.448Z</time></trkpt><trkpt lat="45.4811291" lon="9.2299585"><ele>124.0</ele><time>2026-04-26T14:21:36.45Z</time></trkpt><trkpt lat="45.4810347" lon="9.2299521"><ele>123.2</ele><time>2026-04-26T14:21:37.452Z</time></trkpt><trkpt lat="45.4809422" lon="9.2299476"><ele>122.4</ele><time>2026-04-26T14:21:38.464Z</time></trkpt><trkpt lat="45.4808404" lon="9.2299569"><ele>121.6</ele><time>2026-04-26T14:21:39.46Z</time></trkpt><trkpt lat="45.4807418" lon="9.2299527"><ele>120.8</ele><time>2026-04-26T14:21:40.461Z</time></trkpt><trkpt lat="45.4806353" lon="9.2299575"><ele>120.0</ele><time>2026-04-26T14:21:41.454Z</time></trkpt><trkpt lat="45.4805302" lon="9.2299582"><ele>120.6</ele><time>2026-04-26T14:21:42.476Z</time></trkpt><trkpt lat="45.480423" lon="9.2299728"><ele>121.2</ele><time>2026-04-26T14:21:43.458Z</time></trkpt><trkpt lat="45.4803204" lon="9.2299684"><ele>121.80000000000001</ele><time>2026-04-26T14:21:44.454Z</time></trkpt><trkpt lat="45.4802301" lon="9.2299693"><ele>122.4</ele><time>2026-04-26T14:21:45.458Z</time></trkpt><trkpt lat="45.480151" lon="9.2299759"><ele>123.0</ele><time>2026-04-26T14:21:46.463Z</time></trkpt><trkpt lat="45.4800791" lon="9.2299812"><ele>123.00000000000001</ele><time>2026-04-26T14:21:47.463Z</time></trkpt><trkpt lat="45.4799996" lon="9.2299814"><ele>123.0</ele><time>2026-04-26T14:21:48.465Z</time></trkpt><trkpt lat="45.4799249" lon="9.2299927"><ele>123.00000000000001</ele><time>2026-04-26T14:21:49.455Z</time></trkpt><trkpt lat="45.4798494" lon="9.2299863"><ele>123.00000000000001</ele><time>2026-04-26T14:21:50.447Z</time></trkpt><trkpt lat="45.4797764" lon="9.2299886"><ele>123.0</ele><time>2026-04-26T14:21:51.55Z</time></trkpt><trkpt lat="45.4797108" lon="9.229985"><ele>123.00000000000001</ele><time>2026-04-26T14:21:52.455Z</time></trkpt><trkpt lat="45.4796415" lon="9.2299819"><ele>123.00000000000001</ele><time>2026-04-26T14:21:53.452Z</time></trkpt><trkpt lat="45.479566" lon="9.2299818"><ele>122.85714285714288</ele><time>2026-04-26T14:21:54.451Z</time></trkpt><trkpt lat="45.4794982" lon="9.2299837"><ele>122.71428571428572</ele><time>2026-04-26T14:21:55.462Z</time></trkpt><trkpt lat="45.4794345" lon="9.2299853"><ele>122.57142857142857</ele><time>2026-04-26T14:21:56.462Z</time></trkpt><trkpt lat="45.479371" lon="9.2299805"><ele>122.42857142857143</ele><time>2026-04-26T14:21:57.459Z</time></trkpt><trkpt lat="45.4792985" lon="9.229985"><ele>122.28571428571428</ele><time>2026-04-26T14:21:58.447Z</time></trkpt><trkpt lat="45.4792264" lon="9.2299939"><ele>122.14285714285712</ele><time>2026-04-26T14:21:59.459Z</time></trkpt><trkpt lat="45.4791422" lon="9.2299962"><ele>121.99999999999999</ele><time>2026-04-26T14:22:00.489Z</time></trkpt><trkpt lat="45.4790578" lon="9.2300031"><ele>122.0</ele><time>2026-04-26T14:22:01.458Z</time></trkpt><trkpt lat="45.4789655" lon="9.2300049"><ele>122.0</ele><time>2026-04-26T14:22:02.454Z</time></trkpt><trkpt lat="45.4788567" lon="9.2300075"><ele>122.0</ele><time>2026-04-26T14:22:03.489Z</time></trkpt><trkpt lat="45.4787314" lon="9.2300153"><ele>122.0</ele><time>2026-04-26T14:22:04.452Z</time></trkpt><trkpt lat="45.4785905" lon="9.2300189"><ele>122.0</ele><time>2026-04-26T14:22:05.458Z</time></trkpt><trkpt lat="45.4784447" lon="9.2300215"><ele>122.0</ele><time>2026-04-26T14:22:06.454Z</time></trkpt><trkpt lat="45.4782962" lon="9.2300214"><ele>122.0</ele><time>2026-04-26T14:22:07.463Z</time></trkpt><trkpt lat="45.4781559" lon="9.2300281"><ele>122.0</ele><time>2026-04-26T14:22:08.461Z</time></trkpt><trkpt lat="45.4780124" lon="9.2300294"><ele>122.25</ele><time>2026-04-26T14:22:09.475Z</time></trkpt><trkpt lat="45.4778793" lon="9.2300268"><ele>122.5</ele><time>2026-04-26T14:22:10.447Z</time></trkpt><trkpt lat="45.4777527" lon="9.2300264"><ele>122.75</ele><time>2026-04-26T14:22:11.455Z</time></trkpt><trkpt lat="45.4776324" lon="9.2300218"><ele>123.0</ele><time>2026-04-26T14:22:12.459Z</time></trkpt><trkpt lat="45.4775193" lon="9.2300202"><ele>123.0</ele><time>2026-04-26T14:22:13.456Z</time></trkpt><trkpt lat="45.4774118" lon="9.2300167"><ele>123.00000000000001</ele><time>2026-04-26T14:22:14.451Z</time></trkpt><trkpt lat="45.4773147" lon="9.2300185"><ele>123.00000000000001</ele><time>2026-04-26T14:22:15.461Z</time></trkpt><trkpt lat="45.4772009" lon="9.230015"><ele>123.0</ele><time>2026-04-26T14:22:16.462Z</time></trkpt><trkpt lat="45.4770793" lon="9.2300062"><ele>123.0</ele><time>2026-04-26T14:22:17.456Z</time></trkpt><trkpt lat="45.4769546" lon="9.230007"><ele>122.25</ele><time>2026-04-26T14:22:18.463Z</time></trkpt><trkpt lat="45.4768365" lon="9.2300054"><ele>121.5</ele><time>2026-04-26T14:22:19.463Z</time></trkpt><trkpt lat="45.4767193" lon="9.2300057"><ele>120.75</ele><time>2026-04-26T14:22:20.454Z</time></trkpt><trkpt lat="45.4766016" lon="9.2300079"><ele>120.0</ele><time>2026-04-26T14:22:21.458Z</time></trkpt><trkpt lat="45.4764775" lon="9.2300076"><ele>120.0</ele><time>2026-04-26T14:22:22.45Z</time></trkpt><trkpt lat="45.4763499" lon="9.2300132"><ele>120.0</ele><time>2026-04-26T14:22:23.464Z</time></trkpt><trkpt lat="45.4762201" lon="9.2300179"><ele>120.0</ele><time>2026-04-26T14:22:24.461Z</time></trkpt><trkpt lat="45.4760857" lon="9.2300252"><ele>120.0</ele><time>2026-04-26T14:22:25.462Z</time></trkpt><trkpt lat="45.4759608" lon="9.230032"><ele>120.0</ele><time>2026-04-26T14:22:26.456Z</time></trkpt><trkpt lat="45.4758425" lon="9.230045"><ele>120.0</ele><time>2026-04-26T14:22:27.453Z</time></trkpt><trkpt lat="45.4757283" lon="9.2300481"><ele>120.0</ele><time>2026-04-26T14:22:28.463Z</time></trkpt><trkpt lat="45.475614" lon="9.2300485"><ele>120.0</ele><time>2026-04-26T14:22:29.478Z</time></trkpt><trkpt lat="45.4754987" lon="9.2300469"><ele>120.2</ele><time>2026-04-26T14:22:30.448Z</time></trkpt><trkpt lat="45.4753816" lon="9.2300525"><ele>120.4</ele><time>2026-04-26T14:22:31.484Z</time></trkpt><trkpt lat="45.4752726" lon="9.2300571"><ele>120.6</ele><time>2026-04-26T14:22:32.463Z</time></trkpt><trkpt lat="45.4751677" lon="9.2300552"><ele>120.8</ele><time>2026-04-26T14:22:33.462Z</time></trkpt><trkpt lat="45.4750707" lon="9.2300545"><ele>121.0</ele><time>2026-04-26T14:22:34.452Z</time></trkpt><trkpt lat="45.4749794" lon="9.2300531"><ele>121.0</ele><time>2026-04-26T14:22:35.46Z</time></trkpt><trkpt lat="45.4748903" lon="9.2300537"><ele>120.99999999999999</ele><time>2026-04-26T14:22:36.454Z</time></trkpt><trkpt lat="45.4748134" lon="9.2300534"><ele>121.0</ele><time>2026-04-26T14:22:37.459Z</time></trkpt><trkpt lat="45.474737" lon="9.2300491"><ele>121.0</ele><time>2026-04-26T14:22:38.447Z</time></trkpt><trkpt lat="45.474667" lon="9.2300456"><ele>120.99999999999999</ele><time>2026-04-26T14:22:39.463Z</time></trkpt><trkpt lat="45.4746013" lon="9.2300444"><ele>121.0</ele><time>2026-04-26T14:22:40.464Z</time></trkpt><trkpt lat="45.4745375" lon="9.230029"><ele>121.0</ele><time>2026-04-26T14:22:41.462Z</time></trkpt><trkpt lat="45.4744709" lon="9.2300001"><ele>121.50000000000001</ele><time>2026-04-26T14:22:42.455Z</time></trkpt><trkpt lat="45.4744101" lon="9.2299253"><ele>122.0</ele><time>2026-04-26T14:22:43.461Z</time></trkpt><trkpt lat="45.4743417" lon="9.2298584"><ele>122.5</ele><time>2026-04-26T14:22:44.461Z</time></trkpt><trkpt lat="45.4742787" lon="9.2298097"><ele>123.0</ele><time>2026-04-26T14:22:45.456Z</time></trkpt><trkpt lat="45.4741997" lon="9.2298011"><ele>123.50000000000001</ele><time>2026-04-26T14:22:46.447Z</time></trkpt><trkpt lat="45.4741136" lon="9.2297907"><ele>124.0</ele><time>2026-04-26T14:22:47.452Z</time></trkpt><trkpt lat="45.4740349" lon="9.2297836"><ele>124.00000000000001</ele><time>2026-04-26T14:22:48.453Z</time></trkpt><trkpt lat="45.4739475" lon="9.229774"><ele>124.0</ele><time>2026-04-26T14:22:49.462Z</time></trkpt><trkpt lat="45.4738648" lon="9.2297739"><ele>124.0</ele><time>2026-04-26T14:22:50.451Z</time></trkpt><trkpt lat="45.4737903" lon="9.2297701"><ele>124.0</ele><time>2026-04-26T14:22:51.458Z</time></trkpt><trkpt lat="45.4737184" lon="9.2297742"><ele>124.00000000000001</ele><time>2026-04-26T14:22:52.462Z</time></trkpt><trkpt lat="45.4736383" lon="9.2297722"><ele>124.0</ele><time>2026-04-26T14:22:53.461Z</time></trkpt><trkpt lat="45.4735502" lon="9.2297795"><ele>124.6</ele><time>2026-04-26T14:22:54.451Z</time></trkpt><trkpt lat="45.4734444" lon="9.2297801"><ele>125.2</ele><time>2026-04-26T14:22:55.461Z</time></trkpt><trkpt lat="45.4733201" lon="9.2297796"><ele>125.79999999999998</ele><time>2026-04-26T14:22:56.451Z</time></trkpt><trkpt lat="45.4732081" lon="9.229777"><ele>126.39999999999999</ele><time>2026-04-26T14:22:57.462Z</time></trkpt><trkpt lat="45.4731078" lon="9.2297792"><ele>127.0</ele><time>2026-04-26T14:22:58.452Z</time></trkpt><trkpt lat="45.4730145" lon="9.2297847"><ele>127.00000000000001</ele><time>2026-04-26T14:22:59.463Z</time></trkpt><trkpt lat="45.4729332" lon="9.2297875"><ele>127.0</ele><time>2026-04-26T14:23:00.462Z</time></trkpt><trkpt lat="45.4728604" lon="9.2297804"><ele>127.0</ele><time>2026-04-26T14:23:01.464Z</time></trkpt><trkpt lat="45.4727783" lon="9.2297837"><ele>127.0</ele><time>2026-04-26T14:23:02.448Z</time></trkpt><trkpt lat="45.4726984" lon="9.2297979"><ele>127.00000000000001</ele><time>2026-04-26T14:23:03.459Z</time></trkpt><trkpt lat="45.4726305" lon="9.2298341"><ele>127.0</ele><time>2026-04-26T14:23:04.452Z</time></trkpt><trkpt lat="45.4725632" lon="9.2298606"><ele>126.83333333333334</ele><time>2026-04-26T14:23:05.462Z</time></trkpt><trkpt lat="45.4724919" lon="9.2299671"><ele>126.66666666666667</ele><time>2026-04-26T14:23:07.461Z</time></trkpt><trkpt lat="45.47244" lon="9.2300295"><ele>126.5</ele><time>2026-04-26T14:23:09.462Z</time></trkpt><trkpt lat="45.4723448" lon="9.2300628"><ele>126.33333333333334</ele><time>2026-04-26T14:23:11.452Z</time></trkpt><trkpt lat="45.4722696" lon="9.2300797"><ele>126.16666666666667</ele><time>2026-04-26T14:23:12.462Z</time></trkpt><trkpt lat="45.4721705" lon="9.2300714"><ele>126.0</ele><time>2026-04-26T14:23:13.461Z</time></trkpt><trkpt lat="45.4720715" lon="9.2300765"><ele>126.33333333333333</ele><time>2026-04-26T14:23:14.445Z</time></trkpt><trkpt lat="45.4719801" lon="9.2300756"><ele>126.66666666666666</ele><time>2026-04-26T14:23:15.462Z</time></trkpt><trkpt lat="45.4718996" lon="9.2300818"><ele>127.0</ele><time>2026-04-26T14:23:16.452Z</time></trkpt><trkpt lat="45.4718228" lon="9.2300822"><ele>127.33333333333333</ele><time>2026-04-26T14:23:17.446Z</time></trkpt><trkpt lat="45.4717527" lon="9.2300797"><ele>127.66666666666666</ele><time>2026-04-26T14:23:18.448Z</time></trkpt><trkpt lat="45.4716826" lon="9.2300907"><ele>128.0</ele><time>2026-04-26T14:23:19.455Z</time></trkpt><trkpt lat="45.4716103" lon="9.2300984"><ele>127.99999999999999</ele><time>2026-04-26T14:23:20.456Z</time></trkpt><trkpt lat="45.471535" lon="9.2301026"><ele>128.0</ele><time>2026-04-26T14:23:21.464Z</time></trkpt><trkpt lat="45.4714633" lon="9.2301098"><ele>128.0</ele><time>2026-04-26T14:23:22.456Z</time></trkpt><trkpt lat="45.4713868" lon="9.2301184"><ele>128.0</ele><time>2026-04-26T14:23:23.463Z</time></trkpt><trkpt lat="45.4713241" lon="9.2301094"><ele>127.99999999999999</ele><time>2026-04-26T14:23:24.462Z</time></trkpt><trkpt lat="45.4711944" lon="9.2301198"><ele>128.0</ele><time>2026-04-26T14:23:26.455Z</time></trkpt><trkpt lat="45.4711274" lon="9.230125"><ele>127.49999999999999</ele><time>2026-04-26T14:23:27.447Z</time></trkpt><trkpt lat="45.4710591" lon="9.2301162"><ele>127.0</ele><time>2026-04-26T14:23:28.449Z</time></trkpt><trkpt lat="45.4709581" lon="9.2301063"><ele>126.5</ele><time>2026-04-26T14:23:30.451Z</time></trkpt><trkpt lat="45.4708578" lon="9.2301014"><ele>126.0</ele><time>2026-04-26T14:23:32.452Z</time></trkpt><trkpt lat="45.4707827" lon="9.2301175"><ele>125.49999999999999</ele><time>2026-04-26T14:23:33.459Z</time></trkpt><trkpt lat="45.4706887" lon="9.2301263"><ele>125.0</ele><time>2026-04-26T14:23:34.45Z</time></trkpt><trkpt lat="45.4705562" lon="9.2301232"><ele>125.0</ele><time>2026-04-26T14:23:35.446Z</time></trkpt><trkpt lat="45.4704256" lon="9.2301168"><ele>125.0</ele><time>2026-04-26T14:23:36.448Z</time></trkpt><trkpt lat="45.470299" lon="9.2301152"><ele>125.0</ele><time>2026-04-26T14:23:37.458Z</time></trkpt><trkpt lat="45.4701645" lon="9.230115"><ele>125.0</ele><time>2026-04-26T14:23:38.457Z</time></trkpt><trkpt lat="45.4700212" lon="9.2301118"><ele>125.0</ele><time>2026-04-26T14:23:39.463Z</time></trkpt><trkpt lat="45.4698677" lon="9.2301087"><ele>125.0</ele><time>2026-04-26T14:23:40.463Z</time></trkpt><trkpt lat="45.4696989" lon="9.2300985"><ele>125.0</ele><time>2026-04-26T14:23:41.458Z</time></trkpt><trkpt lat="45.4695503" lon="9.2300993"><ele>123.75</ele><time>2026-04-26T14:23:42.445Z</time></trkpt><trkpt lat="45.4694095" lon="9.2301033"><ele>122.5</ele><time>2026-04-26T14:23:43.454Z</time></trkpt><trkpt lat="45.4692766" lon="9.2301023"><ele>121.25</ele><time>2026-04-26T14:23:44.465Z</time></trkpt><trkpt lat="45.4691494" lon="9.2301055"><ele>120.0</ele><time>2026-04-26T14:23:45.455Z</time></trkpt><trkpt lat="45.4690406" lon="9.2301011"><ele>120.0</ele><time>2026-04-26T14:23:46.455Z</time></trkpt><trkpt lat="45.4689436" lon="9.2301"><ele>120.0</ele><time>2026-04-26T14:23:47.46Z</time></trkpt><trkpt lat="45.4688598" lon="9.2301025"><ele>120.0</ele><time>2026-04-26T14:23:48.463Z</time></trkpt><trkpt lat="45.4687907" lon="9.2301012"><ele>120.0</ele><time>2026-04-26T14:23:49.461Z</time></trkpt><trkpt lat="45.4686835" lon="9.2300967"><ele>120.0</ele><time>2026-04-26T14:23:51.452Z</time></trkpt><trkpt lat="45.4686146" lon="9.230096"><ele>120.0</ele><time>2026-04-26T14:23:53.463Z</time></trkpt><trkpt lat="45.4685382" lon="9.2300925"><ele>119.4</ele><time>2026-04-26T14:24:28.467Z</time></trkpt><trkpt lat="45.4683999" lon="9.2300881"><ele>118.8</ele><time>2026-04-26T14:24:30.464Z</time></trkpt><trkpt lat="45.4683004" lon="9.2300903"><ele>118.19999999999999</ele><time>2026-04-26T14:24:31.465Z</time></trkpt><trkpt lat="45.4681911" lon="9.2300924"><ele>117.6</ele><time>2026-04-26T14:24:32.465Z</time></trkpt><trkpt lat="45.4680957" lon="9.2300976"><ele>117.0</ele><time>2026-04-26T14:24:33.459Z</time></trkpt><trkpt lat="45.4680069" lon="9.2301025"><ele>117.66666666666667</ele><time>2026-04-26T14:24:34.465Z</time></trkpt><trkpt lat="45.4679269" lon="9.230102"><ele>118.33333333333334</ele><time>2026-04-26T14:24:35.464Z</time></trkpt><trkpt lat="45.4678387" lon="9.2301105"><ele>119.0</ele><time>2026-04-26T14:24:36.465Z</time></trkpt><trkpt lat="45.4677572" lon="9.2301153"><ele>119.66666666666667</ele><time>2026-04-26T14:24:37.466Z</time></trkpt><trkpt lat="45.4676832" lon="9.2301211"><ele>120.33333333333334</ele><time>2026-04-26T14:24:38.454Z</time></trkpt><trkpt lat="45.4676034" lon="9.2301208"><ele>121.0</ele><time>2026-04-26T14:24:39.465Z</time></trkpt><trkpt lat="45.4674992" lon="9.2301337"><ele>121.00000000000001</ele><time>2026-04-26T14:24:41.461Z</time></trkpt><trkpt lat="45.4674266" lon="9.2300994"><ele>121.0</ele><time>2026-04-26T14:24:43.462Z</time></trkpt><trkpt lat="45.4674162" lon="9.2299991"><ele>121.0</ele><time>2026-04-26T14:24:44.467Z</time></trkpt><trkpt lat="45.4674182" lon="9.2299024"><ele>121.0</ele><time>2026-04-26T14:24:45.463Z</time></trkpt><trkpt lat="45.4674126" lon="9.229777"><ele>121.00000000000001</ele><time>2026-04-26T14:24:46.457Z</time></trkpt><trkpt lat="45.4674026" lon="9.2296607"><ele>121.0</ele><time>2026-04-26T14:24:47.458Z</time></trkpt><trkpt lat="45.4673641" lon="9.2295835"><ele>121.19999999999999</ele><time>2026-04-26T14:24:48.465Z</time></trkpt><trkpt lat="45.4673115" lon="9.2295002"><ele>121.39999999999999</ele><time>2026-04-26T14:24:49.473Z</time></trkpt><trkpt lat="45.4672337" lon="9.2294085"><ele>121.6</ele><time>2026-04-26T14:24:50.454Z</time></trkpt><trkpt lat="45.4671536" lon="9.2293028"><ele>121.8</ele><time>2026-04-26T14:24:51.461Z</time></trkpt><trkpt lat="45.4670665" lon="9.2291946"><ele>122.0</ele><time>2026-04-26T14:24:52.462Z</time></trkpt><trkpt lat="45.4669711" lon="9.2290755"><ele>121.5</ele><time>2026-04-26T14:24:53.469Z</time></trkpt><trkpt lat="45.4668882" lon="9.2289626"><ele>121.0</ele><time>2026-04-26T14:24:54.461Z</time></trkpt><trkpt lat="45.4668029" lon="9.2288585"><ele>120.5</ele><time>2026-04-26T14:24:55.447Z</time></trkpt><trkpt lat="45.4667249" lon="9.2287446"><ele>120.0</ele><time>2026-04-26T14:24:56.446Z</time></trkpt><trkpt lat="45.4666437" lon="9.2286238"><ele>120.0</ele><time>2026-04-26T14:24:57.445Z</time></trkpt><trkpt lat="45.4665531" lon="9.2285074"><ele>120.0</ele><time>2026-04-26T14:24:58.444Z</time></trkpt><trkpt lat="45.4664589" lon="9.2283854"><ele>120.0</ele><time>2026-04-26T14:24:59.448Z</time></trkpt><trkpt lat="45.4663653" lon="9.2282614"><ele>120.0</ele><time>2026-04-26T14:25:00.491Z</time></trkpt><trkpt lat="45.4662741" lon="9.228144"><ele>121.6</ele><time>2026-04-26T14:25:01.446Z</time></trkpt><trkpt lat="45.4661919" lon="9.2280321"><ele>123.2</ele><time>2026-04-26T14:25:02.446Z</time></trkpt><trkpt lat="45.466118" lon="9.2279283"><ele>124.80000000000001</ele><time>2026-04-26T14:25:03.447Z</time></trkpt><trkpt lat="45.466043" lon="9.2278368"><ele>126.4</ele><time>2026-04-26T14:25:04.454Z</time></trkpt><trkpt lat="45.4659742" lon="9.2277492"><ele>128.0</ele><time>2026-04-26T14:25:05.45Z</time></trkpt><trkpt lat="45.4659111" lon="9.227672"><ele>127.99999999999999</ele><time>2026-04-26T14:25:06.46Z</time></trkpt><trkpt lat="45.4658588" lon="9.2275988"><ele>128.0</ele><time>2026-04-26T14:25:07.462Z</time></trkpt><trkpt lat="45.4658119" lon="9.2275357"><ele>128.0</ele><time>2026-04-26T14:25:08.461Z</time></trkpt><trkpt lat="45.4657663" lon="9.2274427"><ele>128.0</ele><time>2026-04-26T14:25:10.448Z</time></trkpt><trkpt lat="45.46575" lon="9.2272962"><ele>127.99999999999999</ele><time>2026-04-26T14:25:13.447Z</time></trkpt><trkpt lat="45.4657421" lon="9.2271986"><ele>128.0</ele><time>2026-04-26T14:25:14.456Z</time></trkpt><trkpt lat="45.4656948" lon="9.227022"><ele>126.80000000000001</ele><time>2026-04-26T14:25:16.447Z</time></trkpt><trkpt lat="45.4656487" lon="9.2269306"><ele>125.60000000000001</ele><time>2026-04-26T14:25:17.46Z</time></trkpt><trkpt lat="45.4656162" lon="9.2268255"><ele>124.39999999999999</ele><time>2026-04-26T14:25:18.449Z</time></trkpt><trkpt lat="45.4655989" lon="9.2267019"><ele>123.19999999999999</ele><time>2026-04-26T14:25:19.446Z</time></trkpt><trkpt lat="45.4655912" lon="9.2265549"><ele>122.0</ele><time>2026-04-26T14:25:20.448Z</time></trkpt><trkpt lat="45.4655882" lon="9.2263763"><ele>121.75</ele><time>2026-04-26T14:25:21.449Z</time></trkpt><trkpt lat="45.4655849" lon="9.2261894"><ele>121.5</ele><time>2026-04-26T14:25:22.449Z</time></trkpt><trkpt lat="45.4655801" lon="9.2260149"><ele>121.25</ele><time>2026-04-26T14:25:23.446Z</time></trkpt><trkpt lat="45.4655777" lon="9.2258545"><ele>121.0</ele><time>2026-04-26T14:25:24.447Z</time></trkpt><trkpt lat="45.4655761" lon="9.2256975"><ele>120.8</ele><time>2026-04-26T14:25:25.477Z</time></trkpt><trkpt lat="45.4655735" lon="9.2255417"><ele>120.6</ele><time>2026-04-26T14:25:26.458Z</time></trkpt><trkpt lat="45.4655719" lon="9.2253859"><ele>120.4</ele><time>2026-04-26T14:25:27.485Z</time></trkpt><trkpt lat="45.465572" lon="9.2252357"><ele>120.2</ele><time>2026-04-26T14:25:28.458Z</time></trkpt><trkpt lat="45.4655685" lon="9.2250906"><ele>120.0</ele><time>2026-04-26T14:25:29.456Z</time></trkpt><trkpt lat="45.465568" lon="9.2249477"><ele>120.0</ele><time>2026-04-26T14:25:30.452Z</time></trkpt><trkpt lat="45.4655697" lon="9.2248155"><ele>120.0</ele><time>2026-04-26T14:25:31.451Z</time></trkpt><trkpt lat="45.4655698" lon="9.2246938"><ele>120.0</ele><time>2026-04-26T14:25:32.453Z</time></trkpt><trkpt lat="45.4655671" lon="9.2245793"><ele>120.0</ele><time>2026-04-26T14:25:33.486Z</time></trkpt><trkpt lat="45.4655674" lon="9.224483"><ele>120.0</ele><time>2026-04-26T14:25:34.455Z</time></trkpt><trkpt lat="45.4655652" lon="9.2243395"><ele>120.0</ele><time>2026-04-26T14:25:36.455Z</time></trkpt><trkpt lat="45.4655659" lon="9.2242341"><ele>120.0</ele><time>2026-04-26T14:25:39.453Z</time></trkpt><trkpt lat="45.4655681" lon="9.2241185"><ele>120.0</ele><time>2026-04-26T14:26:06.455Z</time></trkpt><trkpt lat="45.4655405" lon="9.2239565"><ele>120.0</ele><time>2026-04-26T14:26:08.448Z</time></trkpt><trkpt lat="45.4654959" lon="9.2238909"><ele>120.0</ele><time>2026-04-26T14:26:09.463Z</time></trkpt><trkpt lat="45.4654358" lon="9.2238491"><ele>120.0</ele><time>2026-04-26T14:26:10.461Z</time></trkpt><trkpt lat="45.4653462" lon="9.2238554"><ele>120.0</ele><time>2026-04-26T14:26:11.485Z</time></trkpt><trkpt lat="45.465239" lon="9.2238406"><ele>120.25</ele><time>2026-04-26T14:26:12.449Z</time></trkpt><trkpt lat="45.4651187" lon="9.2238376"><ele>120.5</ele><time>2026-04-26T14:26:13.453Z</time></trkpt><trkpt lat="45.4649865" lon="9.2238343"><ele>120.75</ele><time>2026-04-26T14:26:14.448Z</time></trkpt><trkpt lat="45.4648417" lon="9.2238296"><ele>121.0</ele><time>2026-04-26T14:26:15.451Z</time></trkpt><trkpt lat="45.4646836" lon="9.2238319"><ele>121.66666666666667</ele><time>2026-04-26T14:26:16.448Z</time></trkpt><trkpt lat="45.4645156" lon="9.2238344"><ele>122.33333333333334</ele><time>2026-04-26T14:26:17.459Z</time></trkpt><trkpt lat="45.4643475" lon="9.2238305"><ele>123.0</ele><time>2026-04-26T14:26:18.459Z</time></trkpt><trkpt lat="45.4641949" lon="9.223832"><ele>123.0</ele><time>2026-04-26T14:26:19.46Z</time></trkpt><trkpt lat="45.4640465" lon="9.2238335"><ele>123.0</ele><time>2026-04-26T14:26:20.46Z</time></trkpt><trkpt lat="45.4638883" lon="9.2238431"><ele>123.0</ele><time>2026-04-26T14:26:21.459Z</time></trkpt><trkpt lat="45.4637382" lon="9.2238403"><ele>121.75</ele><time>2026-04-26T14:26:22.451Z</time></trkpt><trkpt lat="45.4635942" lon="9.2238449"><ele>120.5</ele><time>2026-04-26T14:26:23.451Z</time></trkpt><trkpt lat="45.463461" lon="9.2238459"><ele>119.25</ele><time>2026-04-26T14:26:24.462Z</time></trkpt><trkpt lat="45.4633344" lon="9.2238477"><ele>118.0</ele><time>2026-04-26T14:26:25.489Z</time></trkpt><trkpt lat="45.4632174" lon="9.2238533"><ele>118.00000000000001</ele><time>2026-04-26T14:26:26.461Z</time></trkpt><trkpt lat="45.4631164" lon="9.2238656"><ele>118.0</ele><time>2026-04-26T14:26:27.462Z</time></trkpt><trkpt lat="45.4630158" lon="9.2238757"><ele>118.0</ele><time>2026-04-26T14:26:28.484Z</time></trkpt><trkpt lat="45.4629284" lon="9.2238863"><ele>118.0</ele><time>2026-04-26T14:26:29.461Z</time></trkpt><trkpt lat="45.4628478" lon="9.2238945"><ele>118.00000000000001</ele><time>2026-04-26T14:26:30.456Z</time></trkpt><trkpt lat="45.4627742" lon="9.2238973"><ele>118.0</ele><time>2026-04-26T14:26:31.446Z</time></trkpt><trkpt lat="45.4627013" lon="9.2239018"><ele>118.0</ele><time>2026-04-26T14:26:32.45Z</time></trkpt><trkpt lat="45.4625777" lon="9.2239031"><ele>118.00000000000001</ele><time>2026-04-26T14:26:34.459Z</time></trkpt><trkpt lat="45.4624775" lon="9.2239076"><ele>118.00000000000001</ele><time>2026-04-26T14:26:36.459Z</time></trkpt><trkpt lat="45.4623973" lon="9.2239028"><ele>118.0</ele><time>2026-04-26T14:26:38.459Z</time></trkpt><trkpt lat="45.4623337" lon="9.2239116"><ele>118.0</ele><time>2026-04-26T14:26:40.462Z</time></trkpt><trkpt lat="45.4622464" lon="9.2239019"><ele>118.0</ele><time>2026-04-26T14:26:50.465Z</time></trkpt><trkpt lat="45.4621757" lon="9.2238987"><ele>118.00000000000001</ele><time>2026-04-26T14:26:51.45Z</time></trkpt><trkpt lat="45.4620879" lon="9.2238941"><ele>118.00000000000001</ele><time>2026-04-26T14:26:52.456Z</time></trkpt><trkpt lat="45.4619738" lon="9.2238951"><ele>118.0</ele><time>2026-04-26T14:26:53.452Z</time></trkpt><trkpt lat="45.4618272" lon="9.2238918"><ele>118.0</ele><time>2026-04-26T14:26:54.462Z</time></trkpt><trkpt lat="45.4616668" lon="9.2238935"><ele>117.0</ele><time>2026-04-26T14:26:55.454Z</time></trkpt><trkpt lat="45.4614924" lon="9.2238925"><ele>116.0</ele><time>2026-04-26T14:26:56.459Z</time></trkpt><trkpt lat="45.4613269" lon="9.2238919"><ele>115.0</ele><time>2026-04-26T14:26:57.46Z</time></trkpt><trkpt lat="45.461173" lon="9.2238894"><ele>115.0</ele><time>2026-04-26T14:26:58.461Z</time></trkpt><trkpt lat="45.4610225" lon="9.2238924"><ele>115.0</ele><time>2026-04-26T14:26:59.484Z</time></trkpt><trkpt lat="45.4608712" lon="9.2238899"><ele>115.0</ele><time>2026-04-26T14:27:00.449Z</time></trkpt><trkpt lat="45.460714" lon="9.2238946"><ele>115.0</ele><time>2026-04-26T14:27:01.46Z</time></trkpt><trkpt lat="45.4605465" lon="9.2238981"><ele>115.0</ele><time>2026-04-26T14:27:02.455Z</time></trkpt><trkpt lat="45.460382" lon="9.2238999"><ele>115.0</ele><time>2026-04-26T14:27:03.451Z</time></trkpt><trkpt lat="45.4602257" lon="9.2238997"><ele>114.25</ele><time>2026-04-26T14:27:04.461Z</time></trkpt><trkpt lat="45.4600857" lon="9.2239003"><ele>113.5</ele><time>2026-04-26T14:27:05.463Z</time></trkpt><trkpt lat="45.4599527" lon="9.223901"><ele>112.75</ele><time>2026-04-26T14:27:06.463Z</time></trkpt><trkpt lat="45.4598322" lon="9.2239056"><ele>112.0</ele><time>2026-04-26T14:27:07.459Z</time></trkpt><trkpt lat="45.4597231" lon="9.2239052"><ele>112.00000000000001</ele><time>2026-04-26T14:27:08.459Z</time></trkpt><trkpt lat="45.4596286" lon="9.223912"><ele>112.0</ele><time>2026-04-26T14:27:09.452Z</time></trkpt><trkpt lat="45.459537" lon="9.2239111"><ele>112.0</ele><time>2026-04-26T14:27:10.459Z</time></trkpt><trkpt lat="45.4594508" lon="9.2239067"><ele>112.0</ele><time>2026-04-26T14:27:11.48Z</time></trkpt><trkpt lat="45.4593653" lon="9.2239105"><ele>112.00000000000001</ele><time>2026-04-26T14:27:12.456Z</time></trkpt><trkpt lat="45.4592883" lon="9.2239107"><ele>112.0</ele><time>2026-04-26T14:27:13.486Z</time></trkpt><trkpt lat="45.4592173" lon="9.2239128"><ele>112.00000000000001</ele><time>2026-04-26T14:27:14.46Z</time></trkpt><trkpt lat="45.4591491" lon="9.2239137"><ele>112.0</ele><time>2026-04-26T14:27:15.454Z</time></trkpt><trkpt lat="45.4590396" lon="9.2239199"><ele>112.0</ele><time>2026-04-26T14:27:17.461Z</time></trkpt><trkpt lat="45.4589635" lon="9.2239049"><ele>112.0</ele><time>2026-04-26T14:27:19.46Z</time></trkpt><trkpt lat="45.4588967" lon="9.2238987"><ele>112.00000000000001</ele><time>2026-04-26T14:27:21.461Z</time></trkpt><trkpt lat="45.4588211" lon="9.2238871"><ele>112.0</ele><time>2026-04-26T14:27:24.449Z</time></trkpt><trkpt lat="45.4587053" lon="9.2238913"><ele>113.0</ele><time>2026-04-26T14:27:26.461Z</time></trkpt><trkpt lat="45.4586066" lon="9.2238946"><ele>114.0</ele><time>2026-04-26T14:27:27.45Z</time></trkpt><trkpt lat="45.4584851" lon="9.2238972"><ele>115.0</ele><time>2026-04-26T14:27:28.486Z</time></trkpt><trkpt lat="45.4583494" lon="9.2238949"><ele>116.0</ele><time>2026-04-26T14:27:29.451Z</time></trkpt><trkpt lat="45.4582076" lon="9.2238969"><ele>116.0</ele><time>2026-04-26T14:27:30.461Z</time></trkpt><trkpt lat="45.4580509" lon="9.2239009"><ele>116.0</ele><time>2026-04-26T14:27:31.46Z</time></trkpt><trkpt lat="45.4578905" lon="9.2238998"><ele>116.0</ele><time>2026-04-26T14:27:32.461Z</time></trkpt><trkpt lat="45.4577297" lon="9.2239009"><ele>117.33333333333333</ele><time>2026-04-26T14:27:33.459Z</time></trkpt><trkpt lat="45.4575615" lon="9.2239046"><ele>118.66666666666666</ele><time>2026-04-26T14:27:34.453Z</time></trkpt><trkpt lat="45.4573895" lon="9.223912"><ele>120.0</ele><time>2026-04-26T14:27:35.454Z</time></trkpt><trkpt lat="45.4572097" lon="9.2239163"><ele>119.33333333333334</ele><time>2026-04-26T14:27:36.453Z</time></trkpt><trkpt lat="45.4570347" lon="9.2239207"><ele>118.66666666666667</ele><time>2026-04-26T14:27:37.452Z</time></trkpt><trkpt lat="45.4568648" lon="9.223928"><ele>118.0</ele><time>2026-04-26T14:27:38.46Z</time></trkpt><trkpt lat="45.4567018" lon="9.2239336"><ele>118.0</ele><time>2026-04-26T14:27:39.45Z</time></trkpt><trkpt lat="45.4565407" lon="9.2239362"><ele>118.0</ele><time>2026-04-26T14:27:40.46Z</time></trkpt><trkpt lat="45.456381" lon="9.2239378"><ele>118.0</ele><time>2026-04-26T14:27:41.457Z</time></trkpt><trkpt lat="45.4562152" lon="9.2239364"><ele>117.66666666666667</ele><time>2026-04-26T14:27:42.451Z</time></trkpt><trkpt lat="45.4560442" lon="9.2239368"><ele>117.33333333333334</ele><time>2026-04-26T14:27:43.46Z</time></trkpt><trkpt lat="45.4558735" lon="9.223934"><ele>117.0</ele><time>2026-04-26T14:27:44.451Z</time></trkpt><trkpt lat="45.4557132" lon="9.2239287"><ele>117.0</ele><time>2026-04-26T14:27:45.453Z</time></trkpt><trkpt lat="45.4555608" lon="9.223939"><ele>117.0</ele><time>2026-04-26T14:27:46.452Z</time></trkpt><trkpt lat="45.4554095" lon="9.2239586"><ele>117.0</ele><time>2026-04-26T14:27:47.461Z</time></trkpt><trkpt lat="45.4552502" lon="9.2239703"><ele>117.66666666666666</ele><time>2026-04-26T14:27:48.461Z</time></trkpt><trkpt lat="45.4550889" lon="9.2239719"><ele>118.33333333333333</ele><time>2026-04-26T14:27:49.46Z</time></trkpt><trkpt lat="45.454941" lon="9.223973"><ele>119.0</ele><time>2026-04-26T14:27:50.453Z</time></trkpt><trkpt lat="45.4547904" lon="9.2239791"><ele>118.25</ele><time>2026-04-26T14:27:51.453Z</time></trkpt><trkpt lat="45.4546513" lon="9.2239825"><ele>117.5</ele><time>2026-04-26T14:27:52.451Z</time></trkpt><trkpt lat="45.4545196" lon="9.2239828"><ele>116.75</ele><time>2026-04-26T14:27:53.449Z</time></trkpt><trkpt lat="45.4543936" lon="9.223987"><ele>116.0</ele><time>2026-04-26T14:27:54.451Z</time></trkpt><trkpt lat="45.4542835" lon="9.2239914"><ele>115.99999999999999</ele><time>2026-04-26T14:27:55.444Z</time></trkpt><trkpt lat="45.4541839" lon="9.2239964"><ele>116.0</ele><time>2026-04-26T14:27:56.446Z</time></trkpt><trkpt lat="45.4540932" lon="9.2239991"><ele>116.0</ele><time>2026-04-26T14:27:57.458Z</time></trkpt><trkpt lat="45.4540175" lon="9.2240043"><ele>116.0</ele><time>2026-04-26T14:27:58.451Z</time></trkpt><trkpt lat="45.4539453" lon="9.2240089"><ele>115.99999999999999</ele><time>2026-04-26T14:27:59.449Z</time></trkpt><trkpt lat="45.4538374" lon="9.2240187"><ele>116.0</ele><time>2026-04-26T14:28:01.452Z</time></trkpt><trkpt lat="45.4537667" lon="9.2240198"><ele>115.5</ele><time>2026-04-26T14:28:02.458Z</time></trkpt><trkpt lat="45.4536754" lon="9.2240118"><ele>115.0</ele><time>2026-04-26T14:28:03.45Z</time></trkpt><trkpt lat="45.4535567" lon="9.2240009"><ele>114.5</ele><time>2026-04-26T14:28:04.46Z</time></trkpt><trkpt lat="45.4534336" lon="9.2240015"><ele>114.0</ele><time>2026-04-26T14:28:05.459Z</time></trkpt><trkpt lat="45.4532858" lon="9.2239985"><ele>114.0</ele><time>2026-04-26T14:28:06.447Z</time></trkpt><trkpt lat="45.4531207" lon="9.2240012"><ele>114.0</ele><time>2026-04-26T14:28:07.446Z</time></trkpt><trkpt lat="45.452937" lon="9.2240006"><ele>114.0</ele><time>2026-04-26T14:28:08.445Z</time></trkpt><trkpt lat="45.452773" lon="9.2239986"><ele>114.0</ele><time>2026-04-26T14:28:09.446Z</time></trkpt><trkpt lat="45.4526107" lon="9.2239966"><ele>114.0</ele><time>2026-04-26T14:28:10.458Z</time></trkpt><trkpt lat="45.4524483" lon="9.2239937"><ele>114.0</ele><time>2026-04-26T14:28:11.454Z</time></trkpt><trkpt lat="45.4523007" lon="9.2239866"><ele>114.0</ele><time>2026-04-26T14:28:12.444Z</time></trkpt><trkpt lat="45.4521677" lon="9.2239947"><ele>114.0</ele><time>2026-04-26T14:28:13.445Z</time></trkpt><trkpt lat="45.4520481" lon="9.2240058"><ele>114.0</ele><time>2026-04-26T14:28:14.447Z</time></trkpt><trkpt lat="45.4519349" lon="9.2240093"><ele>114.0</ele><time>2026-04-26T14:28:15.445Z</time></trkpt><trkpt lat="45.4518586" lon="9.2240108"><ele>114.0</ele><time>2026-04-26T14:28:16.446Z</time></trkpt><trkpt lat="45.4517893" lon="9.2240185"><ele>114.2</ele><time>2026-04-26T14:28:17.445Z</time></trkpt><trkpt lat="45.4516988" lon="9.2240263"><ele>114.4</ele><time>2026-04-26T14:28:19.45Z</time></trkpt><trkpt lat="45.4516077" lon="9.224005"><ele>114.6</ele><time>2026-04-26T14:28:35.446Z</time></trkpt><trkpt lat="45.4515449" lon="9.2239654"><ele>114.8</ele><time>2026-04-26T14:28:36.453Z</time></trkpt><trkpt lat="45.4514688" lon="9.2238826"><ele>115.0</ele><time>2026-04-26T14:28:37.447Z</time></trkpt><trkpt lat="45.4513824" lon="9.2237803"><ele>115.0</ele><time>2026-04-26T14:28:38.448Z</time></trkpt><trkpt lat="45.4512947" lon="9.2237159"><ele>115.0</ele><time>2026-04-26T14:28:39.469Z</time></trkpt><trkpt lat="45.4512032" lon="9.2236727"><ele>115.0</ele><time>2026-04-26T14:28:40.445Z</time></trkpt><trkpt lat="45.4510848" lon="9.2236564"><ele>115.0</ele><time>2026-04-26T14:28:41.443Z</time></trkpt><trkpt lat="45.4509714" lon="9.223648"><ele>115.0</ele><time>2026-04-26T14:28:42.447Z</time></trkpt><trkpt lat="45.4508657" lon="9.2236462"><ele>115.0</ele><time>2026-04-26T14:28:43.448Z</time></trkpt><trkpt lat="45.450766" lon="9.2236675"><ele>115.0</ele><time>2026-04-26T14:28:44.445Z</time></trkpt><trkpt lat="45.45066" lon="9.2237284"><ele>115.0</ele><time>2026-04-26T14:28:45.445Z</time></trkpt><trkpt lat="45.4505617" lon="9.2238117"><ele>115.0</ele><time>2026-04-26T14:28:46.448Z</time></trkpt><trkpt lat="45.4504762" lon="9.2238971"><ele>115.0</ele><time>2026-04-26T14:28:47.451Z</time></trkpt><trkpt lat="45.4503802" lon="9.2239557"><ele>114.25</ele><time>2026-04-26T14:28:48.455Z</time></trkpt><trkpt lat="45.4502638" lon="9.2239967"><ele>113.5</ele><time>2026-04-26T14:28:49.461Z</time></trkpt><trkpt lat="45.4501383" lon="9.2240213"><ele>112.75</ele><time>2026-04-26T14:28:50.447Z</time></trkpt><trkpt lat="45.4499875" lon="9.2240453"><ele>112.0</ele><time>2026-04-26T14:28:51.445Z</time></trkpt><trkpt lat="45.4498114" lon="9.2240592"><ele>111.66666666666667</ele><time>2026-04-26T14:28:52.444Z</time></trkpt><trkpt lat="45.4496127" lon="9.2240618"><ele>111.33333333333334</ele><time>2026-04-26T14:28:53.445Z</time></trkpt><trkpt lat="45.4494035" lon="9.2240662"><ele>111.0</ele><time>2026-04-26T14:28:54.445Z</time></trkpt><trkpt lat="45.4492038" lon="9.2240689"><ele>111.0</ele><time>2026-04-26T14:28:55.451Z</time></trkpt><trkpt lat="45.449015" lon="9.2240735"><ele>111.0</ele><time>2026-04-26T14:28:56.46Z</time></trkpt><trkpt lat="45.4488362" lon="9.2240753"><ele>111.0</ele><time>2026-04-26T14:28:57.459Z</time></trkpt><trkpt lat="45.4486535" lon="9.2240768"><ele>111.66666666666666</ele><time>2026-04-26T14:28:58.459Z</time></trkpt><trkpt lat="45.4484861" lon="9.2240775"><ele>112.33333333333333</ele><time>2026-04-26T14:28:59.462Z</time></trkpt><trkpt lat="45.4483267" lon="9.2240774"><ele>113.0</ele><time>2026-04-26T14:29:00.449Z</time></trkpt><trkpt lat="45.4481624" lon="9.2240776"><ele>113.0</ele><time>2026-04-26T14:29:01.45Z</time></trkpt><trkpt lat="45.4479955" lon="9.2240814"><ele>113.0</ele><time>2026-04-26T14:29:02.451Z</time></trkpt><trkpt lat="45.4478268" lon="9.2240887"><ele>113.0</ele><time>2026-04-26T14:29:03.443Z</time></trkpt><trkpt lat="45.4476648" lon="9.2240978"><ele>113.0</ele><time>2026-04-26T14:29:04.443Z</time></trkpt><trkpt lat="45.4475142" lon="9.2240966"><ele>113.0</ele><time>2026-04-26T14:29:05.445Z</time></trkpt><trkpt lat="45.4473642" lon="9.2240969"><ele>113.0</ele><time>2026-04-26T14:29:06.455Z</time></trkpt><trkpt lat="45.447213" lon="9.2240967"><ele>113.0</ele><time>2026-04-26T14:29:07.45Z</time></trkpt><trkpt lat="45.4470618" lon="9.2240973"><ele>113.0</ele><time>2026-04-26T14:29:08.447Z</time></trkpt><trkpt lat="45.4469095" lon="9.2240955"><ele>113.0</ele><time>2026-04-26T14:29:09.444Z</time></trkpt><trkpt lat="45.4467671" lon="9.2241003"><ele>113.0</ele><time>2026-04-26T14:29:10.446Z</time></trkpt><trkpt lat="45.446629" lon="9.2241028"><ele>113.0</ele><time>2026-04-26T14:29:11.446Z</time></trkpt><trkpt lat="45.4464996" lon="9.2241068"><ele>113.0</ele><time>2026-04-26T14:29:12.444Z</time></trkpt><trkpt lat="45.4463732" lon="9.2241091"><ele>113.0</ele><time>2026-04-26T14:29:13.448Z</time></trkpt><trkpt lat="45.4462457" lon="9.2241097"><ele>113.0</ele><time>2026-04-26T14:29:14.45Z</time></trkpt><trkpt lat="45.4461191" lon="9.2241073"><ele>112.75</ele><time>2026-04-26T14:29:15.45Z</time></trkpt><trkpt lat="45.445989" lon="9.2241122"><ele>112.5</ele><time>2026-04-26T14:29:16.449Z</time></trkpt><trkpt lat="45.445863" lon="9.2241161"><ele>112.25</ele><time>2026-04-26T14:29:17.45Z</time></trkpt><trkpt lat="45.4457318" lon="9.2241164"><ele>112.0</ele><time>2026-04-26T14:29:18.456Z</time></trkpt><trkpt lat="45.4456066" lon="9.2241162"><ele>112.0</ele><time>2026-04-26T14:29:19.444Z</time></trkpt><trkpt lat="45.4454861" lon="9.2241173"><ele>111.99999999999999</ele><time>2026-04-26T14:29:20.449Z</time></trkpt><trkpt lat="45.4453718" lon="9.224117"><ele>111.99999999999999</ele><time>2026-04-26T14:29:21.445Z</time></trkpt><trkpt lat="45.4452645" lon="9.2241229"><ele>112.0</ele><time>2026-04-26T14:29:22.446Z</time></trkpt><trkpt lat="45.4451724" lon="9.2241246"><ele>112.0</ele><time>2026-04-26T14:29:23.451Z</time></trkpt><trkpt lat="45.445084" lon="9.224124"><ele>112.33333333333334</ele><time>2026-04-26T14:29:24.445Z</time></trkpt><trkpt lat="45.4450044" lon="9.2241261"><ele>112.66666666666667</ele><time>2026-04-26T14:29:25.458Z</time></trkpt><trkpt lat="45.4449374" lon="9.2241292"><ele>113.0</ele><time>2026-04-26T14:29:26.45Z</time></trkpt><trkpt lat="45.4448255" lon="9.2241259"><ele>113.33333333333334</ele><time>2026-04-26T14:29:28.444Z</time></trkpt><trkpt lat="45.4447514" lon="9.2241108"><ele>113.66666666666667</ele><time>2026-04-26T14:29:30.446Z</time></trkpt><trkpt lat="45.4446797" lon="9.2240837"><ele>114.0</ele><time>2026-04-26T14:30:01.462Z</time></trkpt><trkpt lat="45.4445646" lon="9.2239716"><ele>114.16666666666667</ele><time>2026-04-26T14:30:03.463Z</time></trkpt><trkpt lat="45.4444926" lon="9.2239053"><ele>114.33333333333334</ele><time>2026-04-26T14:30:04.46Z</time></trkpt><trkpt lat="45.4444237" lon="9.2238467"><ele>114.5</ele><time>2026-04-26T14:30:05.46Z</time></trkpt><trkpt lat="45.4443651" lon="9.2238062"><ele>114.66666666666667</ele><time>2026-04-26T14:30:06.446Z</time></trkpt><trkpt lat="45.4442646" lon="9.2237921"><ele>114.83333333333334</ele><time>2026-04-26T14:30:08.452Z</time></trkpt><trkpt lat="45.4441841" lon="9.2238248"><ele>115.0</ele><time>2026-04-26T14:30:10.446Z</time></trkpt><trkpt lat="45.4441024" lon="9.2238825"><ele>115.00000000000001</ele><time>2026-04-26T14:30:12.488Z</time></trkpt><trkpt lat="45.4440145" lon="9.2239528"><ele>115.0</ele><time>2026-04-26T14:30:14.451Z</time></trkpt><trkpt lat="45.4439045" lon="9.224015"><ele>115.0</ele><time>2026-04-26T14:30:16.484Z</time></trkpt><trkpt lat="45.4438363" lon="9.2240355"><ele>115.0</ele><time>2026-04-26T14:30:17.457Z</time></trkpt><trkpt lat="45.4437721" lon="9.2240519"><ele>115.00000000000001</ele><time>2026-04-26T14:30:18.461Z</time></trkpt><trkpt lat="45.4437093" lon="9.2240628"><ele>115.0</ele><time>2026-04-26T14:30:19.461Z</time></trkpt><trkpt lat="45.4436454" lon="9.2240736"><ele>114.8</ele><time>2026-04-26T14:30:20.462Z</time></trkpt><trkpt lat="45.4435719" lon="9.2240735"><ele>114.6</ele><time>2026-04-26T14:30:21.576Z</time></trkpt><trkpt lat="45.4434044" lon="9.2240816"><ele>114.4</ele><time>2026-04-26T14:30:23.459Z</time></trkpt><trkpt lat="45.4433058" lon="9.2240836"><ele>114.2</ele><time>2026-04-26T14:30:24.449Z</time></trkpt><trkpt lat="45.4432045" lon="9.2240849"><ele>114.0</ele><time>2026-04-26T14:30:25.46Z</time></trkpt><trkpt lat="45.443105" lon="9.2240891"><ele>114.0</ele><time>2026-04-26T14:30:26.458Z</time></trkpt><trkpt lat="45.4430026" lon="9.2240907"><ele>114.0</ele><time>2026-04-26T14:30:27.46Z</time></trkpt><trkpt lat="45.4428933" lon="9.2240912"><ele>114.0</ele><time>2026-04-26T14:30:28.451Z</time></trkpt><trkpt lat="45.4427752" lon="9.2240922"><ele>114.0</ele><time>2026-04-26T14:30:29.46Z</time></trkpt><trkpt lat="45.4426593" lon="9.2240928"><ele>114.0</ele><time>2026-04-26T14:30:30.445Z</time></trkpt><trkpt lat="45.4425472" lon="9.2240948"><ele>114.0</ele><time>2026-04-26T14:30:31.448Z</time></trkpt><trkpt lat="45.4424245" lon="9.2240964"><ele>114.0</ele><time>2026-04-26T14:30:32.454Z</time></trkpt><trkpt lat="45.4423148" lon="9.2240999"><ele>114.0</ele><time>2026-04-26T14:30:33.46Z</time></trkpt><trkpt lat="45.4422069" lon="9.2241018"><ele>114.0</ele><time>2026-04-26T14:30:34.448Z</time></trkpt><trkpt lat="45.4420981" lon="9.2241017"><ele>114.0</ele><time>2026-04-26T14:30:35.451Z</time></trkpt><trkpt lat="45.4419904" lon="9.2241043"><ele>114.2</ele><time>2026-04-26T14:30:36.454Z</time></trkpt><trkpt lat="45.4418871" lon="9.2241071"><ele>114.4</ele><time>2026-04-26T14:30:37.462Z</time></trkpt><trkpt lat="45.4417895" lon="9.2241097"><ele>114.6</ele><time>2026-04-26T14:30:38.446Z</time></trkpt><trkpt lat="45.4416956" lon="9.2241134"><ele>114.8</ele><time>2026-04-26T14:30:39.464Z</time></trkpt><trkpt lat="45.4415954" lon="9.2241169"><ele>115.0</ele><time>2026-04-26T14:30:40.452Z</time></trkpt><trkpt lat="45.4414959" lon="9.224116"><ele>115.0</ele><time>2026-04-26T14:30:41.46Z</time></trkpt><trkpt lat="45.4413955" lon="9.2241182"><ele>115.0</ele><time>2026-04-26T14:30:42.447Z</time></trkpt><trkpt lat="45.4412945" lon="9.2241202"><ele>115.0</ele><time>2026-04-26T14:30:43.453Z</time></trkpt><trkpt lat="45.4411967" lon="9.2241207"><ele>115.0</ele><time>2026-04-26T14:30:44.462Z</time></trkpt><trkpt lat="45.4411011" lon="9.2241236"><ele>115.0</ele><time>2026-04-26T14:30:45.461Z</time></trkpt><trkpt lat="45.4410113" lon="9.2241225"><ele>115.16666666666667</ele><time>2026-04-26T14:30:46.446Z</time></trkpt><trkpt lat="45.4409234" lon="9.224122"><ele>115.33333333333334</ele><time>2026-04-26T14:30:47.453Z</time></trkpt><trkpt lat="45.4408451" lon="9.2241234"><ele>115.5</ele><time>2026-04-26T14:30:48.454Z</time></trkpt><trkpt lat="45.4407732" lon="9.2241236"><ele>115.66666666666666</ele><time>2026-04-26T14:30:49.453Z</time></trkpt><trkpt lat="45.4407095" lon="9.2241244"><ele>115.83333333333333</ele><time>2026-04-26T14:30:50.461Z</time></trkpt><trkpt lat="45.4406151" lon="9.2241239"><ele>116.0</ele><time>2026-04-26T14:30:52.46Z</time></trkpt><trkpt lat="45.4405513" lon="9.2241311"><ele>115.99999999999999</ele><time>2026-04-26T14:30:54.456Z</time></trkpt><trkpt lat="45.4404701" lon="9.2241277"><ele>116.0</ele><time>2026-04-26T14:31:40.461Z</time></trkpt><trkpt lat="45.4403753" lon="9.2241274"><ele>116.0</ele><time>2026-04-26T14:31:42.457Z</time></trkpt><trkpt lat="45.4402951" lon="9.2241257"><ele>116.0</ele><time>2026-04-26T14:31:43.443Z</time></trkpt><trkpt lat="45.4402053" lon="9.2241258"><ele>115.99999999999999</ele><time>2026-04-26T14:31:44.451Z</time></trkpt><trkpt lat="45.4401053" lon="9.2241261"><ele>116.0</ele><time>2026-04-26T14:31:45.459Z</time></trkpt><trkpt lat="45.440019" lon="9.224125"><ele>115.75</ele><time>2026-04-26T14:31:46.45Z</time></trkpt><trkpt lat="45.4399119" lon="9.2241266"><ele>115.5</ele><time>2026-04-26T14:31:47.459Z</time></trkpt><trkpt lat="45.4397818" lon="9.224134"><ele>115.25</ele><time>2026-04-26T14:31:48.461Z</time></trkpt><trkpt lat="45.4396485" lon="9.2241411"><ele>115.0</ele><time>2026-04-26T14:31:49.461Z</time></trkpt><trkpt lat="45.4394922" lon="9.2241513"><ele>114.25</ele><time>2026-04-26T14:31:50.447Z</time></trkpt><trkpt lat="45.4393554" lon="9.2241598"><ele>113.5</ele><time>2026-04-26T14:31:51.45Z</time></trkpt><trkpt lat="45.4392305" lon="9.2241699"><ele>112.75</ele><time>2026-04-26T14:31:52.452Z</time></trkpt><trkpt lat="45.4391177" lon="9.2241736"><ele>112.0</ele><time>2026-04-26T14:31:53.46Z</time></trkpt><trkpt lat="45.4390159" lon="9.2241767"><ele>112.0</ele><time>2026-04-26T14:31:54.46Z</time></trkpt><trkpt lat="45.4389225" lon="9.2241752"><ele>111.99999999999999</ele><time>2026-04-26T14:31:55.462Z</time></trkpt><trkpt lat="45.4388334" lon="9.2241869"><ele>111.99999999999999</ele><time>2026-04-26T14:31:56.466Z</time></trkpt><trkpt lat="45.4387475" lon="9.224188"><ele>112.0</ele><time>2026-04-26T14:31:57.551Z</time></trkpt><trkpt lat="45.4385741" lon="9.2241981"><ele>112.0</ele><time>2026-04-26T14:31:59.451Z</time></trkpt><trkpt lat="45.4384961" lon="9.2241942"><ele>112.33333333333334</ele><time>2026-04-26T14:32:00.461Z</time></trkpt><trkpt lat="45.4384236" lon="9.2241933"><ele>112.66666666666667</ele><time>2026-04-26T14:32:01.46Z</time></trkpt><trkpt lat="45.4383127" lon="9.2241952"><ele>113.0</ele><time>2026-04-26T14:32:03.487Z</time></trkpt><trkpt lat="45.4382364" lon="9.2241941"><ele>113.33333333333334</ele><time>2026-04-26T14:32:05.46Z</time></trkpt><trkpt lat="45.4381523" lon="9.2241975"><ele>113.66666666666667</ele><time>2026-04-26T14:32:08.45Z</time></trkpt><trkpt lat="45.4380661" lon="9.2241807"><ele>114.0</ele><time>2026-04-26T14:32:14.45Z</time></trkpt><trkpt lat="45.4380131" lon="9.2240737"><ele>114.0</ele><time>2026-04-26T14:32:17.457Z</time></trkpt><trkpt lat="45.4379767" lon="9.2239282"><ele>114.0</ele><time>2026-04-26T14:32:20.462Z</time></trkpt><trkpt lat="45.4379366" lon="9.2238153"><ele>114.0</ele><time>2026-04-26T14:32:22.483Z</time></trkpt><trkpt lat="45.4378757" lon="9.2237003"><ele>114.0</ele><time>2026-04-26T14:32:24.453Z</time></trkpt><trkpt lat="45.4377896" lon="9.2235935"><ele>114.0</ele><time>2026-04-26T14:32:26.452Z</time></trkpt><trkpt lat="45.4377341" lon="9.2235469"><ele>114.0</ele><time>2026-04-26T14:32:27.46Z</time></trkpt><trkpt lat="45.4376342" lon="9.2234899"><ele>114.0</ele><time>2026-04-26T14:32:29.459Z</time></trkpt><trkpt lat="45.4375234" lon="9.2234694"><ele>114.0</ele><time>2026-04-26T14:32:31.451Z</time></trkpt><trkpt lat="45.4373975" lon="9.2234793"><ele>114.0</ele><time>2026-04-26T14:32:33.459Z</time></trkpt><trkpt lat="45.4373301" lon="9.2234925"><ele>114.0</ele><time>2026-04-26T14:32:34.451Z</time></trkpt><trkpt lat="45.437267" lon="9.2235367"><ele>114.0</ele><time>2026-04-26T14:32:35.458Z</time></trkpt><trkpt lat="45.4371749" lon="9.2236292"><ele>114.0</ele><time>2026-04-26T14:32:37.46Z</time></trkpt><trkpt lat="45.4371145" lon="9.2237239"><ele>114.0</ele><time>2026-04-26T14:32:39.458Z</time></trkpt><trkpt lat="45.43706" lon="9.2238268"><ele>114.0</ele><time>2026-04-26T14:32:41.46Z</time></trkpt><trkpt lat="45.4370048" lon="9.2239415"><ele>114.0</ele><time>2026-04-26T14:32:43.451Z</time></trkpt><trkpt lat="45.4369441" lon="9.2240181"><ele>113.75</ele><time>2026-04-26T14:32:46.447Z</time></trkpt><trkpt lat="45.4368112" lon="9.2240389"><ele>113.5</ele><time>2026-04-26T14:32:49.458Z</time></trkpt><trkpt lat="45.4367113" lon="9.2240457"><ele>113.25</ele><time>2026-04-26T14:32:50.447Z</time></trkpt><trkpt lat="45.436596" lon="9.2240504"><ele>113.0</ele><time>2026-04-26T14:32:51.452Z</time></trkpt><trkpt lat="45.4364901" lon="9.2240499"><ele>113.0</ele><time>2026-04-26T14:32:52.463Z</time></trkpt><trkpt lat="45.4363883" lon="9.2240537"><ele>113.00000000000001</ele><time>2026-04-26T14:32:53.463Z</time></trkpt><trkpt lat="45.4362903" lon="9.2240523"><ele>113.00000000000001</ele><time>2026-04-26T14:32:54.451Z</time></trkpt><trkpt lat="45.4361917" lon="9.2240538"><ele>113.0</ele><time>2026-04-26T14:32:55.454Z</time></trkpt><trkpt lat="45.4360937" lon="9.224049"><ele>113.0</ele><time>2026-04-26T14:32:56.464Z</time></trkpt><trkpt lat="45.435999" lon="9.2240484"><ele>112.49999999999999</ele><time>2026-04-26T14:32:57.462Z</time></trkpt><trkpt lat="45.4359149" lon="9.2240564"><ele>112.0</ele><time>2026-04-26T14:32:58.464Z</time></trkpt><trkpt lat="45.4358311" lon="9.224059"><ele>111.5</ele><time>2026-04-26T14:32:59.459Z</time></trkpt><trkpt lat="45.4357467" lon="9.2240597"><ele>111.0</ele><time>2026-04-26T14:33:00.462Z</time></trkpt><trkpt lat="45.4356648" lon="9.2240618"><ele>110.49999999999999</ele><time>2026-04-26T14:33:01.461Z</time></trkpt><trkpt lat="45.4355803" lon="9.2240645"><ele>110.0</ele><time>2026-04-26T14:33:02.452Z</time></trkpt><trkpt lat="45.435496" lon="9.2240745"><ele>110.4</ele><time>2026-04-26T14:33:03.459Z</time></trkpt><trkpt lat="45.4354003" lon="9.2240721"><ele>110.8</ele><time>2026-04-26T14:33:04.462Z</time></trkpt><trkpt lat="45.43531" lon="9.2240729"><ele>111.19999999999999</ele><time>2026-04-26T14:33:05.459Z</time></trkpt><trkpt lat="45.4352154" lon="9.2240801"><ele>111.6</ele><time>2026-04-26T14:33:06.462Z</time></trkpt><trkpt lat="45.4351246" lon="9.2240799"><ele>112.0</ele><time>2026-04-26T14:33:07.463Z</time></trkpt><trkpt lat="45.4350352" lon="9.2240779"><ele>112.00000000000001</ele><time>2026-04-26T14:33:08.463Z</time></trkpt><trkpt lat="45.4349475" lon="9.2240725"><ele>112.0</ele><time>2026-04-26T14:33:09.462Z</time></trkpt><trkpt lat="45.4348632" lon="9.2240756"><ele>112.0</ele><time>2026-04-26T14:33:10.448Z</time></trkpt><trkpt lat="45.4347813" lon="9.2240783"><ele>112.0</ele><time>2026-04-26T14:33:11.462Z</time></trkpt><trkpt lat="45.4347063" lon="9.2240766"><ele>112.00000000000001</ele><time>2026-04-26T14:33:12.46Z</time></trkpt><trkpt lat="45.4346341" lon="9.2240819"><ele>112.0</ele><time>2026-04-26T14:33:13.456Z</time></trkpt><trkpt lat="45.4345643" lon="9.2240775"><ele>112.0</ele><time>2026-04-26T14:33:14.462Z</time></trkpt><trkpt lat="45.4344944" lon="9.2240805"><ele>111.99999999999999</ele><time>2026-04-26T14:33:15.465Z</time></trkpt><trkpt lat="45.4344178" lon="9.2240854"><ele>111.99999999999999</ele><time>2026-04-26T14:33:16.469Z</time></trkpt><trkpt lat="45.4343318" lon="9.2240885"><ele>112.0</ele><time>2026-04-26T14:33:17.46Z</time></trkpt><trkpt lat="45.434217" lon="9.224102"><ele>112.0</ele><time>2026-04-26T14:33:18.454Z</time></trkpt><trkpt lat="45.4340756" lon="9.2240966"><ele>112.0</ele><time>2026-04-26T14:33:19.461Z</time></trkpt><trkpt lat="45.4339026" lon="9.2240877"><ele>112.0</ele><time>2026-04-26T14:33:20.45Z</time></trkpt><trkpt lat="45.4337223" lon="9.2240901"><ele>112.0</ele><time>2026-04-26T14:33:21.461Z</time></trkpt><trkpt lat="45.433551" lon="9.2240906"><ele>112.25</ele><time>2026-04-26T14:33:22.452Z</time></trkpt><trkpt lat="45.4333906" lon="9.2240902"><ele>112.5</ele><time>2026-04-26T14:33:23.463Z</time></trkpt><trkpt lat="45.4332528" lon="9.2240887"><ele>112.75</ele><time>2026-04-26T14:33:24.442Z</time></trkpt><trkpt lat="45.433125" lon="9.224073"><ele>113.0</ele><time>2026-04-26T14:33:25.445Z</time></trkpt><trkpt lat="45.4330133" lon="9.2240889"><ele>112.83333333333333</ele><time>2026-04-26T14:33:26.447Z</time></trkpt><trkpt lat="45.4329223" lon="9.2240863"><ele>112.66666666666666</ele><time>2026-04-26T14:33:27.456Z</time></trkpt><trkpt lat="45.4328378" lon="9.2240882"><ele>112.5</ele><time>2026-04-26T14:33:28.454Z</time></trkpt><trkpt lat="45.432768" lon="9.2240883"><ele>112.33333333333334</ele><time>2026-04-26T14:33:29.461Z</time></trkpt><trkpt lat="45.4327046" lon="9.2240935"><ele>112.16666666666667</ele><time>2026-04-26T14:33:30.46Z</time></trkpt><trkpt lat="45.4325927" lon="9.2240857"><ele>112.0</ele><time>2026-04-26T14:33:32.458Z</time></trkpt><trkpt lat="45.4324641" lon="9.2240804"><ele>112.00000000000001</ele><time>2026-04-26T14:33:34.451Z</time></trkpt><trkpt lat="45.4323927" lon="9.2240699"><ele>112.0</ele><time>2026-04-26T14:33:35.46Z</time></trkpt><trkpt lat="45.4323231" lon="9.2240765"><ele>112.0</ele><time>2026-04-26T14:33:36.45Z</time></trkpt><trkpt lat="45.43226" lon="9.2240808"><ele>112.0</ele><time>2026-04-26T14:33:37.46Z</time></trkpt><trkpt lat="45.4321473" lon="9.2240869"><ele>112.00000000000001</ele><time>2026-04-26T14:33:39.46Z</time></trkpt><trkpt lat="45.4320526" lon="9.223968"><ele>112.0</ele><time>2026-04-26T14:33:41.458Z</time></trkpt><trkpt lat="45.432005" lon="9.2238959"><ele>111.16666666666667</ele><time>2026-04-26T14:33:42.445Z</time></trkpt><trkpt lat="45.4319118" lon="9.2238367"><ele>110.33333333333334</ele><time>2026-04-26T14:33:44.483Z</time></trkpt><trkpt lat="45.4318485" lon="9.2238568"><ele>109.5</ele><time>2026-04-26T14:33:45.459Z</time></trkpt><trkpt lat="45.4317812" lon="9.2239199"><ele>108.66666666666666</ele><time>2026-04-26T14:33:46.464Z</time></trkpt><trkpt lat="45.4317271" lon="9.2240204"><ele>107.83333333333333</ele><time>2026-04-26T14:33:47.461Z</time></trkpt><trkpt lat="45.4316595" lon="9.224139"><ele>107.0</ele><time>2026-04-26T14:33:48.466Z</time></trkpt><trkpt lat="45.4315725" lon="9.2242636"><ele>106.66666666666666</ele><time>2026-04-26T14:33:49.453Z</time></trkpt><trkpt lat="45.4314741" lon="9.2244035"><ele>106.33333333333334</ele><time>2026-04-26T14:33:50.448Z</time></trkpt><trkpt lat="45.4313681" lon="9.2245634"><ele>106.0</ele><time>2026-04-26T14:33:51.449Z</time></trkpt><trkpt lat="45.4312485" lon="9.2247433"><ele>105.66666666666667</ele><time>2026-04-26T14:33:52.459Z</time></trkpt><trkpt lat="45.4311311" lon="9.2249194"><ele>105.33333333333334</ele><time>2026-04-26T14:33:53.451Z</time></trkpt><trkpt lat="45.4310203" lon="9.2250828"><ele>105.0</ele><time>2026-04-26T14:33:54.448Z</time></trkpt><trkpt lat="45.4309132" lon="9.2252407"><ele>105.0</ele><time>2026-04-26T14:33:55.499Z</time></trkpt><trkpt lat="45.4308127" lon="9.2253929"><ele>105.0</ele><time>2026-04-26T14:33:56.459Z</time></trkpt><trkpt lat="45.4307194" lon="9.22554"><ele>105.0</ele><time>2026-04-26T14:33:57.46Z</time></trkpt><trkpt lat="45.4306318" lon="9.2256735"><ele>105.0</ele><time>2026-04-26T14:33:58.444Z</time></trkpt><trkpt lat="45.4305476" lon="9.2257985"><ele>105.0</ele><time>2026-04-26T14:33:59.45Z</time></trkpt><trkpt lat="45.4304695" lon="9.2259235"><ele>105.0</ele><time>2026-04-26T14:34:00.461Z</time></trkpt><trkpt lat="45.4303763" lon="9.2260324"><ele>105.0</ele><time>2026-04-26T14:34:01.459Z</time></trkpt><trkpt lat="45.430272" lon="9.226128"><ele>105.0</ele><time>2026-04-26T14:34:02.459Z</time></trkpt><trkpt lat="45.4301662" lon="9.226203"><ele>105.0</ele><time>2026-04-26T14:34:03.458Z</time></trkpt><trkpt lat="45.4300624" lon="9.2262672"><ele>105.0</ele><time>2026-04-26T14:34:04.451Z</time></trkpt><trkpt lat="45.4299683" lon="9.2263252"><ele>105.0</ele><time>2026-04-26T14:34:05.46Z</time></trkpt><trkpt lat="45.4298836" lon="9.226373"><ele>105.0</ele><time>2026-04-26T14:34:06.445Z</time></trkpt><trkpt lat="45.4298043" lon="9.2264097"><ele>105.0</ele><time>2026-04-26T14:34:07.46Z</time></trkpt><trkpt lat="45.4297313" lon="9.2264352"><ele>105.0</ele><time>2026-04-26T14:34:08.45Z</time></trkpt><trkpt lat="45.4296572" lon="9.2264523"><ele>105.0</ele><time>2026-04-26T14:34:09.46Z</time></trkpt><trkpt lat="45.4295929" lon="9.2265052"><ele>105.0</ele><time>2026-04-26T14:34:10.45Z</time></trkpt><trkpt lat="45.4295401" lon="9.2265957"><ele>105.0</ele><time>2026-04-26T14:34:11.459Z</time></trkpt><trkpt lat="45.4294816" lon="9.2267092"><ele>105.0</ele><time>2026-04-26T14:34:12.458Z</time></trkpt><trkpt lat="45.4294015" lon="9.2268368"><ele>105.5</ele><time>2026-04-26T14:34:13.449Z</time></trkpt><trkpt lat="45.4293099" lon="9.2269679"><ele>106.0</ele><time>2026-04-26T14:34:14.451Z</time></trkpt><trkpt lat="45.4291972" lon="9.2271045"><ele>106.5</ele><time>2026-04-26T14:34:15.448Z</time></trkpt><trkpt lat="45.4290652" lon="9.2272463"><ele>107.0</ele><time>2026-04-26T14:34:16.453Z</time></trkpt><trkpt lat="45.4289298" lon="9.2273914"><ele>106.66666666666666</ele><time>2026-04-26T14:34:17.449Z</time></trkpt><trkpt lat="45.4287827" lon="9.2275461"><ele>106.33333333333334</ele><time>2026-04-26T14:34:18.446Z</time></trkpt><trkpt lat="45.428638" lon="9.2277012"><ele>106.0</ele><time>2026-04-26T14:34:19.481Z</time></trkpt><trkpt lat="45.4284991" lon="9.2278478"><ele>106.0</ele><time>2026-04-26T14:34:20.448Z</time></trkpt><trkpt lat="45.4283548" lon="9.2279864"><ele>106.0</ele><time>2026-04-26T14:34:21.546Z</time></trkpt><trkpt lat="45.4282036" lon="9.2281178"><ele>106.0</ele><time>2026-04-26T14:34:22.45Z</time></trkpt><trkpt lat="45.4280546" lon="9.2282308"><ele>106.66666666666667</ele><time>2026-04-26T14:34:23.459Z</time></trkpt><trkpt lat="45.4279124" lon="9.2283378"><ele>107.33333333333334</ele><time>2026-04-26T14:34:24.446Z</time></trkpt><trkpt lat="45.4277689" lon="9.2284465"><ele>108.0</ele><time>2026-04-26T14:34:25.46Z</time></trkpt><trkpt lat="45.4276248" lon="9.2285993"><ele>108.0</ele><time>2026-04-26T14:34:26.443Z</time></trkpt><trkpt lat="45.4274798" lon="9.228761"><ele>108.0</ele><time>2026-04-26T14:34:27.46Z</time></trkpt><trkpt lat="45.4273354" lon="9.2289207"><ele>108.0</ele><time>2026-04-26T14:34:28.457Z</time></trkpt><trkpt lat="45.4271948" lon="9.22908"><ele>107.33333333333334</ele><time>2026-04-26T14:34:29.46Z</time></trkpt><trkpt lat="45.4270738" lon="9.22923"><ele>106.66666666666667</ele><time>2026-04-26T14:34:30.444Z</time></trkpt><trkpt lat="45.4269501" lon="9.2293767"><ele>106.0</ele><time>2026-04-26T14:34:31.447Z</time></trkpt><trkpt lat="45.4268284" lon="9.2295181"><ele>106.0</ele><time>2026-04-26T14:34:32.461Z</time></trkpt><trkpt lat="45.4267047" lon="9.2296602"><ele>106.0</ele><time>2026-04-26T14:34:33.464Z</time></trkpt><trkpt lat="45.426583" lon="9.2298034"><ele>106.0</ele><time>2026-04-26T14:34:34.444Z</time></trkpt><trkpt lat="45.4264621" lon="9.2299431"><ele>106.25</ele><time>2026-04-26T14:34:35.458Z</time></trkpt><trkpt lat="45.4263467" lon="9.2300817"><ele>106.5</ele><time>2026-04-26T14:34:36.45Z</time></trkpt><trkpt lat="45.4262341" lon="9.2302105"><ele>106.75</ele><time>2026-04-26T14:34:37.457Z</time></trkpt><trkpt lat="45.4261267" lon="9.2303332"><ele>107.0</ele><time>2026-04-26T14:34:38.443Z</time></trkpt><trkpt lat="45.4260303" lon="9.2304417"><ele>107.0</ele><time>2026-04-26T14:34:39.452Z</time></trkpt><trkpt lat="45.4259371" lon="9.2305459"><ele>107.0</ele><time>2026-04-26T14:34:40.458Z</time></trkpt><trkpt lat="45.4258524" lon="9.2306432"><ele>107.0</ele><time>2026-04-26T14:34:41.452Z</time></trkpt><trkpt lat="45.4257659" lon="9.2307433"><ele>107.0</ele><time>2026-04-26T14:34:42.452Z</time></trkpt><trkpt lat="45.4256759" lon="9.2308462"><ele>107.0</ele><time>2026-04-26T14:34:43.449Z</time></trkpt><trkpt lat="45.4255838" lon="9.2309528"><ele>107.0</ele><time>2026-04-26T14:34:44.448Z</time></trkpt><trkpt lat="45.4254901" lon="9.2310646"><ele>107.0</ele><time>2026-04-26T14:34:45.443Z</time></trkpt><trkpt lat="45.4253914" lon="9.2311767"><ele>107.0</ele><time>2026-04-26T14:34:46.449Z</time></trkpt><trkpt lat="45.4252915" lon="9.2312942"><ele>107.0</ele><time>2026-04-26T14:34:47.446Z</time></trkpt><trkpt lat="45.4251908" lon="9.2314173"><ele>107.0</ele><time>2026-04-26T14:34:48.484Z</time></trkpt><trkpt lat="45.4250904" lon="9.23154"><ele>107.0</ele><time>2026-04-26T14:34:49.459Z</time></trkpt><trkpt lat="45.424983" lon="9.2316639"><ele>107.0</ele><time>2026-04-26T14:34:50.452Z</time></trkpt><trkpt lat="45.4248755" lon="9.2317878"><ele>107.0</ele><time>2026-04-26T14:34:51.451Z</time></trkpt><trkpt lat="45.4247708" lon="9.2319197"><ele>107.0</ele><time>2026-04-26T14:34:52.446Z</time></trkpt><trkpt lat="45.4246631" lon="9.2320571"><ele>107.0</ele><time>2026-04-26T14:34:53.445Z</time></trkpt><trkpt lat="45.42455" lon="9.232197"><ele>107.0</ele><time>2026-04-26T14:34:54.446Z</time></trkpt><trkpt lat="45.4244377" lon="9.2323372"><ele>106.75</ele><time>2026-04-26T14:34:55.448Z</time></trkpt><trkpt lat="45.4243251" lon="9.2324798"><ele>106.5</ele><time>2026-04-26T14:34:56.447Z</time></trkpt><trkpt lat="45.4242157" lon="9.2326277"><ele>106.25</ele><time>2026-04-26T14:34:57.451Z</time></trkpt><trkpt lat="45.4241143" lon="9.2327741"><ele>106.0</ele><time>2026-04-26T14:34:58.443Z</time></trkpt><trkpt lat="45.4240114" lon="9.2329144"><ele>106.0</ele><time>2026-04-26T14:34:59.448Z</time></trkpt><trkpt lat="45.4239068" lon="9.2330524"><ele>106.0</ele><time>2026-04-26T14:35:00.451Z</time></trkpt><trkpt lat="45.4237964" lon="9.2331938"><ele>106.0</ele><time>2026-04-26T14:35:01.446Z</time></trkpt><trkpt lat="45.4236852" lon="9.2333354"><ele>106.0</ele><time>2026-04-26T14:35:02.447Z</time></trkpt><trkpt lat="45.4235674" lon="9.2334787"><ele>105.66666666666667</ele><time>2026-04-26T14:35:03.448Z</time></trkpt><trkpt lat="45.423448" lon="9.2336226"><ele>105.33333333333334</ele><time>2026-04-26T14:35:04.453Z</time></trkpt><trkpt lat="45.4233252" lon="9.233768"><ele>105.0</ele><time>2026-04-26T14:35:05.45Z</time></trkpt><trkpt lat="45.423202" lon="9.2339178"><ele>105.33333333333334</ele><time>2026-04-26T14:35:06.448Z</time></trkpt><trkpt lat="45.4230775" lon="9.2340668"><ele>105.66666666666667</ele><time>2026-04-26T14:35:07.449Z</time></trkpt><trkpt lat="45.422957" lon="9.2342163"><ele>106.0</ele><time>2026-04-26T14:35:08.455Z</time></trkpt><trkpt lat="45.4228409" lon="9.234362"><ele>105.33333333333334</ele><time>2026-04-26T14:35:09.449Z</time></trkpt><trkpt lat="45.4227277" lon="9.2345066"><ele>104.66666666666666</ele><time>2026-04-26T14:35:10.449Z</time></trkpt><trkpt lat="45.4226121" lon="9.2346509"><ele>104.0</ele><time>2026-04-26T14:35:11.448Z</time></trkpt><trkpt lat="45.422502" lon="9.2348017"><ele>104.66666666666666</ele><time>2026-04-26T14:35:12.449Z</time></trkpt><trkpt lat="45.4223972" lon="9.2349608"><ele>105.33333333333334</ele><time>2026-04-26T14:35:13.45Z</time></trkpt><trkpt lat="45.4222926" lon="9.23513"><ele>106.0</ele><time>2026-04-26T14:35:14.447Z</time></trkpt><trkpt lat="45.4221877" lon="9.2353026"><ele>105.66666666666667</ele><time>2026-04-26T14:35:15.448Z</time></trkpt><trkpt lat="45.4220789" lon="9.2354784"><ele>105.33333333333334</ele><time>2026-04-26T14:35:16.451Z</time></trkpt><trkpt lat="45.421971" lon="9.2356608"><ele>105.0</ele><time>2026-04-26T14:35:17.449Z</time></trkpt><trkpt lat="45.4218622" lon="9.2358481"><ele>105.0</ele><time>2026-04-26T14:35:18.452Z</time></trkpt><trkpt lat="45.4217537" lon="9.2360356"><ele>105.0</ele><time>2026-04-26T14:35:19.45Z</time></trkpt><trkpt lat="45.4216445" lon="9.2362254"><ele>105.0</ele><time>2026-04-26T14:35:20.447Z</time></trkpt><trkpt lat="45.421539" lon="9.2364116"><ele>105.0</ele><time>2026-04-26T14:35:21.448Z</time></trkpt><trkpt lat="45.4214353" lon="9.2365945"><ele>105.0</ele><time>2026-04-26T14:35:22.448Z</time></trkpt><trkpt lat="45.4213353" lon="9.2367769"><ele>105.0</ele><time>2026-04-26T14:35:23.45Z</time></trkpt><trkpt lat="45.4212371" lon="9.2369526"><ele>105.0</ele><time>2026-04-26T14:35:24.45Z</time></trkpt><trkpt lat="45.4211487" lon="9.2371118"><ele>105.0</ele><time>2026-04-26T14:35:25.449Z</time></trkpt><trkpt lat="45.421077" lon="9.2372345"><ele>105.0</ele><time>2026-04-26T14:35:26.448Z</time></trkpt><trkpt lat="45.4210128" lon="9.2373446"><ele>105.0</ele><time>2026-04-26T14:35:27.449Z</time></trkpt><trkpt lat="45.4209479" lon="9.2374628"><ele>105.0</ele><time>2026-04-26T14:35:28.449Z</time></trkpt><trkpt lat="45.4208886" lon="9.2375753"><ele>105.0</ele><time>2026-04-26T14:35:29.449Z</time></trkpt><trkpt lat="45.4208278" lon="9.2376844"><ele>105.0</ele><time>2026-04-26T14:35:30.45Z</time></trkpt><trkpt lat="45.4207702" lon="9.2377923"><ele>105.0</ele><time>2026-04-26T14:35:31.451Z</time></trkpt><trkpt lat="45.4207096" lon="9.2378986"><ele>105.0</ele><time>2026-04-26T14:35:32.448Z</time></trkpt><trkpt lat="45.4206496" lon="9.2380095"><ele>105.0</ele><time>2026-04-26T14:35:33.45Z</time></trkpt><trkpt lat="45.4205892" lon="9.2381153"><ele>105.0</ele><time>2026-04-26T14:35:34.449Z</time></trkpt><trkpt lat="45.420532" lon="9.2382178"><ele>105.0</ele><time>2026-04-26T14:35:35.45Z</time></trkpt><trkpt lat="45.420481" lon="9.2383153"><ele>105.0</ele><time>2026-04-26T14:35:36.451Z</time></trkpt><trkpt lat="45.4204365" lon="9.2383954"><ele>105.0</ele><time>2026-04-26T14:35:37.451Z</time></trkpt><trkpt lat="45.4203667" lon="9.2385291"><ele>104.66666666666667</ele><time>2026-04-26T14:35:39.45Z</time></trkpt><trkpt lat="45.4203056" lon="9.2386448"><ele>104.33333333333334</ele><time>2026-04-26T14:35:41.476Z</time></trkpt><trkpt lat="45.4202169" lon="9.2387299"><ele>104.0</ele><time>2026-04-26T14:35:43.446Z</time></trkpt><trkpt lat="45.4201533" lon="9.2387473"><ele>103.66666666666667</ele><time>2026-04-26T14:35:44.448Z</time></trkpt><trkpt lat="45.4200815" lon="9.2387378"><ele>103.33333333333334</ele><time>2026-04-26T14:35:45.45Z</time></trkpt><trkpt lat="45.4200003" lon="9.2387054"><ele>103.0</ele><time>2026-04-26T14:35:46.447Z</time></trkpt><trkpt lat="45.4199296" lon="9.2386694"><ele>103.00000000000001</ele><time>2026-04-26T14:35:47.445Z</time></trkpt><trkpt lat="45.419859" lon="9.2386308"><ele>103.0</ele><time>2026-04-26T14:35:48.449Z</time></trkpt><trkpt lat="45.4197885" lon="9.2385859"><ele>103.0</ele><time>2026-04-26T14:35:49.446Z</time></trkpt><trkpt lat="45.4197156" lon="9.2385313"><ele>103.0</ele><time>2026-04-26T14:35:50.45Z</time></trkpt><trkpt lat="45.4196419" lon="9.2384692"><ele>103.00000000000001</ele><time>2026-04-26T14:35:51.448Z</time></trkpt><trkpt lat="45.4195686" lon="9.2384076"><ele>103.0</ele><time>2026-04-26T14:35:52.448Z</time></trkpt><trkpt lat="45.4194938" lon="9.2383424"><ele>103.00000000000001</ele><time>2026-04-26T14:35:53.45Z</time></trkpt><trkpt lat="45.4194235" lon="9.2382745"><ele>103.0</ele><time>2026-04-26T14:35:54.45Z</time></trkpt><trkpt lat="45.4193527" lon="9.2382054"><ele>103.0</ele><time>2026-04-26T14:35:55.448Z</time></trkpt><trkpt lat="45.4192879" lon="9.2381423"><ele>103.0</ele><time>2026-04-26T14:35:56.449Z</time></trkpt><trkpt lat="45.4192246" lon="9.2380912"><ele>103.00000000000001</ele><time>2026-04-26T14:35:57.449Z</time></trkpt><trkpt lat="45.4191661" lon="9.238039"><ele>103.0</ele><time>2026-04-26T14:35:58.449Z</time></trkpt><trkpt lat="45.4191108" lon="9.2379858"><ele>103.0</ele><time>2026-04-26T14:35:59.449Z</time></trkpt><trkpt lat="45.419057" lon="9.2379329"><ele>103.0</ele><time>2026-04-26T14:36:00.45Z</time></trkpt><trkpt lat="45.4189646" lon="9.2378405"><ele>103.0</ele><time>2026-04-26T14:36:02.446Z</time></trkpt><trkpt lat="45.4188939" lon="9.2377803"><ele>103.0</ele><time>2026-04-26T14:36:04.482Z</time></trkpt><trkpt lat="45.4188104" lon="9.2377007"><ele>103.0</ele><time>2026-04-26T14:36:07.45Z</time></trkpt><trkpt lat="45.4187272" lon="9.2376217"><ele>103.00000000000001</ele><time>2026-04-26T14:36:09.459Z</time></trkpt><trkpt lat="45.4186293" lon="9.2375313"><ele>103.0</ele><time>2026-04-26T14:36:11.458Z</time></trkpt><trkpt lat="45.4185252" lon="9.2374336"><ele>103.0</ele><time>2026-04-26T14:36:13.446Z</time></trkpt><trkpt lat="45.4184719" lon="9.2373844"><ele>103.0</ele><time>2026-04-26T14:36:14.459Z</time></trkpt><trkpt lat="45.4184138" lon="9.2373306"><ele>103.00000000000001</ele><time>2026-04-26T14:36:15.477Z</time></trkpt><trkpt lat="45.4183552" lon="9.2372736"><ele>103.0</ele><time>2026-04-26T14:36:16.45Z</time></trkpt><trkpt lat="45.4182702" lon="9.2372115"><ele>103.0</ele><time>2026-04-26T14:36:18.448Z</time></trkpt><trkpt lat="45.4181981" lon="9.2372319"><ele>103.0</ele><time>2026-04-26T14:36:20.445Z</time></trkpt><trkpt lat="45.4181304" lon="9.2373679"><ele>103.0</ele><time>2026-04-26T14:36:22.45Z</time></trkpt><trkpt lat="45.4180933" lon="9.2374793"><ele>103.0</ele><time>2026-04-26T14:36:23.442Z</time></trkpt><trkpt lat="45.4180541" lon="9.237606"><ele>103.0</ele><time>2026-04-26T14:36:24.45Z</time></trkpt><trkpt lat="45.4180181" lon="9.2377464"><ele>102.80000000000001</ele><time>2026-04-26T14:36:25.598Z</time></trkpt><trkpt lat="45.4179539" lon="9.238004"><ele>102.6</ele><time>2026-04-26T14:36:27.484Z</time></trkpt><trkpt lat="45.4179243" lon="9.2381301"><ele>102.4</ele><time>2026-04-26T14:36:28.449Z</time></trkpt><trkpt lat="45.4178987" lon="9.2382415"><ele>102.19999999999999</ele><time>2026-04-26T14:36:29.452Z</time></trkpt><trkpt lat="45.4178808" lon="9.2383339"><ele>102.0</ele><time>2026-04-26T14:36:30.454Z</time></trkpt><trkpt lat="45.4178599" lon="9.238422"><ele>102.0</ele><time>2026-04-26T14:36:31.461Z</time></trkpt><trkpt lat="45.4178349" lon="9.238522"><ele>102.0</ele><time>2026-04-26T14:36:32.449Z</time></trkpt><trkpt lat="45.417798" lon="9.2386311"><ele>102.0</ele><time>2026-04-26T14:36:33.449Z</time></trkpt><trkpt lat="45.4177449" lon="9.2387565"><ele>102.0</ele><time>2026-04-26T14:36:34.451Z</time></trkpt><trkpt lat="45.4176838" lon="9.238884"><ele>102.0</ele><time>2026-04-26T14:36:35.449Z</time></trkpt><trkpt lat="45.4176089" lon="9.2390199"><ele>102.25</ele><time>2026-04-26T14:36:36.448Z</time></trkpt><trkpt lat="45.4175257" lon="9.2391578"><ele>102.5</ele><time>2026-04-26T14:36:37.444Z</time></trkpt><trkpt lat="45.4174479" lon="9.2392865"><ele>102.75</ele><time>2026-04-26T14:36:38.447Z</time></trkpt><trkpt lat="45.4173699" lon="9.2394173"><ele>103.0</ele><time>2026-04-26T14:36:39.449Z</time></trkpt><trkpt lat="45.4172913" lon="9.2395436"><ele>103.0</ele><time>2026-04-26T14:36:40.452Z</time></trkpt><trkpt lat="45.417219" lon="9.2396637"><ele>103.0</ele><time>2026-04-26T14:36:41.451Z</time></trkpt><trkpt lat="45.4171499" lon="9.2397741"><ele>103.0</ele><time>2026-04-26T14:36:42.451Z</time></trkpt><trkpt lat="45.4170871" lon="9.2398765"><ele>103.0</ele><time>2026-04-26T14:36:43.461Z</time></trkpt><trkpt lat="45.4170274" lon="9.2399722"><ele>103.0</ele><time>2026-04-26T14:36:44.484Z</time></trkpt><trkpt lat="45.4169715" lon="9.2400616"><ele>103.00000000000001</ele><time>2026-04-26T14:36:45.447Z</time></trkpt><trkpt lat="45.4169055" lon="9.2401473"><ele>103.0</ele><time>2026-04-26T14:36:46.448Z</time></trkpt><trkpt lat="45.4168255" lon="9.2402138"><ele>103.0</ele><time>2026-04-26T14:36:47.451Z</time></trkpt><trkpt lat="45.4167522" lon="9.2402842"><ele>103.0</ele><time>2026-04-26T14:36:48.445Z</time></trkpt><trkpt lat="45.4166771" lon="9.2403524"><ele>103.00000000000001</ele><time>2026-04-26T14:36:49.446Z</time></trkpt><trkpt lat="45.4166048" lon="9.2404227"><ele>103.0</ele><time>2026-04-26T14:36:50.45Z</time></trkpt><trkpt lat="45.4165272" lon="9.2404907"><ele>103.00000000000001</ele><time>2026-04-26T14:36:51.451Z</time></trkpt><trkpt lat="45.4164455" lon="9.240546"><ele>103.0</ele><time>2026-04-26T14:36:52.451Z</time></trkpt><trkpt lat="45.4163649" lon="9.2406016"><ele>103.0</ele><time>2026-04-26T14:36:53.45Z</time></trkpt><trkpt lat="45.4162868" lon="9.2406452"><ele>103.0</ele><time>2026-04-26T14:36:54.443Z</time></trkpt><trkpt lat="45.4162148" lon="9.2406864"><ele>103.00000000000001</ele><time>2026-04-26T14:36:55.45Z</time></trkpt><trkpt lat="45.4161431" lon="9.2407116"><ele>103.0</ele><time>2026-04-26T14:36:56.445Z</time></trkpt><trkpt lat="45.4160585" lon="9.2407319"><ele>103.4</ele><time>2026-04-26T14:36:57.45Z</time></trkpt><trkpt lat="45.4159707" lon="9.2407505"><ele>103.80000000000001</ele><time>2026-04-26T14:36:58.453Z</time></trkpt><trkpt lat="45.4158761" lon="9.2407721"><ele>104.2</ele><time>2026-04-26T14:36:59.461Z</time></trkpt><trkpt lat="45.4157819" lon="9.2407944"><ele>104.6</ele><time>2026-04-26T14:37:00.447Z</time></trkpt><trkpt lat="45.4156938" lon="9.2408149"><ele>105.0</ele><time>2026-04-26T14:37:01.46Z</time></trkpt><trkpt lat="45.4156078" lon="9.2408232"><ele>105.0</ele><time>2026-04-26T14:37:02.453Z</time></trkpt><trkpt lat="45.4155178" lon="9.2408334"><ele>105.0</ele><time>2026-04-26T14:37:03.451Z</time></trkpt><trkpt lat="45.4154344" lon="9.240862"><ele>105.0</ele><time>2026-04-26T14:37:04.446Z</time></trkpt><trkpt lat="45.4153469" lon="9.2409002"><ele>105.0</ele><time>2026-04-26T14:37:05.459Z</time></trkpt><trkpt lat="45.4152481" lon="9.240942"><ele>105.0</ele><time>2026-04-26T14:37:06.449Z</time></trkpt><trkpt lat="45.415147" lon="9.2409913"><ele>104.8</ele><time>2026-04-26T14:37:07.459Z</time></trkpt><trkpt lat="45.4150557" lon="9.2410436"><ele>104.6</ele><time>2026-04-26T14:37:08.451Z</time></trkpt><trkpt lat="45.4149702" lon="9.2410921"><ele>104.4</ele><time>2026-04-26T14:37:09.459Z</time></trkpt><trkpt lat="45.4148944" lon="9.2411404"><ele>104.2</ele><time>2026-04-26T14:37:10.45Z</time></trkpt><trkpt lat="45.4148205" lon="9.2411833"><ele>104.0</ele><time>2026-04-26T14:37:11.448Z</time></trkpt><trkpt lat="45.4147264" lon="9.241227"><ele>103.66666666666666</ele><time>2026-04-26T14:37:13.482Z</time></trkpt><trkpt lat="45.4146506" lon="9.2412318"><ele>103.33333333333333</ele><time>2026-04-26T14:37:15.459Z</time></trkpt><trkpt lat="45.4145678" lon="9.2411372"><ele>103.0</ele><time>2026-04-26T14:37:18.459Z</time></trkpt><trkpt lat="45.4145295" lon="9.2410647"><ele>102.66666666666666</ele><time>2026-04-26T14:37:19.458Z</time></trkpt><trkpt lat="45.4144847" lon="9.2409845"><ele>102.33333333333333</ele><time>2026-04-26T14:37:20.476Z</time></trkpt><trkpt lat="45.4144366" lon="9.2408912"><ele>102.0</ele><time>2026-04-26T14:37:21.463Z</time></trkpt><trkpt lat="45.4143847" lon="9.2407934"><ele>102.0</ele><time>2026-04-26T14:37:22.452Z</time></trkpt><trkpt lat="45.4143312" lon="9.2406909"><ele>102.0</ele><time>2026-04-26T14:37:23.458Z</time></trkpt><trkpt lat="45.4142819" lon="9.2405884"><ele>102.0</ele><time>2026-04-26T14:37:24.452Z</time></trkpt><trkpt lat="45.4142344" lon="9.2404866"><ele>102.0</ele><time>2026-04-26T14:37:25.456Z</time></trkpt><trkpt lat="45.4141882" lon="9.2403812"><ele>102.0</ele><time>2026-04-26T14:37:26.447Z</time></trkpt><trkpt lat="45.4141378" lon="9.2402765"><ele>102.0</ele><time>2026-04-26T14:37:27.451Z</time></trkpt><trkpt lat="45.4140947" lon="9.2401838"><ele>102.0</ele><time>2026-04-26T14:37:28.45Z</time></trkpt><trkpt lat="45.4140492" lon="9.2400919"><ele>102.0</ele><time>2026-04-26T14:37:29.45Z</time></trkpt><trkpt lat="45.4139959" lon="9.2400052"><ele>102.0</ele><time>2026-04-26T14:37:30.46Z</time></trkpt><trkpt lat="45.4139277" lon="9.2399442"><ele>102.0</ele><time>2026-04-26T14:37:31.458Z</time></trkpt><trkpt lat="45.4138382" lon="9.2399137"><ele>102.0</ele><time>2026-04-26T14:37:32.458Z</time></trkpt><trkpt lat="45.4137424" lon="9.2399193"><ele>102.0</ele><time>2026-04-26T14:37:33.452Z</time></trkpt><trkpt lat="45.4136496" lon="9.2399528"><ele>102.0</ele><time>2026-04-26T14:37:34.444Z</time></trkpt><trkpt lat="45.413561" lon="9.2400071"><ele>102.0</ele><time>2026-04-26T14:37:35.484Z</time></trkpt><trkpt lat="45.4134701" lon="9.2400705"><ele>102.0</ele><time>2026-04-26T14:37:36.457Z</time></trkpt><trkpt lat="45.4133717" lon="9.2401398"><ele>102.0</ele><time>2026-04-26T14:37:37.451Z</time></trkpt><trkpt lat="45.4132715" lon="9.2402086"><ele>102.0</ele><time>2026-04-26T14:37:38.45Z</time></trkpt><trkpt lat="45.4131588" lon="9.2402864"><ele>102.0</ele><time>2026-04-26T14:37:39.459Z</time></trkpt><trkpt lat="45.4130475" lon="9.2403663"><ele>102.0</ele><time>2026-04-26T14:37:40.459Z</time></trkpt><trkpt lat="45.4129232" lon="9.2404559"><ele>102.0</ele><time>2026-04-26T14:37:41.459Z</time></trkpt><trkpt lat="45.4127919" lon="9.2405492"><ele>102.0</ele><time>2026-04-26T14:37:42.449Z</time></trkpt><trkpt lat="45.4126584" lon="9.2406458"><ele>101.0</ele><time>2026-04-26T14:37:43.46Z</time></trkpt><trkpt lat="45.4125224" lon="9.2407477"><ele>100.0</ele><time>2026-04-26T14:37:44.442Z</time></trkpt><trkpt lat="45.4123947" lon="9.2408427"><ele>99.0</ele><time>2026-04-26T14:37:45.48Z</time></trkpt><trkpt lat="45.4122807" lon="9.2409303"><ele>98.0</ele><time>2026-04-26T14:37:46.457Z</time></trkpt><trkpt lat="45.4121674" lon="9.2410202"><ele>98.25</ele><time>2026-04-26T14:37:47.461Z</time></trkpt><trkpt lat="45.412059" lon="9.2411066"><ele>98.5</ele><time>2026-04-26T14:37:48.458Z</time></trkpt><trkpt lat="45.4119467" lon="9.2412052"><ele>98.75</ele><time>2026-04-26T14:37:49.453Z</time></trkpt><trkpt lat="45.4118391" lon="9.2413035"><ele>99.0</ele><time>2026-04-26T14:37:50.447Z</time></trkpt><trkpt lat="45.4117329" lon="9.2414083"><ele>98.75</ele><time>2026-04-26T14:37:51.45Z</time></trkpt><trkpt lat="45.411633" lon="9.2415263"><ele>98.5</ele><time>2026-04-26T14:37:52.457Z</time></trkpt><trkpt lat="45.4115347" lon="9.2416555"><ele>98.25</ele><time>2026-04-26T14:37:53.451Z</time></trkpt><trkpt lat="45.411445" lon="9.2417762"><ele>98.0</ele><time>2026-04-26T14:37:54.459Z</time></trkpt><trkpt lat="45.4113521" lon="9.2419096"><ele>98.0</ele><time>2026-04-26T14:37:55.457Z</time></trkpt><trkpt lat="45.4112561" lon="9.2420428"><ele>98.0</ele><time>2026-04-26T14:37:56.458Z</time></trkpt><trkpt lat="45.4111665" lon="9.2421736"><ele>98.0</ele><time>2026-04-26T14:37:57.457Z</time></trkpt><trkpt lat="45.41108" lon="9.2423014"><ele>98.0</ele><time>2026-04-26T14:37:58.444Z</time></trkpt><trkpt lat="45.410996" lon="9.242419"><ele>98.0</ele><time>2026-04-26T14:37:59.457Z</time></trkpt><trkpt lat="45.4109084" lon="9.2425351"><ele>98.0</ele><time>2026-04-26T14:38:00.447Z</time></trkpt><trkpt lat="45.4108207" lon="9.2426415"><ele>98.0</ele><time>2026-04-26T14:38:01.458Z</time></trkpt><trkpt lat="45.410734" lon="9.2427401"><ele>98.0</ele><time>2026-04-26T14:38:02.446Z</time></trkpt><trkpt lat="45.4106494" lon="9.242833"><ele>98.0</ele><time>2026-04-26T14:38:03.458Z</time></trkpt><trkpt lat="45.4105679" lon="9.2429196"><ele>98.0</ele><time>2026-04-26T14:38:04.457Z</time></trkpt><trkpt lat="45.4104876" lon="9.2429884"><ele>98.0</ele><time>2026-04-26T14:38:05.451Z</time></trkpt><trkpt lat="45.4103943" lon="9.2430283"><ele>98.0</ele><time>2026-04-26T14:38:06.453Z</time></trkpt><trkpt lat="45.4102888" lon="9.2430339"><ele>98.0</ele><time>2026-04-26T14:38:07.457Z</time></trkpt><trkpt lat="45.4101709" lon="9.2429948"><ele>96.66666666666666</ele><time>2026-04-26T14:38:08.482Z</time></trkpt><trkpt lat="45.4100487" lon="9.2429059"><ele>95.33333333333333</ele><time>2026-04-26T14:38:09.448Z</time></trkpt><trkpt lat="45.4099047" lon="9.2427965"><ele>94.0</ele><time>2026-04-26T14:38:10.448Z</time></trkpt><trkpt lat="45.4097527" lon="9.2426762"><ele>93.5</ele><time>2026-04-26T14:38:11.458Z</time></trkpt><trkpt lat="45.4096169" lon="9.2425632"><ele>93.0</ele><time>2026-04-26T14:38:12.458Z</time></trkpt><trkpt lat="45.4094882" lon="9.2424561"><ele>92.5</ele><time>2026-04-26T14:38:13.455Z</time></trkpt><trkpt lat="45.4093695" lon="9.2423587"><ele>92.0</ele><time>2026-04-26T14:38:14.447Z</time></trkpt><trkpt lat="45.4092615" lon="9.2422667"><ele>93.75</ele><time>2026-04-26T14:38:15.449Z</time></trkpt><trkpt lat="45.4091658" lon="9.2421614"><ele>95.5</ele><time>2026-04-26T14:38:16.455Z</time></trkpt><trkpt lat="45.4090949" lon="9.242033"><ele>97.25</ele><time>2026-04-26T14:38:17.457Z</time></trkpt><trkpt lat="45.4090401" lon="9.2418643"><ele>99.0</ele><time>2026-04-26T14:38:18.444Z</time></trkpt><trkpt lat="45.4089897" lon="9.2416894"><ele>99.0</ele><time>2026-04-26T14:38:19.458Z</time></trkpt><trkpt lat="45.4089384" lon="9.2415305"><ele>99.0</ele><time>2026-04-26T14:38:20.459Z</time></trkpt><trkpt lat="45.4088871" lon="9.2413662"><ele>99.0</ele><time>2026-04-26T14:38:21.455Z</time></trkpt><trkpt lat="45.408833" lon="9.2411903"><ele>99.0</ele><time>2026-04-26T14:38:22.445Z</time></trkpt><trkpt lat="45.4087793" lon="9.2410325"><ele>100.2</ele><time>2026-04-26T14:38:23.446Z</time></trkpt><trkpt lat="45.4087249" lon="9.2408912"><ele>101.4</ele><time>2026-04-26T14:38:24.459Z</time></trkpt><trkpt lat="45.4086644" lon="9.2407691"><ele>102.6</ele><time>2026-04-26T14:38:25.457Z</time></trkpt><trkpt lat="45.4085816" lon="9.2406649"><ele>103.8</ele><time>2026-04-26T14:38:26.457Z</time></trkpt><trkpt lat="45.4084928" lon="9.2405711"><ele>105.0</ele><time>2026-04-26T14:38:27.457Z</time></trkpt><trkpt lat="45.4084101" lon="9.2404853"><ele>105.0</ele><time>2026-04-26T14:38:28.459Z</time></trkpt><trkpt lat="45.4083463" lon="9.2403948"><ele>105.0</ele><time>2026-04-26T14:38:29.458Z</time></trkpt><trkpt lat="45.4082875" lon="9.2402902"><ele>105.0</ele><time>2026-04-26T14:38:30.444Z</time></trkpt><trkpt lat="45.4082481" lon="9.2401311"><ele>105.0</ele><time>2026-04-26T14:38:31.458Z</time></trkpt><trkpt lat="45.4081974" lon="9.2399644"><ele>105.0</ele><time>2026-04-26T14:38:32.446Z</time></trkpt><trkpt lat="45.4081394" lon="9.2397789"><ele>105.5</ele><time>2026-04-26T14:38:33.448Z</time></trkpt><trkpt lat="45.4080873" lon="9.2395937"><ele>106.0</ele><time>2026-04-26T14:38:34.446Z</time></trkpt><trkpt lat="45.4080357" lon="9.2394268"><ele>106.5</ele><time>2026-04-26T14:38:35.45Z</time></trkpt><trkpt lat="45.4079885" lon="9.2392616"><ele>107.0</ele><time>2026-04-26T14:38:36.454Z</time></trkpt><trkpt lat="45.4079562" lon="9.2390769"><ele>106.25</ele><time>2026-04-26T14:38:37.449Z</time></trkpt><trkpt lat="45.4079504" lon="9.2388779"><ele>105.5</ele><time>2026-04-26T14:38:38.447Z</time></trkpt><trkpt lat="45.407968" lon="9.238659"><ele>104.75</ele><time>2026-04-26T14:38:39.457Z</time></trkpt><trkpt lat="45.4079896" lon="9.2384555"><ele>104.0</ele><time>2026-04-26T14:38:40.447Z</time></trkpt><trkpt lat="45.4080122" lon="9.2382618"><ele>103.4</ele><time>2026-04-26T14:38:41.458Z</time></trkpt><trkpt lat="45.4080318" lon="9.2380823"><ele>102.80000000000001</ele><time>2026-04-26T14:38:42.447Z</time></trkpt><trkpt lat="45.4080465" lon="9.2379279"><ele>102.19999999999999</ele><time>2026-04-26T14:38:43.457Z</time></trkpt><trkpt lat="45.4080517" lon="9.2378003"><ele>101.6</ele><time>2026-04-26T14:38:44.459Z</time></trkpt><trkpt lat="45.4080289" lon="9.2376865"><ele>101.0</ele><time>2026-04-26T14:38:45.453Z</time></trkpt><trkpt lat="45.4079753" lon="9.2375908"><ele>101.0</ele><time>2026-04-26T14:38:46.449Z</time></trkpt><trkpt lat="45.4079163" lon="9.2375254"><ele>101.0</ele><time>2026-04-26T14:38:47.46Z</time></trkpt><trkpt lat="45.4078583" lon="9.2374732"><ele>101.0</ele><time>2026-04-26T14:38:48.449Z</time></trkpt><trkpt lat="45.4077524" lon="9.2374053"><ele>101.0</ele><time>2026-04-26T14:38:50.456Z</time></trkpt><trkpt lat="45.4076539" lon="9.2373916"><ele>101.0</ele><time>2026-04-26T14:38:52.455Z</time></trkpt><trkpt lat="45.4075642" lon="9.2374494"><ele>101.0</ele><time>2026-04-26T14:38:54.448Z</time></trkpt><trkpt lat="45.4075202" lon="9.2375227"><ele>101.0</ele><time>2026-04-26T14:38:56.457Z</time></trkpt><trkpt lat="45.4075235" lon="9.237704"><ele>101.0</ele><time>2026-04-26T14:38:58.456Z</time></trkpt><trkpt lat="45.4075422" lon="9.2378337"><ele>101.0</ele><time>2026-04-26T14:38:59.451Z</time></trkpt><trkpt lat="45.4075732" lon="9.2379846"><ele>101.0</ele><time>2026-04-26T14:39:00.456Z</time></trkpt><trkpt lat="45.407603" lon="9.2381473"><ele>101.25</ele><time>2026-04-26T14:39:01.452Z</time></trkpt><trkpt lat="45.4076275" lon="9.2383307"><ele>101.5</ele><time>2026-04-26T14:39:02.457Z</time></trkpt><trkpt lat="45.4076451" lon="9.2385213"><ele>101.75</ele><time>2026-04-26T14:39:03.451Z</time></trkpt><trkpt lat="45.407651" lon="9.2387221"><ele>102.0</ele><time>2026-04-26T14:39:04.455Z</time></trkpt><trkpt lat="45.4076482" lon="9.2389339"><ele>101.0</ele><time>2026-04-26T14:39:05.452Z</time></trkpt><trkpt lat="45.4076042" lon="9.239156"><ele>100.0</ele><time>2026-04-26T14:39:06.455Z</time></trkpt><trkpt lat="45.4075485" lon="9.2393848"><ele>99.0</ele><time>2026-04-26T14:39:07.452Z</time></trkpt><trkpt lat="45.4074598" lon="9.2396249"><ele>98.0</ele><time>2026-04-26T14:39:08.454Z</time></trkpt><trkpt lat="45.4073522" lon="9.2398718"><ele>97.0</ele><time>2026-04-26T14:39:09.451Z</time></trkpt><trkpt lat="45.4072431" lon="9.2401095"><ele>96.0</ele><time>2026-04-26T14:39:10.454Z</time></trkpt><trkpt lat="45.4071372" lon="9.2403336"><ele>96.0</ele><time>2026-04-26T14:39:11.452Z</time></trkpt><trkpt lat="45.4070332" lon="9.2405513"><ele>96.0</ele><time>2026-04-26T14:39:12.454Z</time></trkpt><trkpt lat="45.4069312" lon="9.2407605"><ele>96.0</ele><time>2026-04-26T14:39:13.449Z</time></trkpt><trkpt lat="45.4068349" lon="9.2409644"><ele>97.0</ele><time>2026-04-26T14:39:14.45Z</time></trkpt><trkpt lat="45.406744" lon="9.2411669"><ele>98.0</ele><time>2026-04-26T14:39:15.45Z</time></trkpt><trkpt lat="45.4066683" lon="9.2413647"><ele>99.0</ele><time>2026-04-26T14:39:16.458Z</time></trkpt><trkpt lat="45.4066039" lon="9.2415608"><ele>99.0</ele><time>2026-04-26T14:39:17.45Z</time></trkpt><trkpt lat="45.4065518" lon="9.2417629"><ele>99.0</ele><time>2026-04-26T14:39:18.449Z</time></trkpt><trkpt lat="45.4065216" lon="9.2419665"><ele>99.0</ele><time>2026-04-26T14:39:19.451Z</time></trkpt><trkpt lat="45.4065102" lon="9.2421676"><ele>99.0</ele><time>2026-04-26T14:39:20.457Z</time></trkpt><trkpt lat="45.4065129" lon="9.2423594"><ele>99.0</ele><time>2026-04-26T14:39:21.456Z</time></trkpt><trkpt lat="45.4065274" lon="9.2425455"><ele>99.0</ele><time>2026-04-26T14:39:22.456Z</time></trkpt><trkpt lat="45.4065545" lon="9.2427172"><ele>99.0</ele><time>2026-04-26T14:39:23.449Z</time></trkpt><trkpt lat="45.4065902" lon="9.2428811"><ele>99.0</ele><time>2026-04-26T14:39:24.456Z</time></trkpt><trkpt lat="45.4066335" lon="9.2430341"><ele>99.5</ele><time>2026-04-26T14:39:25.451Z</time></trkpt><trkpt lat="45.4066746" lon="9.2431657"><ele>100.0</ele><time>2026-04-26T14:39:26.456Z</time></trkpt><trkpt lat="45.4067096" lon="9.2432708"><ele>100.5</ele><time>2026-04-26T14:39:27.45Z</time></trkpt><trkpt lat="45.4067357" lon="9.2433666"><ele>101.0</ele><time>2026-04-26T14:39:28.458Z</time></trkpt><trkpt lat="45.4067417" lon="9.2434672"><ele>101.5</ele><time>2026-04-26T14:39:29.446Z</time></trkpt><trkpt lat="45.4067275" lon="9.2435798"><ele>102.0</ele><time>2026-04-26T14:39:30.448Z</time></trkpt><trkpt lat="45.4067029" lon="9.2436916"><ele>102.0</ele><time>2026-04-26T14:39:31.445Z</time></trkpt><trkpt lat="45.4066594" lon="9.2437821"><ele>102.0</ele><time>2026-04-26T14:39:32.456Z</time></trkpt><trkpt lat="45.4065965" lon="9.2438457"><ele>102.0</ele><time>2026-04-26T14:39:33.451Z</time></trkpt><trkpt lat="45.4065105" lon="9.2438773"><ele>102.0</ele><time>2026-04-26T14:39:34.457Z</time></trkpt><trkpt lat="45.406403" lon="9.2438974"><ele>102.0</ele><time>2026-04-26T14:39:35.453Z</time></trkpt><trkpt lat="45.4062779" lon="9.2439244"><ele>102.0</ele><time>2026-04-26T14:39:36.453Z</time></trkpt><trkpt lat="45.4061599" lon="9.2439472"><ele>102.0</ele><time>2026-04-26T14:39:37.444Z</time></trkpt><trkpt lat="45.4060505" lon="9.2439738"><ele>102.0</ele><time>2026-04-26T14:39:38.447Z</time></trkpt><trkpt lat="45.405959" lon="9.2440207"><ele>102.0</ele><time>2026-04-26T14:39:39.449Z</time></trkpt><trkpt lat="45.4058854" lon="9.2441013"><ele>102.0</ele><time>2026-04-26T14:39:40.449Z</time></trkpt><trkpt lat="45.405814" lon="9.2442185"><ele>102.0</ele><time>2026-04-26T14:39:41.452Z</time></trkpt><trkpt lat="45.4057274" lon="9.2443543"><ele>102.0</ele><time>2026-04-26T14:39:42.444Z</time></trkpt><trkpt lat="45.4056108" lon="9.2445069"><ele>102.0</ele><time>2026-04-26T14:39:43.443Z</time></trkpt><trkpt lat="45.405489" lon="9.2446662"><ele>101.66666666666666</ele><time>2026-04-26T14:39:44.448Z</time></trkpt><trkpt lat="45.4053662" lon="9.2448257"><ele>101.33333333333333</ele><time>2026-04-26T14:39:45.453Z</time></trkpt><trkpt lat="45.4052441" lon="9.2449821"><ele>101.0</ele><time>2026-04-26T14:39:46.455Z</time></trkpt><trkpt lat="45.4051229" lon="9.2451335"><ele>101.0</ele><time>2026-04-26T14:39:47.451Z</time></trkpt><trkpt lat="45.4050071" lon="9.2452761"><ele>101.0</ele><time>2026-04-26T14:39:48.456Z</time></trkpt><trkpt lat="45.404899" lon="9.2454145"><ele>101.0</ele><time>2026-04-26T14:39:49.451Z</time></trkpt><trkpt lat="45.4047948" lon="9.2455406"><ele>101.0</ele><time>2026-04-26T14:39:50.455Z</time></trkpt><trkpt lat="45.4046974" lon="9.2456664"><ele>101.25</ele><time>2026-04-26T14:39:51.45Z</time></trkpt><trkpt lat="45.4046047" lon="9.2457852"><ele>101.5</ele><time>2026-04-26T14:39:52.456Z</time></trkpt><trkpt lat="45.404509" lon="9.2459083"><ele>101.75</ele><time>2026-04-26T14:39:53.454Z</time></trkpt><trkpt lat="45.4044135" lon="9.2460283"><ele>102.0</ele><time>2026-04-26T14:39:54.457Z</time></trkpt><trkpt lat="45.4043265" lon="9.2461552"><ele>102.0</ele><time>2026-04-26T14:39:55.451Z</time></trkpt><trkpt lat="45.4042398" lon="9.2462785"><ele>102.0</ele><time>2026-04-26T14:39:56.451Z</time></trkpt><trkpt lat="45.4041561" lon="9.2464132"><ele>102.0</ele><time>2026-04-26T14:39:57.457Z</time></trkpt><trkpt lat="45.4040768" lon="9.2465447"><ele>102.0</ele><time>2026-04-26T14:39:58.459Z</time></trkpt><trkpt lat="45.4040076" lon="9.2466798"><ele>102.0</ele><time>2026-04-26T14:39:59.449Z</time></trkpt><trkpt lat="45.4039392" lon="9.2468064"><ele>102.0</ele><time>2026-04-26T14:40:00.446Z</time></trkpt><trkpt lat="45.4038745" lon="9.2469333"><ele>102.0</ele><time>2026-04-26T14:40:01.446Z</time></trkpt><trkpt lat="45.4038067" lon="9.2470527"><ele>102.0</ele><time>2026-04-26T14:40:02.458Z</time></trkpt><trkpt lat="45.4037432" lon="9.247163"><ele>102.0</ele><time>2026-04-26T14:40:03.482Z</time></trkpt><trkpt lat="45.4036783" lon="9.2472764"><ele>101.75</ele><time>2026-04-26T14:40:04.459Z</time></trkpt><trkpt lat="45.403612" lon="9.2473987"><ele>101.5</ele><time>2026-04-26T14:40:05.597Z</time></trkpt><trkpt lat="45.4034818" lon="9.2476499"><ele>101.25</ele><time>2026-04-26T14:40:07.448Z</time></trkpt><trkpt lat="45.4034072" lon="9.2477742"><ele>101.0</ele><time>2026-04-26T14:40:08.449Z</time></trkpt><trkpt lat="45.4033397" lon="9.2479067"><ele>101.0</ele><time>2026-04-26T14:40:09.449Z</time></trkpt><trkpt lat="45.4032934" lon="9.2480474"><ele>101.0</ele><time>2026-04-26T14:40:10.456Z</time></trkpt><trkpt lat="45.4032382" lon="9.2481794"><ele>101.0</ele><time>2026-04-26T14:40:11.458Z</time></trkpt><trkpt lat="45.4031913" lon="9.2483146"><ele>101.0</ele><time>2026-04-26T14:40:12.445Z</time></trkpt><trkpt lat="45.4031392" lon="9.2484492"><ele>101.0</ele><time>2026-04-26T14:40:13.451Z</time></trkpt><trkpt lat="45.4030854" lon="9.248583"><ele>100.8</ele><time>2026-04-26T14:40:14.449Z</time></trkpt><trkpt lat="45.403023" lon="9.2487179"><ele>100.6</ele><time>2026-04-26T14:40:15.45Z</time></trkpt><trkpt lat="45.4029616" lon="9.2488384"><ele>100.4</ele><time>2026-04-26T14:40:16.447Z</time></trkpt><trkpt lat="45.4028932" lon="9.2489424"><ele>100.2</ele><time>2026-04-26T14:40:17.45Z</time></trkpt><trkpt lat="45.4028177" lon="9.2490371"><ele>100.0</ele><time>2026-04-26T14:40:18.451Z</time></trkpt><trkpt lat="45.402741" lon="9.2491275"><ele>100.0</ele><time>2026-04-26T14:40:19.461Z</time></trkpt><trkpt lat="45.4026641" lon="9.2492101"><ele>100.0</ele><time>2026-04-26T14:40:20.459Z</time></trkpt><trkpt lat="45.4025944" lon="9.2492919"><ele>100.0</ele><time>2026-04-26T14:40:21.455Z</time></trkpt><trkpt lat="45.40252" lon="9.2493769"><ele>100.0</ele><time>2026-04-26T14:40:22.442Z</time></trkpt><trkpt lat="45.4024373" lon="9.2494801"><ele>100.0</ele><time>2026-04-26T14:40:23.456Z</time></trkpt><trkpt lat="45.4023362" lon="9.2495919"><ele>100.0</ele><time>2026-04-26T14:40:24.458Z</time></trkpt><trkpt lat="45.4022292" lon="9.2496946"><ele>100.0</ele><time>2026-04-26T14:40:25.455Z</time></trkpt><trkpt lat="45.4021254" lon="9.2497892"><ele>100.0</ele><time>2026-04-26T14:40:26.46Z</time></trkpt><trkpt lat="45.4020334" lon="9.2498798"><ele>100.0</ele><time>2026-04-26T14:40:27.456Z</time></trkpt><trkpt lat="45.4019464" lon="9.2499665"><ele>100.50000000000001</ele><time>2026-04-26T14:40:28.462Z</time></trkpt><trkpt lat="45.4018679" lon="9.2500475"><ele>101.0</ele><time>2026-04-26T14:40:29.457Z</time></trkpt><trkpt lat="45.4018013" lon="9.2501163"><ele>101.5</ele><time>2026-04-26T14:40:30.45Z</time></trkpt><trkpt lat="45.4017478" lon="9.2501692"><ele>102.0</ele><time>2026-04-26T14:40:31.45Z</time></trkpt><trkpt lat="45.4016722" lon="9.2502482"><ele>102.50000000000001</ele><time>2026-04-26T14:40:33.461Z</time></trkpt><trkpt lat="45.401611" lon="9.250309"><ele>103.0</ele><time>2026-04-26T14:40:37.461Z</time></trkpt><trkpt lat="45.4015541" lon="9.2503753"><ele>103.0</ele><time>2026-04-26T14:40:46.446Z</time></trkpt><trkpt lat="45.4014922" lon="9.2504403"><ele>103.0</ele><time>2026-04-26T14:40:47.447Z</time></trkpt><trkpt lat="45.4014173" lon="9.2505206"><ele>103.0</ele><time>2026-04-26T14:40:48.47Z</time></trkpt><trkpt lat="45.4013184" lon="9.250622"><ele>103.0</ele><time>2026-04-26T14:40:49.46Z</time></trkpt><trkpt lat="45.401212" lon="9.2507332"><ele>103.0</ele><time>2026-04-26T14:40:50.449Z</time></trkpt><trkpt lat="45.4011058" lon="9.2508431"><ele>102.75</ele><time>2026-04-26T14:40:51.457Z</time></trkpt><trkpt lat="45.4009897" lon="9.2509657"><ele>102.5</ele><time>2026-04-26T14:40:52.452Z</time></trkpt><trkpt lat="45.4008695" lon="9.2510895"><ele>102.25</ele><time>2026-04-26T14:40:53.461Z</time></trkpt><trkpt lat="45.4007517" lon="9.251217"><ele>102.0</ele><time>2026-04-26T14:40:54.452Z</time></trkpt><trkpt lat="45.4006297" lon="9.2513415"><ele>102.0</ele><time>2026-04-26T14:40:55.446Z</time></trkpt><trkpt lat="45.4005028" lon="9.2514734"><ele>102.0</ele><time>2026-04-26T14:40:56.459Z</time></trkpt><trkpt lat="45.4003734" lon="9.2516084"><ele>102.0</ele><time>2026-04-26T14:40:57.459Z</time></trkpt><trkpt lat="45.4002427" lon="9.2517377"><ele>102.0</ele><time>2026-04-26T14:40:58.452Z</time></trkpt><trkpt lat="45.4000932" lon="9.2518527"><ele>102.0</ele><time>2026-04-26T14:40:59.46Z</time></trkpt><trkpt lat="45.3999218" lon="9.2519636"><ele>102.0</ele><time>2026-04-26T14:41:00.461Z</time></trkpt><trkpt lat="45.3997415" lon="9.2520734"><ele>102.0</ele><time>2026-04-26T14:41:01.449Z</time></trkpt><trkpt lat="45.3995467" lon="9.2521887"><ele>102.0</ele><time>2026-04-26T14:41:02.454Z</time></trkpt><trkpt lat="45.3993592" lon="9.2522976"><ele>102.0</ele><time>2026-04-26T14:41:03.458Z</time></trkpt><trkpt lat="45.3991732" lon="9.2524029"><ele>102.0</ele><time>2026-04-26T14:41:04.46Z</time></trkpt><trkpt lat="45.3989924" lon="9.2525092"><ele>102.0</ele><time>2026-04-26T14:41:05.459Z</time></trkpt><trkpt lat="45.3988102" lon="9.2526172"><ele>102.0</ele><time>2026-04-26T14:41:06.453Z</time></trkpt><trkpt lat="45.3986292" lon="9.2527242"><ele>101.33333333333334</ele><time>2026-04-26T14:41:07.459Z</time></trkpt><trkpt lat="45.3984557" lon="9.2528249"><ele>100.66666666666667</ele><time>2026-04-26T14:41:08.461Z</time></trkpt><trkpt lat="45.3982835" lon="9.2529252"><ele>100.0</ele><time>2026-04-26T14:41:09.459Z</time></trkpt><trkpt lat="45.3981111" lon="9.2530242"><ele>100.33333333333334</ele><time>2026-04-26T14:41:10.453Z</time></trkpt><trkpt lat="45.397941" lon="9.2531231"><ele>100.66666666666666</ele><time>2026-04-26T14:41:11.462Z</time></trkpt><trkpt lat="45.3977691" lon="9.2532346"><ele>101.0</ele><time>2026-04-26T14:41:12.456Z</time></trkpt><trkpt lat="45.3975929" lon="9.2533535"><ele>101.0</ele><time>2026-04-26T14:41:13.45Z</time></trkpt><trkpt lat="45.3974187" lon="9.253469"><ele>101.0</ele><time>2026-04-26T14:41:14.461Z</time></trkpt><trkpt lat="45.3972495" lon="9.2535832"><ele>101.0</ele><time>2026-04-26T14:41:15.458Z</time></trkpt><trkpt lat="45.3970737" lon="9.2537078"><ele>100.66666666666666</ele><time>2026-04-26T14:41:16.46Z</time></trkpt><trkpt lat="45.3968922" lon="9.2538379"><ele>100.33333333333334</ele><time>2026-04-26T14:41:17.451Z</time></trkpt><trkpt lat="45.3967063" lon="9.2539631"><ele>100.0</ele><time>2026-04-26T14:41:18.446Z</time></trkpt><trkpt lat="45.3965196" lon="9.2540955"><ele>99.66666666666667</ele><time>2026-04-26T14:41:19.45Z</time></trkpt><trkpt lat="45.3963358" lon="9.254223"><ele>99.33333333333334</ele><time>2026-04-26T14:41:20.45Z</time></trkpt><trkpt lat="45.3961611" lon="9.2543407"><ele>99.0</ele><time>2026-04-26T14:41:21.448Z</time></trkpt><trkpt lat="45.3959959" lon="9.2544557"><ele>99.0</ele><time>2026-04-26T14:41:22.46Z</time></trkpt><trkpt lat="45.3958361" lon="9.2545634"><ele>99.0</ele><time>2026-04-26T14:41:23.462Z</time></trkpt><trkpt lat="45.3956867" lon="9.2546635"><ele>99.0</ele><time>2026-04-26T14:41:24.46Z</time></trkpt><trkpt lat="45.3955405" lon="9.2547602"><ele>99.66666666666666</ele><time>2026-04-26T14:41:25.458Z</time></trkpt><trkpt lat="45.3953978" lon="9.2548608"><ele>100.33333333333333</ele><time>2026-04-26T14:41:26.454Z</time></trkpt><trkpt lat="45.395251" lon="9.2549588"><ele>101.0</ele><time>2026-04-26T14:41:27.449Z</time></trkpt><trkpt lat="45.3951069" lon="9.2550589"><ele>101.0</ele><time>2026-04-26T14:41:28.441Z</time></trkpt><trkpt lat="45.3949586" lon="9.2551637"><ele>101.0</ele><time>2026-04-26T14:41:29.45Z</time></trkpt><trkpt lat="45.3948087" lon="9.2552732"><ele>101.0</ele><time>2026-04-26T14:41:30.447Z</time></trkpt><trkpt lat="45.3946645" lon="9.2553975"><ele>101.0</ele><time>2026-04-26T14:41:31.461Z</time></trkpt><trkpt lat="45.3945247" lon="9.2555331"><ele>101.0</ele><time>2026-04-26T14:41:32.446Z</time></trkpt><trkpt lat="45.3943867" lon="9.2556677"><ele>101.0</ele><time>2026-04-26T14:41:33.455Z</time></trkpt><trkpt lat="45.3942497" lon="9.2557962"><ele>101.0</ele><time>2026-04-26T14:41:34.448Z</time></trkpt><trkpt lat="45.3941189" lon="9.2559201"><ele>101.0</ele><time>2026-04-26T14:41:35.447Z</time></trkpt><trkpt lat="45.3939919" lon="9.2560379"><ele>101.0</ele><time>2026-04-26T14:41:36.46Z</time></trkpt><trkpt lat="45.3938685" lon="9.2561491"><ele>100.75</ele><time>2026-04-26T14:41:37.452Z</time></trkpt><trkpt lat="45.3937448" lon="9.2562479"><ele>100.5</ele><time>2026-04-26T14:41:38.461Z</time></trkpt><trkpt lat="45.3936204" lon="9.2563425"><ele>100.25</ele><time>2026-04-26T14:41:39.451Z</time></trkpt><trkpt lat="45.3934904" lon="9.2564256"><ele>100.0</ele><time>2026-04-26T14:41:40.454Z</time></trkpt><trkpt lat="45.393359" lon="9.256502"><ele>100.0</ele><time>2026-04-26T14:41:41.444Z</time></trkpt><trkpt lat="45.3932245" lon="9.2565811"><ele>100.0</ele><time>2026-04-26T14:41:42.458Z</time></trkpt><trkpt lat="45.3930913" lon="9.2566585"><ele>100.0</ele><time>2026-04-26T14:41:43.447Z</time></trkpt><trkpt lat="45.3929581" lon="9.2567359"><ele>100.0</ele><time>2026-04-26T14:41:44.446Z</time></trkpt><trkpt lat="45.3928313" lon="9.2568095"><ele>100.0</ele><time>2026-04-26T14:41:45.462Z</time></trkpt><trkpt lat="45.3927116" lon="9.2568814"><ele>100.0</ele><time>2026-04-26T14:41:46.458Z</time></trkpt><trkpt lat="45.3926017" lon="9.2569506"><ele>100.0</ele><time>2026-04-26T14:41:47.461Z</time></trkpt><trkpt lat="45.3924964" lon="9.2570173"><ele>100.0</ele><time>2026-04-26T14:41:48.452Z</time></trkpt><trkpt lat="45.3923971" lon="9.2570759"><ele>100.00000000000001</ele><time>2026-04-26T14:41:49.46Z</time></trkpt><trkpt lat="45.392304" lon="9.2571284"><ele>100.0</ele><time>2026-04-26T14:41:50.46Z</time></trkpt><trkpt lat="45.3922152" lon="9.2571814"><ele>100.0</ele><time>2026-04-26T14:41:51.443Z</time></trkpt><trkpt lat="45.3921311" lon="9.2572268"><ele>100.0</ele><time>2026-04-26T14:41:52.448Z</time></trkpt><trkpt lat="45.3920546" lon="9.2572724"><ele>100.00000000000001</ele><time>2026-04-26T14:41:53.459Z</time></trkpt><trkpt lat="45.3919885" lon="9.2573035"><ele>100.0</ele><time>2026-04-26T14:41:54.457Z</time></trkpt><trkpt lat="45.3918921" lon="9.2573514"><ele>99.50000000000001</ele><time>2026-04-26T14:41:56.459Z</time></trkpt><trkpt lat="45.3918127" lon="9.2573756"><ele>99.0</ele><time>2026-04-26T14:41:59.447Z</time></trkpt><trkpt lat="45.3917226" lon="9.2573985"><ele>98.5</ele><time>2026-04-26T14:42:02.451Z</time></trkpt><trkpt lat="45.3916594" lon="9.2574123"><ele>98.0</ele><time>2026-04-26T14:42:03.46Z</time></trkpt><trkpt lat="45.3915926" lon="9.2574552"><ele>97.50000000000001</ele><time>2026-04-26T14:42:04.461Z</time></trkpt><trkpt lat="45.3915213" lon="9.2575296"><ele>97.0</ele><time>2026-04-26T14:42:05.463Z</time></trkpt><trkpt lat="45.3914389" lon="9.2576197"><ele>97.0</ele><time>2026-04-26T14:42:06.458Z</time></trkpt><trkpt lat="45.3913561" lon="9.2576797"><ele>97.0</ele><time>2026-04-26T14:42:07.446Z</time></trkpt><trkpt lat="45.3912578" lon="9.2577278"><ele>97.0</ele><time>2026-04-26T14:42:08.452Z</time></trkpt><trkpt lat="45.3911533" lon="9.2577852"><ele>97.0</ele><time>2026-04-26T14:42:09.462Z</time></trkpt><trkpt lat="45.3910617" lon="9.2578451"><ele>97.0</ele><time>2026-04-26T14:42:10.461Z</time></trkpt><trkpt lat="45.390981" lon="9.2579014"><ele>97.6</ele><time>2026-04-26T14:42:11.443Z</time></trkpt><trkpt lat="45.3909062" lon="9.2579517"><ele>98.19999999999999</ele><time>2026-04-26T14:42:12.449Z</time></trkpt><trkpt lat="45.3908329" lon="9.2580137"><ele>98.8</ele><time>2026-04-26T14:42:13.46Z</time></trkpt><trkpt lat="45.390746" lon="9.2580801"><ele>99.4</ele><time>2026-04-26T14:42:14.451Z</time></trkpt><trkpt lat="45.3906399" lon="9.2581341"><ele>100.0</ele><time>2026-04-26T14:42:15.443Z</time></trkpt><trkpt lat="45.3905198" lon="9.2581697"><ele>100.0</ele><time>2026-04-26T14:42:16.45Z</time></trkpt><trkpt lat="45.390396" lon="9.2581984"><ele>100.0</ele><time>2026-04-26T14:42:17.462Z</time></trkpt><trkpt lat="45.3902712" lon="9.2582291"><ele>100.0</ele><time>2026-04-26T14:42:18.459Z</time></trkpt><trkpt lat="45.3901593" lon="9.258257"><ele>100.0</ele><time>2026-04-26T14:42:19.447Z</time></trkpt><trkpt lat="45.3900478" lon="9.2582793"><ele>100.0</ele><time>2026-04-26T14:42:20.451Z</time></trkpt><trkpt lat="45.3899446" lon="9.2583021"><ele>100.0</ele><time>2026-04-26T14:42:21.451Z</time></trkpt><trkpt lat="45.3898489" lon="9.258327"><ele>100.0</ele><time>2026-04-26T14:42:22.459Z</time></trkpt><trkpt lat="45.3897517" lon="9.2583558"><ele>100.0</ele><time>2026-04-26T14:42:23.443Z</time></trkpt><trkpt lat="45.3896501" lon="9.2583894"><ele>100.0</ele><time>2026-04-26T14:42:24.446Z</time></trkpt><trkpt lat="45.3895468" lon="9.2584384"><ele>99.5</ele><time>2026-04-26T14:42:25.461Z</time></trkpt><trkpt lat="45.3894394" lon="9.2584941"><ele>99.0</ele><time>2026-04-26T14:42:26.459Z</time></trkpt><trkpt lat="45.3893238" lon="9.2585599"><ele>98.5</ele><time>2026-04-26T14:42:27.452Z</time></trkpt><trkpt lat="45.3892092" lon="9.258636"><ele>98.0</ele><time>2026-04-26T14:42:28.459Z</time></trkpt><trkpt lat="45.389097" lon="9.2587167"><ele>98.0</ele><time>2026-04-26T14:42:29.459Z</time></trkpt><trkpt lat="45.3889897" lon="9.2587975"><ele>98.0</ele><time>2026-04-26T14:42:30.451Z</time></trkpt><trkpt lat="45.388888" lon="9.2588837"><ele>98.0</ele><time>2026-04-26T14:42:31.445Z</time></trkpt><trkpt lat="45.3887877" lon="9.2589654"><ele>98.0</ele><time>2026-04-26T14:42:32.461Z</time></trkpt><trkpt lat="45.3886883" lon="9.2590482"><ele>97.75</ele><time>2026-04-26T14:42:33.447Z</time></trkpt><trkpt lat="45.3885875" lon="9.2591293"><ele>97.5</ele><time>2026-04-26T14:42:34.46Z</time></trkpt><trkpt lat="45.3884883" lon="9.2592101"><ele>97.25</ele><time>2026-04-26T14:42:35.463Z</time></trkpt><trkpt lat="45.3883869" lon="9.2592932"><ele>97.0</ele><time>2026-04-26T14:42:36.458Z</time></trkpt><trkpt lat="45.3882864" lon="9.2593751"><ele>97.0</ele><time>2026-04-26T14:42:37.459Z</time></trkpt><trkpt lat="45.3881878" lon="9.2594624"><ele>97.0</ele><time>2026-04-26T14:42:38.458Z</time></trkpt><trkpt lat="45.3880913" lon="9.2595506"><ele>97.0</ele><time>2026-04-26T14:42:39.444Z</time></trkpt><trkpt lat="45.3879984" lon="9.2596522"><ele>97.0</ele><time>2026-04-26T14:42:40.451Z</time></trkpt><trkpt lat="45.3879182" lon="9.259766"><ele>97.39999999999999</ele><time>2026-04-26T14:42:41.446Z</time></trkpt><trkpt lat="45.3878498" lon="9.2598877"><ele>97.8</ele><time>2026-04-26T14:42:42.466Z</time></trkpt><trkpt lat="45.3877967" lon="9.2600144"><ele>98.2</ele><time>2026-04-26T14:42:43.463Z</time></trkpt><trkpt lat="45.3877532" lon="9.260134"><ele>98.6</ele><time>2026-04-26T14:42:44.461Z</time></trkpt><trkpt lat="45.3877147" lon="9.260254"><ele>99.0</ele><time>2026-04-26T14:42:45.447Z</time></trkpt><trkpt lat="45.3876858" lon="9.2603634"><ele>99.0</ele><time>2026-04-26T14:42:46.452Z</time></trkpt><trkpt lat="45.3876583" lon="9.2604709"><ele>99.0</ele><time>2026-04-26T14:42:47.443Z</time></trkpt><trkpt lat="45.3876314" lon="9.2605693"><ele>99.0</ele><time>2026-04-26T14:42:48.45Z</time></trkpt><trkpt lat="45.387598" lon="9.2606951"><ele>99.0</ele><time>2026-04-26T14:42:50.462Z</time></trkpt><trkpt lat="45.3875574" lon="9.2607945"><ele>99.0</ele><time>2026-04-26T14:42:52.46Z</time></trkpt><trkpt lat="45.3874849" lon="9.2609082"><ele>99.0</ele><time>2026-04-26T14:42:54.46Z</time></trkpt><trkpt lat="45.3874313" lon="9.2610444"><ele>99.0</ele><time>2026-04-26T14:42:56.461Z</time></trkpt><trkpt lat="45.3873942" lon="9.261129"><ele>99.0</ele><time>2026-04-26T14:42:57.449Z</time></trkpt><trkpt lat="45.3873436" lon="9.2612157"><ele>99.0</ele><time>2026-04-26T14:42:58.446Z</time></trkpt><trkpt lat="45.3872904" lon="9.2613098"><ele>99.0</ele><time>2026-04-26T14:42:59.46Z</time></trkpt><trkpt lat="45.3872421" lon="9.2614272"><ele>99.0</ele><time>2026-04-26T14:43:00.451Z</time></trkpt><trkpt lat="45.3871747" lon="9.2615842"><ele>99.0</ele><time>2026-04-26T14:43:01.454Z</time></trkpt><trkpt lat="45.3870989" lon="9.261756"><ele>99.0</ele><time>2026-04-26T14:43:02.446Z</time></trkpt><trkpt lat="45.3870159" lon="9.2619427"><ele>99.0</ele><time>2026-04-26T14:43:03.45Z</time></trkpt><trkpt lat="45.3869387" lon="9.2621164"><ele>99.0</ele><time>2026-04-26T14:43:04.46Z</time></trkpt><trkpt lat="45.3868707" lon="9.2622795"><ele>99.0</ele><time>2026-04-26T14:43:05.459Z</time></trkpt><trkpt lat="45.3868034" lon="9.2624399"><ele>99.0</ele><time>2026-04-26T14:43:06.459Z</time></trkpt><trkpt lat="45.3867228" lon="9.2625937"><ele>99.0</ele><time>2026-04-26T14:43:07.461Z</time></trkpt><trkpt lat="45.386621" lon="9.2627285"><ele>99.0</ele><time>2026-04-26T14:43:08.459Z</time></trkpt><trkpt lat="45.3864925" lon="9.2628524"><ele>98.66666666666666</ele><time>2026-04-26T14:43:09.459Z</time></trkpt><trkpt lat="45.3863409" lon="9.2629888"><ele>98.33333333333333</ele><time>2026-04-26T14:43:10.448Z</time></trkpt><trkpt lat="45.3861883" lon="9.2631197"><ele>98.0</ele><time>2026-04-26T14:43:11.449Z</time></trkpt><trkpt lat="45.3860398" lon="9.2632342"><ele>98.0</ele><time>2026-04-26T14:43:12.45Z</time></trkpt><trkpt lat="45.3858945" lon="9.2633388"><ele>98.0</ele><time>2026-04-26T14:43:13.459Z</time></trkpt><trkpt lat="45.3857591" lon="9.2634406"><ele>98.0</ele><time>2026-04-26T14:43:14.453Z</time></trkpt><trkpt lat="45.385631" lon="9.2635314"><ele>97.75</ele><time>2026-04-26T14:43:15.461Z</time></trkpt><trkpt lat="45.3855115" lon="9.2636224"><ele>97.5</ele><time>2026-04-26T14:43:16.459Z</time></trkpt><trkpt lat="45.3853917" lon="9.2637044"><ele>97.25</ele><time>2026-04-26T14:43:17.451Z</time></trkpt><trkpt lat="45.385265" lon="9.2637827"><ele>97.0</ele><time>2026-04-26T14:43:18.442Z</time></trkpt><trkpt lat="45.3851388" lon="9.2638523"><ele>97.0</ele><time>2026-04-26T14:43:19.462Z</time></trkpt><trkpt lat="45.3850194" lon="9.2639142"><ele>97.0</ele><time>2026-04-26T14:43:20.454Z</time></trkpt><trkpt lat="45.3849055" lon="9.26397"><ele>97.0</ele><time>2026-04-26T14:43:21.459Z</time></trkpt><trkpt lat="45.3848024" lon="9.2640161"><ele>97.0</ele><time>2026-04-26T14:43:22.449Z</time></trkpt><trkpt lat="45.3847043" lon="9.2640648"><ele>97.0</ele><time>2026-04-26T14:43:23.46Z</time></trkpt><trkpt lat="45.3846084" lon="9.2641102"><ele>97.0</ele><time>2026-04-26T14:43:24.46Z</time></trkpt><trkpt lat="45.3845129" lon="9.2641602"><ele>97.0</ele><time>2026-04-26T14:43:25.457Z</time></trkpt><trkpt lat="45.3844114" lon="9.2642184"><ele>97.0</ele><time>2026-04-26T14:43:26.44Z</time></trkpt><trkpt lat="45.3843073" lon="9.2642722"><ele>97.0</ele><time>2026-04-26T14:43:27.448Z</time></trkpt><trkpt lat="45.3842032" lon="9.2643213"><ele>97.0</ele><time>2026-04-26T14:43:28.461Z</time></trkpt><trkpt lat="45.3841002" lon="9.2643774"><ele>97.0</ele><time>2026-04-26T14:43:29.457Z</time></trkpt><trkpt lat="45.3840019" lon="9.2644265"><ele>97.0</ele><time>2026-04-26T14:43:30.462Z</time></trkpt><trkpt lat="45.3839054" lon="9.2644767"><ele>97.0</ele><time>2026-04-26T14:43:31.463Z</time></trkpt><trkpt lat="45.3838175" lon="9.2645218"><ele>97.0</ele><time>2026-04-26T14:43:32.452Z</time></trkpt><trkpt lat="45.3837303" lon="9.2645679"><ele>97.33333333333334</ele><time>2026-04-26T14:43:33.449Z</time></trkpt><trkpt lat="45.3836455" lon="9.2646132"><ele>97.66666666666667</ele><time>2026-04-26T14:43:34.452Z</time></trkpt><trkpt lat="45.3835674" lon="9.2646501"><ele>98.0</ele><time>2026-04-26T14:43:35.445Z</time></trkpt><trkpt lat="45.383503" lon="9.264679"><ele>98.33333333333334</ele><time>2026-04-26T14:43:36.452Z</time></trkpt><trkpt lat="45.3834043" lon="9.2646936"><ele>98.66666666666667</ele><time>2026-04-26T14:43:38.462Z</time></trkpt><trkpt lat="45.3833402" lon="9.2646846"><ele>99.0</ele><time>2026-04-26T14:43:40.461Z</time></trkpt><trkpt lat="45.3832723" lon="9.2646275"><ele>99.0</ele><time>2026-04-26T14:43:43.453Z</time></trkpt><trkpt lat="45.3832423" lon="9.2645461"><ele>99.0</ele><time>2026-04-26T14:43:44.447Z</time></trkpt><trkpt lat="45.3832305" lon="9.2644406"><ele>99.0</ele><time>2026-04-26T14:43:45.449Z</time></trkpt><trkpt lat="45.3832354" lon="9.2643032"><ele>99.0</ele><time>2026-04-26T14:43:46.451Z</time></trkpt><trkpt lat="45.3832473" lon="9.2641527"><ele>99.0</ele><time>2026-04-26T14:43:47.459Z</time></trkpt><trkpt lat="45.3832574" lon="9.2640005"><ele>99.0</ele><time>2026-04-26T14:43:48.46Z</time></trkpt><trkpt lat="45.3832651" lon="9.2638651"><ele>99.0</ele><time>2026-04-26T14:43:49.459Z</time></trkpt><trkpt lat="45.3832617" lon="9.2637161"><ele>99.0</ele><time>2026-04-26T14:43:50.454Z</time></trkpt><trkpt lat="45.383247" lon="9.2635606"><ele>99.0</ele><time>2026-04-26T14:43:51.449Z</time></trkpt><trkpt lat="45.3832151" lon="9.2633897"><ele>99.0</ele><time>2026-04-26T14:43:52.45Z</time></trkpt><trkpt lat="45.3831635" lon="9.26323"><ele>98.75</ele><time>2026-04-26T14:43:53.449Z</time></trkpt><trkpt lat="45.3830936" lon="9.2630783"><ele>98.5</ele><time>2026-04-26T14:43:54.457Z</time></trkpt><trkpt lat="45.3830093" lon="9.2629509"><ele>98.25</ele><time>2026-04-26T14:43:55.458Z</time></trkpt><trkpt lat="45.3829106" lon="9.2628448"><ele>98.0</ele><time>2026-04-26T14:43:56.463Z</time></trkpt><trkpt lat="45.3827956" lon="9.262766"><ele>98.0</ele><time>2026-04-26T14:43:57.459Z</time></trkpt><trkpt lat="45.3826726" lon="9.2627098"><ele>98.0</ele><time>2026-04-26T14:43:58.455Z</time></trkpt><trkpt lat="45.382551" lon="9.2626703"><ele>98.0</ele><time>2026-04-26T14:43:59.449Z</time></trkpt><trkpt lat="45.3824299" lon="9.2626334"><ele>98.0</ele><time>2026-04-26T14:44:00.46Z</time></trkpt><trkpt lat="45.3823029" lon="9.2625982"><ele>97.75</ele><time>2026-04-26T14:44:01.453Z</time></trkpt><trkpt lat="45.3821676" lon="9.2625673"><ele>97.5</ele><time>2026-04-26T14:44:02.459Z</time></trkpt><trkpt lat="45.3820266" lon="9.2625314"><ele>97.25</ele><time>2026-04-26T14:44:03.454Z</time></trkpt><trkpt lat="45.3818835" lon="9.2624981"><ele>97.0</ele><time>2026-04-26T14:44:04.46Z</time></trkpt><trkpt lat="45.381741" lon="9.2624643"><ele>97.0</ele><time>2026-04-26T14:44:05.462Z</time></trkpt><trkpt lat="45.3816008" lon="9.2624286"><ele>97.0</ele><time>2026-04-26T14:44:06.45Z</time></trkpt><trkpt lat="45.381462" lon="9.2623968"><ele>97.0</ele><time>2026-04-26T14:44:07.449Z</time></trkpt><trkpt lat="45.3813222" lon="9.2623608"><ele>97.0</ele><time>2026-04-26T14:44:08.459Z</time></trkpt><trkpt lat="45.3811806" lon="9.2623209"><ele>97.0</ele><time>2026-04-26T14:44:09.451Z</time></trkpt><trkpt lat="45.3810387" lon="9.2622837"><ele>97.0</ele><time>2026-04-26T14:44:10.46Z</time></trkpt><trkpt lat="45.3808952" lon="9.2622452"><ele>97.0</ele><time>2026-04-26T14:44:11.446Z</time></trkpt><trkpt lat="45.3807517" lon="9.2622069"><ele>97.0</ele><time>2026-04-26T14:44:12.447Z</time></trkpt><trkpt lat="45.3806069" lon="9.2621671"><ele>96.5</ele><time>2026-04-26T14:44:13.465Z</time></trkpt><trkpt lat="45.3804612" lon="9.2621258"><ele>96.0</ele><time>2026-04-26T14:44:14.448Z</time></trkpt><trkpt lat="45.3803146" lon="9.2620855"><ele>95.5</ele><time>2026-04-26T14:44:15.442Z</time></trkpt><trkpt lat="45.3801661" lon="9.2620464"><ele>95.0</ele><time>2026-04-26T14:44:16.447Z</time></trkpt><trkpt lat="45.3800166" lon="9.2620055"><ele>95.0</ele><time>2026-04-26T14:44:17.458Z</time></trkpt><trkpt lat="45.3798685" lon="9.2619637"><ele>95.0</ele><time>2026-04-26T14:44:18.454Z</time></trkpt><trkpt lat="45.3797201" lon="9.2619222"><ele>95.0</ele><time>2026-04-26T14:44:19.452Z</time></trkpt><trkpt lat="45.3795797" lon="9.2618743"><ele>95.0</ele><time>2026-04-26T14:44:20.447Z</time></trkpt><trkpt lat="45.3794509" lon="9.2618206"><ele>95.0</ele><time>2026-04-26T14:44:21.461Z</time></trkpt><trkpt lat="45.3793273" lon="9.2617642"><ele>95.0</ele><time>2026-04-26T14:44:22.452Z</time></trkpt><trkpt lat="45.3792081" lon="9.2617007"><ele>95.0</ele><time>2026-04-26T14:44:23.444Z</time></trkpt><trkpt lat="45.3790966" lon="9.2616275"><ele>95.0</ele><time>2026-04-26T14:44:24.461Z</time></trkpt><trkpt lat="45.3789863" lon="9.2615495"><ele>95.0</ele><time>2026-04-26T14:44:25.45Z</time></trkpt><trkpt lat="45.378875" lon="9.2614586"><ele>95.0</ele><time>2026-04-26T14:44:26.458Z</time></trkpt><trkpt lat="45.3787652" lon="9.2613564"><ele>95.0</ele><time>2026-04-26T14:44:27.459Z</time></trkpt><trkpt lat="45.3786553" lon="9.2612427"><ele>95.0</ele><time>2026-04-26T14:44:28.459Z</time></trkpt><trkpt lat="45.3785464" lon="9.2611216"><ele>95.0</ele><time>2026-04-26T14:44:29.449Z</time></trkpt><trkpt lat="45.3784359" lon="9.2609921"><ele>95.0</ele><time>2026-04-26T14:44:30.45Z</time></trkpt><trkpt lat="45.3783288" lon="9.2608495"><ele>95.0</ele><time>2026-04-26T14:44:31.445Z</time></trkpt><trkpt lat="45.3782338" lon="9.260701"><ele>95.0</ele><time>2026-04-26T14:44:32.446Z</time></trkpt><trkpt lat="45.3781386" lon="9.2605513"><ele>95.0</ele><time>2026-04-26T14:44:33.444Z</time></trkpt><trkpt lat="45.3780454" lon="9.2603997"><ele>95.0</ele><time>2026-04-26T14:44:34.45Z</time></trkpt><trkpt lat="45.3779591" lon="9.2602525"><ele>95.0</ele><time>2026-04-26T14:44:35.445Z</time></trkpt><trkpt lat="45.3778766" lon="9.2601081"><ele>95.0</ele><time>2026-04-26T14:44:36.448Z</time></trkpt><trkpt lat="45.3777926" lon="9.259964"><ele>95.25</ele><time>2026-04-26T14:44:37.446Z</time></trkpt><trkpt lat="45.3777102" lon="9.2598228"><ele>95.5</ele><time>2026-04-26T14:44:38.454Z</time></trkpt><trkpt lat="45.3776264" lon="9.2596834"><ele>95.75</ele><time>2026-04-26T14:44:39.444Z</time></trkpt><trkpt lat="45.3775466" lon="9.2595581"><ele>96.0</ele><time>2026-04-26T14:44:40.448Z</time></trkpt><trkpt lat="45.3774757" lon="9.2594393"><ele>96.0</ele><time>2026-04-26T14:44:41.447Z</time></trkpt><trkpt lat="45.3774064" lon="9.2593317"><ele>96.0</ele><time>2026-04-26T14:44:42.447Z</time></trkpt><trkpt lat="45.3773449" lon="9.2592428"><ele>96.0</ele><time>2026-04-26T14:44:43.445Z</time></trkpt><trkpt lat="45.3772894" lon="9.2591655"><ele>96.0</ele><time>2026-04-26T14:44:44.449Z</time></trkpt><trkpt lat="45.377238" lon="9.2591007"><ele>96.0</ele><time>2026-04-26T14:44:45.448Z</time></trkpt><trkpt lat="45.3771552" lon="9.2589894"><ele>95.83333333333333</ele><time>2026-04-26T14:44:47.456Z</time></trkpt><trkpt lat="45.3770901" lon="9.2589192"><ele>95.66666666666667</ele><time>2026-04-26T14:44:49.458Z</time></trkpt><trkpt lat="45.3770359" lon="9.2588585"><ele>95.5</ele><time>2026-04-26T14:45:06.45Z</time></trkpt><trkpt lat="45.377089" lon="9.2588037"><ele>95.33333333333334</ele><time>2026-04-26T14:45:12.442Z</time></trkpt><trkpt lat="45.3771818" lon="9.2588222"><ele>95.16666666666667</ele><time>2026-04-26T14:45:14.443Z</time></trkpt><trkpt lat="45.3772641" lon="9.2588413"><ele>95.0</ele><time>2026-04-26T14:45:16.457Z</time></trkpt><trkpt lat="45.3773413" lon="9.2588636"><ele>94.83333333333334</ele><time>2026-04-26T14:45:18.451Z</time></trkpt><trkpt lat="45.3774167" lon="9.258875"><ele>94.66666666666667</ele><time>2026-04-26T14:45:20.457Z</time></trkpt><trkpt lat="45.3775072" lon="9.258884"><ele>94.5</ele><time>2026-04-26T14:45:22.458Z</time></trkpt><trkpt lat="45.3776026" lon="9.2589062"><ele>94.33333333333333</ele><time>2026-04-26T14:45:24.457Z</time></trkpt><trkpt lat="45.3776851" lon="9.2589388"><ele>94.16666666666666</ele><time>2026-04-26T14:45:26.451Z</time></trkpt><trkpt lat="45.3777506" lon="9.2589692"><ele>94.0</ele><time>2026-04-26T14:45:28.451Z</time></trkpt><trkpt lat="45.3778154" lon="9.2589528"><ele>94.0</ele><time>2026-04-26T14:45:32.456Z</time></trkpt><trkpt lat="45.3778157" lon="9.2588158"><ele>94.0</ele><time>2026-04-26T14:45:36.456Z</time></trkpt><trkpt lat="45.3778008" lon="9.2586899"><ele>94.0</ele><time>2026-04-26T14:45:38.457Z</time></trkpt><trkpt lat="45.3777609" lon="9.2585586"><ele>94.0</ele><time>2026-04-26T14:45:40.456Z</time></trkpt><trkpt lat="45.3776912" lon="9.2584236"><ele>94.0</ele><time>2026-04-26T14:45:42.451Z</time></trkpt><trkpt lat="45.3776197" lon="9.2582877"><ele>94.0</ele><time>2026-04-26T14:45:44.446Z</time></trkpt><trkpt lat="45.3775609" lon="9.2581702"><ele>94.0</ele><time>2026-04-26T14:45:46.458Z</time></trkpt><trkpt lat="45.3775001" lon="9.2580426"><ele>94.0</ele><time>2026-04-26T14:45:48.455Z</time></trkpt><trkpt lat="45.3774389" lon="9.2579194"><ele>94.0</ele><time>2026-04-26T14:45:50.449Z</time></trkpt><trkpt lat="45.3773842" lon="9.2578127"><ele>94.0</ele><time>2026-04-26T14:45:52.451Z</time></trkpt><trkpt lat="45.3773422" lon="9.2577214"><ele>94.2</ele><time>2026-04-26T14:45:54.453Z</time></trkpt><trkpt lat="45.3772875" lon="9.2576114"><ele>94.4</ele><time>2026-04-26T14:45:56.456Z</time></trkpt><trkpt lat="45.3772415" lon="9.2575114"><ele>94.6</ele><time>2026-04-26T14:45:58.448Z</time></trkpt><trkpt lat="45.3771842" lon="9.2573912"><ele>94.8</ele><time>2026-04-26T14:46:00.45Z</time></trkpt><trkpt lat="45.3771277" lon="9.2572681"><ele>95.0</ele><time>2026-04-26T14:46:02.46Z</time></trkpt><trkpt lat="45.3770742" lon="9.2571574"><ele>95.33333333333334</ele><time>2026-04-26T14:46:04.458Z</time></trkpt><trkpt lat="45.377025" lon="9.2570448"><ele>95.66666666666667</ele><time>2026-04-26T14:46:06.451Z</time></trkpt><trkpt lat="45.3769808" lon="9.2569345"><ele>96.0</ele><time>2026-04-26T14:46:08.446Z</time></trkpt><trkpt lat="45.3769413" lon="9.2568103"><ele>96.33333333333334</ele><time>2026-04-26T14:46:10.444Z</time></trkpt><trkpt lat="45.3769004" lon="9.2566905"><ele>96.66666666666667</ele><time>2026-04-26T14:46:12.455Z</time></trkpt><trkpt lat="45.3768672" lon="9.2566023"><ele>97.0</ele><time>2026-04-26T14:46:14.451Z</time></trkpt><trkpt lat="45.3768329" lon="9.2565092"><ele>96.66666666666667</ele><time>2026-04-26T14:46:16.45Z</time></trkpt><trkpt lat="45.3767973" lon="9.2564085"><ele>96.33333333333334</ele><time>2026-04-26T14:46:18.458Z</time></trkpt><trkpt lat="45.3767591" lon="9.2562987"><ele>96.0</ele><time>2026-04-26T14:46:20.455Z</time></trkpt><trkpt lat="45.3767229" lon="9.2561866"><ele>95.66666666666667</ele><time>2026-04-26T14:46:22.446Z</time></trkpt><trkpt lat="45.3766843" lon="9.2560664"><ele>95.33333333333334</ele><time>2026-04-26T14:46:24.449Z</time></trkpt><trkpt lat="45.3766445" lon="9.2559573"><ele>95.0</ele><time>2026-04-26T14:46:26.458Z</time></trkpt><trkpt lat="45.3766059" lon="9.2558569"><ele>95.0</ele><time>2026-04-26T14:46:28.461Z</time></trkpt><trkpt lat="45.3765675" lon="9.2557484"><ele>95.0</ele><time>2026-04-26T14:46:30.447Z</time></trkpt><trkpt lat="45.3765328" lon="9.2556372"><ele>95.0</ele><time>2026-04-26T14:46:32.444Z</time></trkpt><trkpt lat="45.3764955" lon="9.2555256"><ele>95.0</ele><time>2026-04-26T14:46:34.453Z</time></trkpt><trkpt lat="45.3764544" lon="9.255404"><ele>95.0</ele><time>2026-04-26T14:46:36.456Z</time></trkpt><trkpt lat="45.3764092" lon="9.2552838"><ele>95.0</ele><time>2026-04-26T14:46:38.447Z</time></trkpt><trkpt lat="45.376376" lon="9.2551899"><ele>95.0</ele><time>2026-04-26T14:46:40.451Z</time></trkpt><trkpt lat="45.3763429" lon="9.2550878"><ele>95.0</ele><time>2026-04-26T14:46:42.457Z</time></trkpt><trkpt lat="45.3763097" lon="9.2549871"><ele>95.0</ele><time>2026-04-26T14:46:44.458Z</time></trkpt><trkpt lat="45.3762659" lon="9.2548642"><ele>95.0</ele><time>2026-04-26T14:46:47.456Z</time></trkpt><trkpt lat="45.3762346" lon="9.2547739"><ele>95.0</ele><time>2026-04-26T14:46:49.46Z</time></trkpt><trkpt lat="45.3761948" lon="9.254667"><ele>95.0</ele><time>2026-04-26T14:46:51.46Z</time></trkpt><trkpt lat="45.3761456" lon="9.2545296"><ele>95.0</ele><time>2026-04-26T14:46:53.455Z</time></trkpt><trkpt lat="45.3760979" lon="9.2543849"><ele>95.0</ele><time>2026-04-26T14:46:55.448Z</time></trkpt><trkpt lat="45.376047" lon="9.2542303"><ele>95.0</ele><time>2026-04-26T14:46:57.449Z</time></trkpt><trkpt lat="45.3760212" lon="9.2541475"><ele>95.0</ele><time>2026-04-26T14:46:58.455Z</time></trkpt><trkpt lat="45.3759666" lon="9.2539931"><ele>95.0</ele><time>2026-04-26T14:47:00.455Z</time></trkpt><trkpt lat="45.3759392" lon="9.2539063"><ele>95.0</ele><time>2026-04-26T14:47:01.454Z</time></trkpt><trkpt lat="45.3759083" lon="9.2538167"><ele>95.0</ele><time>2026-04-26T14:47:02.458Z</time></trkpt><trkpt lat="45.3758535" lon="9.2536626"><ele>95.0</ele><time>2026-04-26T14:47:04.439Z</time></trkpt><trkpt lat="45.3758118" lon="9.253541"><ele>95.0</ele><time>2026-04-26T14:47:06.457Z</time></trkpt><trkpt lat="45.375772" lon="9.2534219"><ele>95.0</ele><time>2026-04-26T14:47:08.456Z</time></trkpt><trkpt lat="45.3757311" lon="9.2533057"><ele>95.0</ele><time>2026-04-26T14:47:10.456Z</time></trkpt><trkpt lat="45.3757018" lon="9.2532065"><ele>95.0</ele><time>2026-04-26T14:47:12.448Z</time></trkpt><trkpt lat="45.3756234" lon="9.253173"><ele>95.0</ele><time>2026-04-26T14:47:15.458Z</time></trkpt><trkpt lat="45.3754973" lon="9.2532299"><ele>95.0</ele><time>2026-04-26T14:47:17.45Z</time></trkpt><trkpt lat="45.3753874" lon="9.2532719"><ele>95.0</ele><time>2026-04-26T14:47:19.446Z</time></trkpt><trkpt lat="45.3752583" lon="9.2533199"><ele>94.83333333333334</ele><time>2026-04-26T14:47:21.452Z</time></trkpt><trkpt lat="45.3751879" lon="9.2533467"><ele>94.66666666666667</ele><time>2026-04-26T14:47:22.457Z</time></trkpt><trkpt lat="45.3751148" lon="9.2533734"><ele>94.5</ele><time>2026-04-26T14:47:23.456Z</time></trkpt><trkpt lat="45.3750288" lon="9.2534078"><ele>94.33333333333333</ele><time>2026-04-26T14:47:24.446Z</time></trkpt><trkpt lat="45.3749355" lon="9.2534477"><ele>94.16666666666666</ele><time>2026-04-26T14:47:25.445Z</time></trkpt><trkpt lat="45.3748449" lon="9.2534864"><ele>94.0</ele><time>2026-04-26T14:47:26.446Z</time></trkpt><trkpt lat="45.3747586" lon="9.2535252"><ele>94.33333333333333</ele><time>2026-04-26T14:47:27.445Z</time></trkpt><trkpt lat="45.3746761" lon="9.25356"><ele>94.66666666666666</ele><time>2026-04-26T14:47:28.457Z</time></trkpt><trkpt lat="45.3745846" lon="9.2535902"><ele>95.0</ele><time>2026-04-26T14:47:29.457Z</time></trkpt><trkpt lat="45.3744914" lon="9.2536243"><ele>95.33333333333333</ele><time>2026-04-26T14:47:30.446Z</time></trkpt><trkpt lat="45.3744058" lon="9.2536596"><ele>95.66666666666667</ele><time>2026-04-26T14:47:31.456Z</time></trkpt><trkpt lat="45.3743252" lon="9.2536909"><ele>96.0</ele><time>2026-04-26T14:47:32.442Z</time></trkpt><trkpt lat="45.3742416" lon="9.2537198"><ele>96.0</ele><time>2026-04-26T14:47:33.456Z</time></trkpt><trkpt lat="45.3741596" lon="9.2537553"><ele>96.0</ele><time>2026-04-26T14:47:34.442Z</time></trkpt><trkpt lat="45.3740745" lon="9.253789"><ele>96.0</ele><time>2026-04-26T14:47:35.447Z</time></trkpt><trkpt lat="45.3739901" lon="9.2538211"><ele>96.0</ele><time>2026-04-26T14:47:36.446Z</time></trkpt><trkpt lat="45.3739027" lon="9.253853"><ele>96.0</ele><time>2026-04-26T14:47:37.455Z</time></trkpt><trkpt lat="45.373811" lon="9.2538865"><ele>96.0</ele><time>2026-04-26T14:47:38.456Z</time></trkpt><trkpt lat="45.3737118" lon="9.2539249"><ele>95.6</ele><time>2026-04-26T14:47:39.455Z</time></trkpt><trkpt lat="45.3735999" lon="9.2539668"><ele>95.19999999999999</ele><time>2026-04-26T14:47:40.455Z</time></trkpt><trkpt lat="45.3734871" lon="9.2540115"><ele>94.80000000000001</ele><time>2026-04-26T14:47:41.453Z</time></trkpt><trkpt lat="45.373384" lon="9.2540519"><ele>94.4</ele><time>2026-04-26T14:47:42.44Z</time></trkpt><trkpt lat="45.3732823" lon="9.2540908"><ele>94.0</ele><time>2026-04-26T14:47:43.446Z</time></trkpt><trkpt lat="45.3731797" lon="9.2541333"><ele>94.0</ele><time>2026-04-26T14:47:44.458Z</time></trkpt><trkpt lat="45.3730833" lon="9.2541742"><ele>94.0</ele><time>2026-04-26T14:47:45.449Z</time></trkpt><trkpt lat="45.3729918" lon="9.2542088"><ele>94.0</ele><time>2026-04-26T14:47:46.457Z</time></trkpt><trkpt lat="45.3729027" lon="9.2542392"><ele>94.0</ele><time>2026-04-26T14:47:47.451Z</time></trkpt><trkpt lat="45.3728126" lon="9.2542729"><ele>94.0</ele><time>2026-04-26T14:47:48.456Z</time></trkpt><trkpt lat="45.3727254" lon="9.2543082"><ele>94.0</ele><time>2026-04-26T14:47:49.455Z</time></trkpt><trkpt lat="45.372635" lon="9.2543464"><ele>94.0</ele><time>2026-04-26T14:47:50.442Z</time></trkpt><trkpt lat="45.3725356" lon="9.2543902"><ele>94.0</ele><time>2026-04-26T14:47:51.455Z</time></trkpt><trkpt lat="45.3724282" lon="9.2544352"><ele>94.0</ele><time>2026-04-26T14:47:52.446Z</time></trkpt><trkpt lat="45.3723089" lon="9.2544855"><ele>94.0</ele><time>2026-04-26T14:47:53.459Z</time></trkpt><trkpt lat="45.372189" lon="9.254535"><ele>94.0</ele><time>2026-04-26T14:47:54.443Z</time></trkpt><trkpt lat="45.3720693" lon="9.2545792"><ele>94.0</ele><time>2026-04-26T14:47:55.456Z</time></trkpt><trkpt lat="45.3719564" lon="9.2546238"><ele>94.0</ele><time>2026-04-26T14:47:56.457Z</time></trkpt><trkpt lat="45.3718502" lon="9.2546648"><ele>94.0</ele><time>2026-04-26T14:47:57.453Z</time></trkpt><trkpt lat="45.3717341" lon="9.2547126"><ele>94.0</ele><time>2026-04-26T14:47:58.444Z</time></trkpt><trkpt lat="45.371606" lon="9.2547635"><ele>94.0</ele><time>2026-04-26T14:47:59.457Z</time></trkpt><trkpt lat="45.3714914" lon="9.254808"><ele>94.0</ele><time>2026-04-26T14:48:00.445Z</time></trkpt><trkpt lat="45.3713857" lon="9.2548485"><ele>94.0</ele><time>2026-04-26T14:48:01.457Z</time></trkpt><trkpt lat="45.3712877" lon="9.2548857"><ele>94.33333333333333</ele><time>2026-04-26T14:48:02.457Z</time></trkpt><trkpt lat="45.3711987" lon="9.2549214"><ele>94.66666666666666</ele><time>2026-04-26T14:48:03.458Z</time></trkpt><trkpt lat="45.3711154" lon="9.254956"><ele>95.0</ele><time>2026-04-26T14:48:04.456Z</time></trkpt><trkpt lat="45.3710371" lon="9.2549892"><ele>95.33333333333333</ele><time>2026-04-26T14:48:05.453Z</time></trkpt><trkpt lat="45.370971" lon="9.2550166"><ele>95.66666666666667</ele><time>2026-04-26T14:48:06.444Z</time></trkpt><trkpt lat="45.3708658" lon="9.2550744"><ele>96.0</ele><time>2026-04-26T14:48:08.445Z</time></trkpt><trkpt lat="45.3707891" lon="9.2550897"><ele>96.0</ele><time>2026-04-26T14:48:10.442Z</time></trkpt><trkpt lat="45.3707113" lon="9.2550519"><ele>96.0</ele><time>2026-04-26T14:48:12.447Z</time></trkpt><trkpt lat="45.3706667" lon="9.2549853"><ele>96.0</ele><time>2026-04-26T14:48:13.455Z</time></trkpt><trkpt lat="45.3706037" lon="9.2548716"><ele>96.0</ele><time>2026-04-26T14:48:14.447Z</time></trkpt><trkpt lat="45.3705253" lon="9.2547212"><ele>96.0</ele><time>2026-04-26T14:48:15.455Z</time></trkpt><trkpt lat="45.3704369" lon="9.254557"><ele>95.33333333333333</ele><time>2026-04-26T14:48:16.448Z</time></trkpt><trkpt lat="45.3703341" lon="9.2543649"><ele>94.66666666666666</ele><time>2026-04-26T14:48:17.455Z</time></trkpt><trkpt lat="45.3702384" lon="9.2541822"><ele>94.0</ele><time>2026-04-26T14:48:18.446Z</time></trkpt><trkpt lat="45.3701462" lon="9.2540016"><ele>94.33333333333333</ele><time>2026-04-26T14:48:19.457Z</time></trkpt><trkpt lat="45.3700514" lon="9.2538192"><ele>94.66666666666667</ele><time>2026-04-26T14:48:20.454Z</time></trkpt><trkpt lat="45.3699519" lon="9.2536331"><ele>95.0</ele><time>2026-04-26T14:48:21.455Z</time></trkpt><trkpt lat="45.369843" lon="9.2534374"><ele>95.0</ele><time>2026-04-26T14:48:22.443Z</time></trkpt><trkpt lat="45.3697311" lon="9.2532313"><ele>95.0</ele><time>2026-04-26T14:48:23.458Z</time></trkpt><trkpt lat="45.3696186" lon="9.2530213"><ele>95.0</ele><time>2026-04-26T14:48:24.446Z</time></trkpt><trkpt lat="45.3695096" lon="9.2528103"><ele>95.33333333333334</ele><time>2026-04-26T14:48:25.441Z</time></trkpt><trkpt lat="45.3694079" lon="9.2526063"><ele>95.66666666666667</ele><time>2026-04-26T14:48:26.44Z</time></trkpt><trkpt lat="45.369308" lon="9.2524134"><ele>96.0</ele><time>2026-04-26T14:48:27.444Z</time></trkpt><trkpt lat="45.3692103" lon="9.2522276"><ele>95.33333333333333</ele><time>2026-04-26T14:48:28.439Z</time></trkpt><trkpt lat="45.3691162" lon="9.2520393"><ele>94.66666666666666</ele><time>2026-04-26T14:48:29.458Z</time></trkpt><trkpt lat="45.3690173" lon="9.2518525"><ele>94.0</ele><time>2026-04-26T14:48:30.441Z</time></trkpt><trkpt lat="45.3689168" lon="9.2516623"><ele>94.0</ele><time>2026-04-26T14:48:31.445Z</time></trkpt><trkpt lat="45.3688149" lon="9.2514693"><ele>94.0</ele><time>2026-04-26T14:48:32.442Z</time></trkpt><trkpt lat="45.3687128" lon="9.2512743"><ele>94.0</ele><time>2026-04-26T14:48:33.44Z</time></trkpt><trkpt lat="45.3686094" lon="9.2510776"><ele>94.0</ele><time>2026-04-26T14:48:34.442Z</time></trkpt><trkpt lat="45.3685014" lon="9.2508779"><ele>94.0</ele><time>2026-04-26T14:48:35.442Z</time></trkpt><trkpt lat="45.3683883" lon="9.2506809"><ele>94.0</ele><time>2026-04-26T14:48:36.442Z</time></trkpt><trkpt lat="45.3682734" lon="9.2504879"><ele>94.0</ele><time>2026-04-26T14:48:37.44Z</time></trkpt><trkpt lat="45.368155" lon="9.2503018"><ele>94.0</ele><time>2026-04-26T14:48:38.439Z</time></trkpt><trkpt lat="45.3680317" lon="9.2501171"><ele>94.0</ele><time>2026-04-26T14:48:39.46Z</time></trkpt><trkpt lat="45.3679033" lon="9.24994"><ele>94.66666666666666</ele><time>2026-04-26T14:48:40.444Z</time></trkpt><trkpt lat="45.3677605" lon="9.2497707"><ele>95.33333333333333</ele><time>2026-04-26T14:48:41.457Z</time></trkpt><trkpt lat="45.3676158" lon="9.2496097"><ele>96.0</ele><time>2026-04-26T14:48:42.44Z</time></trkpt><trkpt lat="45.3674652" lon="9.2494565"><ele>96.0</ele><time>2026-04-26T14:48:43.44Z</time></trkpt><trkpt lat="45.3673091" lon="9.2493077"><ele>96.0</ele><time>2026-04-26T14:48:44.441Z</time></trkpt><trkpt lat="45.367151" lon="9.2491722"><ele>96.0</ele><time>2026-04-26T14:48:45.444Z</time></trkpt><trkpt lat="45.3669876" lon="9.2490438"><ele>94.66666666666667</ele><time>2026-04-26T14:48:46.45Z</time></trkpt><trkpt lat="45.3668222" lon="9.2489238"><ele>93.33333333333334</ele><time>2026-04-26T14:48:47.448Z</time></trkpt><trkpt lat="45.3666629" lon="9.2488145"><ele>92.0</ele><time>2026-04-26T14:48:48.455Z</time></trkpt><trkpt lat="45.366504" lon="9.2487117"><ele>92.33333333333334</ele><time>2026-04-26T14:48:49.458Z</time></trkpt><trkpt lat="45.36634" lon="9.2486128"><ele>92.66666666666667</ele><time>2026-04-26T14:48:50.447Z</time></trkpt><trkpt lat="45.3661806" lon="9.2485089"><ele>93.0</ele><time>2026-04-26T14:48:51.446Z</time></trkpt><trkpt lat="45.3660188" lon="9.2484037"><ele>93.0</ele><time>2026-04-26T14:48:52.456Z</time></trkpt><trkpt lat="45.3658547" lon="9.2483011"><ele>93.0</ele><time>2026-04-26T14:48:53.455Z</time></trkpt><trkpt lat="45.3656875" lon="9.2481975"><ele>93.0</ele><time>2026-04-26T14:48:54.446Z</time></trkpt><trkpt lat="45.3655196" lon="9.2480935"><ele>93.66666666666667</ele><time>2026-04-26T14:48:55.45Z</time></trkpt><trkpt lat="45.3653551" lon="9.2479877"><ele>94.33333333333334</ele><time>2026-04-26T14:48:56.456Z</time></trkpt><trkpt lat="45.3651948" lon="9.2478841"><ele>95.0</ele><time>2026-04-26T14:48:57.446Z</time></trkpt><trkpt lat="45.3650385" lon="9.2477792"><ele>95.0</ele><time>2026-04-26T14:48:58.448Z</time></trkpt><trkpt lat="45.3648809" lon="9.2476788"><ele>95.0</ele><time>2026-04-26T14:48:59.457Z</time></trkpt><trkpt lat="45.3647204" lon="9.2475763"><ele>95.0</ele><time>2026-04-26T14:49:00.456Z</time></trkpt><trkpt lat="45.3645637" lon="9.2474683"><ele>94.33333333333334</ele><time>2026-04-26T14:49:01.453Z</time></trkpt><trkpt lat="45.3644045" lon="9.2473574"><ele>93.66666666666667</ele><time>2026-04-26T14:49:02.448Z</time></trkpt><trkpt lat="45.3642513" lon="9.2472407"><ele>93.0</ele><time>2026-04-26T14:49:03.448Z</time></trkpt><trkpt lat="45.3641019" lon="9.2471067"><ele>93.0</ele><time>2026-04-26T14:49:04.449Z</time></trkpt><trkpt lat="45.3639586" lon="9.2469567"><ele>93.0</ele><time>2026-04-26T14:49:05.459Z</time></trkpt><trkpt lat="45.3638202" lon="9.2467918"><ele>93.0</ele><time>2026-04-26T14:49:06.448Z</time></trkpt><trkpt lat="45.3636871" lon="9.2466124"><ele>93.0</ele><time>2026-04-26T14:49:07.446Z</time></trkpt><trkpt lat="45.3635595" lon="9.246414"><ele>93.0</ele><time>2026-04-26T14:49:08.439Z</time></trkpt><trkpt lat="45.3634345" lon="9.2462074"><ele>93.0</ele><time>2026-04-26T14:49:09.446Z</time></trkpt><trkpt lat="45.3633177" lon="9.245984"><ele>93.0</ele><time>2026-04-26T14:49:10.444Z</time></trkpt><trkpt lat="45.363209" lon="9.2457425"><ele>93.0</ele><time>2026-04-26T14:49:11.452Z</time></trkpt><trkpt lat="45.363107" lon="9.2454936"><ele>93.0</ele><time>2026-04-26T14:49:12.447Z</time></trkpt><trkpt lat="45.3630273" lon="9.2452115"><ele>93.33333333333333</ele><time>2026-04-26T14:49:13.452Z</time></trkpt><trkpt lat="45.3629412" lon="9.2449293"><ele>93.66666666666666</ele><time>2026-04-26T14:49:14.449Z</time></trkpt><trkpt lat="45.362852" lon="9.2446389"><ele>94.0</ele><time>2026-04-26T14:49:15.457Z</time></trkpt><trkpt lat="45.3627626" lon="9.2443451"><ele>94.0</ele><time>2026-04-26T14:49:16.454Z</time></trkpt><trkpt lat="45.3626751" lon="9.2440553"><ele>94.0</ele><time>2026-04-26T14:49:17.458Z</time></trkpt><trkpt lat="45.3625916" lon="9.2437762"><ele>94.0</ele><time>2026-04-26T14:49:18.451Z</time></trkpt><trkpt lat="45.3625073" lon="9.2434961"><ele>94.0</ele><time>2026-04-26T14:49:19.456Z</time></trkpt><trkpt lat="45.3624232" lon="9.24322"><ele>94.0</ele><time>2026-04-26T14:49:20.447Z</time></trkpt><trkpt lat="45.362342" lon="9.2429521"><ele>94.0</ele><time>2026-04-26T14:49:21.457Z</time></trkpt><trkpt lat="45.3622601" lon="9.2426888"><ele>94.0</ele><time>2026-04-26T14:49:22.454Z</time></trkpt><trkpt lat="45.3621779" lon="9.2424307"><ele>94.0</ele><time>2026-04-26T14:49:23.457Z</time></trkpt><trkpt lat="45.3620991" lon="9.2421673"><ele>94.0</ele><time>2026-04-26T14:49:24.458Z</time></trkpt><trkpt lat="45.3620199" lon="9.2419029"><ele>94.0</ele><time>2026-04-26T14:49:25.451Z</time></trkpt><trkpt lat="45.3619408" lon="9.2416447"><ele>94.0</ele><time>2026-04-26T14:49:26.447Z</time></trkpt><trkpt lat="45.3618661" lon="9.2413966"><ele>94.0</ele><time>2026-04-26T14:49:27.457Z</time></trkpt><trkpt lat="45.3617919" lon="9.2411621"><ele>94.0</ele><time>2026-04-26T14:49:28.451Z</time></trkpt><trkpt lat="45.361724" lon="9.2409361"><ele>94.0</ele><time>2026-04-26T14:49:29.45Z</time></trkpt><trkpt lat="45.3616604" lon="9.240715"><ele>94.0</ele><time>2026-04-26T14:49:30.456Z</time></trkpt><trkpt lat="45.3616035" lon="9.2404965"><ele>94.0</ele><time>2026-04-26T14:49:31.443Z</time></trkpt><trkpt lat="45.3615581" lon="9.2402798"><ele>94.0</ele><time>2026-04-26T14:49:32.456Z</time></trkpt><trkpt lat="45.3615234" lon="9.2400679"><ele>94.0</ele><time>2026-04-26T14:49:33.447Z</time></trkpt><trkpt lat="45.3614992" lon="9.2398578"><ele>93.75</ele><time>2026-04-26T14:49:34.441Z</time></trkpt><trkpt lat="45.3614851" lon="9.2396464"><ele>93.5</ele><time>2026-04-26T14:49:35.445Z</time></trkpt><trkpt lat="45.3614754" lon="9.2394463"><ele>93.25</ele><time>2026-04-26T14:49:36.457Z</time></trkpt><trkpt lat="45.3614736" lon="9.2392532"><ele>93.0</ele><time>2026-04-26T14:49:37.44Z</time></trkpt><trkpt lat="45.3614806" lon="9.2390591"><ele>92.75</ele><time>2026-04-26T14:49:38.457Z</time></trkpt><trkpt lat="45.3614948" lon="9.2388596"><ele>92.5</ele><time>2026-04-26T14:49:39.456Z</time></trkpt><trkpt lat="45.3615141" lon="9.2386588"><ele>92.25</ele><time>2026-04-26T14:49:40.448Z</time></trkpt><trkpt lat="45.3615324" lon="9.2384568"><ele>92.0</ele><time>2026-04-26T14:49:41.45Z</time></trkpt><trkpt lat="45.361552" lon="9.2382518"><ele>92.0</ele><time>2026-04-26T14:49:42.453Z</time></trkpt><trkpt lat="45.3615699" lon="9.2380433"><ele>92.0</ele><time>2026-04-26T14:49:43.446Z</time></trkpt><trkpt lat="45.3615894" lon="9.2378349"><ele>92.0</ele><time>2026-04-26T14:49:44.456Z</time></trkpt><trkpt lat="45.3616049" lon="9.237634"><ele>92.0</ele><time>2026-04-26T14:49:45.446Z</time></trkpt><trkpt lat="45.3616207" lon="9.2374417"><ele>92.5</ele><time>2026-04-26T14:49:46.456Z</time></trkpt><trkpt lat="45.361638" lon="9.2372572"><ele>93.0</ele><time>2026-04-26T14:49:47.456Z</time></trkpt><trkpt lat="45.3616533" lon="9.2370828"><ele>93.5</ele><time>2026-04-26T14:49:48.457Z</time></trkpt><trkpt lat="45.3616728" lon="9.2369194"><ele>94.0</ele><time>2026-04-26T14:49:49.455Z</time></trkpt><trkpt lat="45.361694" lon="9.2367663"><ele>94.0</ele><time>2026-04-26T14:49:50.454Z</time></trkpt><trkpt lat="45.3617237" lon="9.2366259"><ele>94.0</ele><time>2026-04-26T14:49:51.44Z</time></trkpt><trkpt lat="45.3617785" lon="9.2365056"><ele>94.0</ele><time>2026-04-26T14:49:52.445Z</time></trkpt><trkpt lat="45.361853" lon="9.2364034"><ele>94.0</ele><time>2026-04-26T14:49:53.448Z</time></trkpt><trkpt lat="45.3619296" lon="9.2363232"><ele>94.0</ele><time>2026-04-26T14:49:54.459Z</time></trkpt><trkpt lat="45.3619974" lon="9.2362358"><ele>94.0</ele><time>2026-04-26T14:49:55.442Z</time></trkpt><trkpt lat="45.3620409" lon="9.2361277"><ele>94.0</ele><time>2026-04-26T14:49:56.455Z</time></trkpt><trkpt lat="45.3620607" lon="9.2360194"><ele>94.0</ele><time>2026-04-26T14:49:57.458Z</time></trkpt><trkpt lat="45.3620662" lon="9.2358953"><ele>94.0</ele><time>2026-04-26T14:49:58.453Z</time></trkpt><trkpt lat="45.3620762" lon="9.2357407"><ele>94.0</ele><time>2026-04-26T14:49:59.445Z</time></trkpt><trkpt lat="45.3620951" lon="9.2355553"><ele>94.0</ele><time>2026-04-26T14:50:00.457Z</time></trkpt><trkpt lat="45.3621066" lon="9.2353594"><ele>94.0</ele><time>2026-04-26T14:50:01.443Z</time></trkpt><trkpt lat="45.3620985" lon="9.2351368"><ele>94.0</ele><time>2026-04-26T14:50:02.447Z</time></trkpt><trkpt lat="45.3620807" lon="9.2348857"><ele>93.66666666666666</ele><time>2026-04-26T14:50:03.442Z</time></trkpt><trkpt lat="45.3620592" lon="9.2346166"><ele>93.33333333333333</ele><time>2026-04-26T14:50:04.457Z</time></trkpt><trkpt lat="45.3620379" lon="9.2343509"><ele>93.0</ele><time>2026-04-26T14:50:05.458Z</time></trkpt><trkpt lat="45.3620113" lon="9.234084"><ele>93.66666666666667</ele><time>2026-04-26T14:50:06.452Z</time></trkpt><trkpt lat="45.3619805" lon="9.233833"><ele>94.33333333333334</ele><time>2026-04-26T14:50:07.442Z</time></trkpt><trkpt lat="45.3619472" lon="9.2335938"><ele>95.0</ele><time>2026-04-26T14:50:08.457Z</time></trkpt><trkpt lat="45.3619171" lon="9.2333669"><ele>95.0</ele><time>2026-04-26T14:50:09.457Z</time></trkpt><trkpt lat="45.3618832" lon="9.2331449"><ele>95.0</ele><time>2026-04-26T14:50:10.453Z</time></trkpt><trkpt lat="45.3618462" lon="9.2329236"><ele>95.0</ele><time>2026-04-26T14:50:11.443Z</time></trkpt><trkpt lat="45.3618072" lon="9.2327077"><ele>94.66666666666667</ele><time>2026-04-26T14:50:12.455Z</time></trkpt><trkpt lat="45.3617651" lon="9.2324926"><ele>94.33333333333333</ele><time>2026-04-26T14:50:13.442Z</time></trkpt><trkpt lat="45.3617223" lon="9.2322846"><ele>94.0</ele><time>2026-04-26T14:50:14.455Z</time></trkpt><trkpt lat="45.3616769" lon="9.2320805"><ele>94.0</ele><time>2026-04-26T14:50:15.447Z</time></trkpt><trkpt lat="45.3616323" lon="9.2318783"><ele>94.0</ele><time>2026-04-26T14:50:16.457Z</time></trkpt><trkpt lat="45.3615902" lon="9.231695"><ele>94.0</ele><time>2026-04-26T14:50:17.447Z</time></trkpt><trkpt lat="45.3615502" lon="9.2315242"><ele>94.0</ele><time>2026-04-26T14:50:18.457Z</time></trkpt><trkpt lat="45.3615111" lon="9.2313561"><ele>94.25</ele><time>2026-04-26T14:50:19.454Z</time></trkpt><trkpt lat="45.3614702" lon="9.2311893"><ele>94.5</ele><time>2026-04-26T14:50:20.456Z</time></trkpt><trkpt lat="45.3614268" lon="9.2310198"><ele>94.75</ele><time>2026-04-26T14:50:21.454Z</time></trkpt><trkpt lat="45.3613847" lon="9.2308517"><ele>95.0</ele><time>2026-04-26T14:50:22.457Z</time></trkpt><trkpt lat="45.3613466" lon="9.2306886"><ele>95.25</ele><time>2026-04-26T14:50:23.45Z</time></trkpt><trkpt lat="45.3613082" lon="9.2305264"><ele>95.5</ele><time>2026-04-26T14:50:24.445Z</time></trkpt><trkpt lat="45.3612697" lon="9.230365"><ele>95.75</ele><time>2026-04-26T14:50:25.447Z</time></trkpt><trkpt lat="45.3612365" lon="9.2302138"><ele>96.0</ele><time>2026-04-26T14:50:26.457Z</time></trkpt><trkpt lat="45.3612073" lon="9.2300763"><ele>96.0</ele><time>2026-04-26T14:50:27.449Z</time></trkpt><trkpt lat="45.3611849" lon="9.2299393"><ele>96.0</ele><time>2026-04-26T14:50:28.456Z</time></trkpt><trkpt lat="45.3611715" lon="9.2298143"><ele>96.0</ele><time>2026-04-26T14:50:29.458Z</time></trkpt><trkpt lat="45.3611634" lon="9.2296984"><ele>96.0</ele><time>2026-04-26T14:50:30.456Z</time></trkpt><trkpt lat="45.3611652" lon="9.2295968"><ele>96.0</ele><time>2026-04-26T14:50:31.45Z</time></trkpt><trkpt lat="45.3611769" lon="9.2295016"><ele>96.0</ele><time>2026-04-26T14:50:32.455Z</time></trkpt><trkpt lat="45.3612145" lon="9.2293467"><ele>95.71428571428571</ele><time>2026-04-26T14:50:34.452Z</time></trkpt><trkpt lat="45.3612578" lon="9.2292793"><ele>95.42857142857143</ele><time>2026-04-26T14:50:35.447Z</time></trkpt><trkpt lat="45.361324" lon="9.2292179"><ele>95.14285714285714</ele><time>2026-04-26T14:50:36.453Z</time></trkpt><trkpt lat="45.3613934" lon="9.2291602"><ele>94.85714285714286</ele><time>2026-04-26T14:50:37.456Z</time></trkpt><trkpt lat="45.361449" lon="9.2290937"><ele>94.57142857142857</ele><time>2026-04-26T14:50:38.456Z</time></trkpt><trkpt lat="45.3614878" lon="9.2290162"><ele>94.28571428571428</ele><time>2026-04-26T14:50:39.452Z</time></trkpt><trkpt lat="45.3615108" lon="9.2289225"><ele>94.0</ele><time>2026-04-26T14:50:40.444Z</time></trkpt><trkpt lat="45.3615136" lon="9.2288294"><ele>94.0</ele><time>2026-04-26T14:50:41.455Z</time></trkpt><trkpt lat="45.3614626" lon="9.2286744"><ele>94.0</ele><time>2026-04-26T14:50:43.456Z</time></trkpt><trkpt lat="45.3613651" lon="9.2285946"><ele>94.0</ele><time>2026-04-26T14:50:45.457Z</time></trkpt><trkpt lat="45.3613028" lon="9.2285797"><ele>94.0</ele><time>2026-04-26T14:50:46.456Z</time></trkpt><trkpt lat="45.3611831" lon="9.2286151"><ele>94.0</ele><time>2026-04-26T14:50:48.445Z</time></trkpt><trkpt lat="45.361118" lon="9.228651"><ele>94.0</ele><time>2026-04-26T14:50:49.446Z</time></trkpt><trkpt lat="45.3610456" lon="9.2286738"><ele>94.0</ele><time>2026-04-26T14:50:50.453Z</time></trkpt><trkpt lat="45.3609696" lon="9.2286848"><ele>94.0</ele><time>2026-04-26T14:50:51.458Z</time></trkpt><trkpt lat="45.3608881" lon="9.2286854"><ele>94.0</ele><time>2026-04-26T14:50:52.456Z</time></trkpt><trkpt lat="45.3608151" lon="9.2286931"><ele>94.0</ele><time>2026-04-26T14:50:53.455Z</time></trkpt><trkpt lat="45.3607519" lon="9.2287073"><ele>94.0</ele><time>2026-04-26T14:50:54.455Z</time></trkpt><trkpt lat="45.3606437" lon="9.2287548"><ele>94.0</ele><time>2026-04-26T14:50:56.445Z</time></trkpt><trkpt lat="45.3605649" lon="9.2287947"><ele>94.0</ele><time>2026-04-26T14:50:58.453Z</time></trkpt><trkpt lat="45.3604837" lon="9.2288238"><ele>94.0</ele><time>2026-04-26T14:51:00.457Z</time></trkpt><trkpt lat="45.3604016" lon="9.2288326"><ele>94.0</ele><time>2026-04-26T14:51:02.456Z</time></trkpt><trkpt lat="45.3603237" lon="9.2288202"><ele>94.0</ele><time>2026-04-26T14:51:04.457Z</time></trkpt><trkpt lat="45.3602414" lon="9.2288163"><ele>94.0</ele><time>2026-04-26T14:51:06.457Z</time></trkpt><trkpt lat="45.3601644" lon="9.2288843"><ele>94.4</ele><time>2026-04-26T14:51:08.457Z</time></trkpt><trkpt lat="45.3601274" lon="9.2290127"><ele>94.80000000000001</ele><time>2026-04-26T14:51:10.45Z</time></trkpt><trkpt lat="45.3600913" lon="9.2291514"><ele>95.19999999999999</ele><time>2026-04-26T14:51:12.447Z</time></trkpt><trkpt lat="45.3600153" lon="9.2292747"><ele>95.6</ele><time>2026-04-26T14:51:14.445Z</time></trkpt><trkpt lat="45.3598964" lon="9.2293494"><ele>96.0</ele><time>2026-04-26T14:51:16.446Z</time></trkpt><trkpt lat="45.359813" lon="9.2293843"><ele>96.0</ele><time>2026-04-26T14:51:17.452Z</time></trkpt><trkpt lat="45.3597108" lon="9.2294284"><ele>96.0</ele><time>2026-04-26T14:51:18.446Z</time></trkpt><trkpt lat="45.3596223" lon="9.2294659"><ele>96.0</ele><time>2026-04-26T14:51:19.455Z</time></trkpt><trkpt lat="45.3595263" lon="9.2295095"><ele>96.0</ele><time>2026-04-26T14:51:20.457Z</time></trkpt><trkpt lat="45.3594322" lon="9.2295496"><ele>96.0</ele><time>2026-04-26T14:51:21.446Z</time></trkpt><trkpt lat="45.3593318" lon="9.2295876"><ele>96.0</ele><time>2026-04-26T14:51:22.456Z</time></trkpt><trkpt lat="45.3592439" lon="9.2296227"><ele>96.0</ele><time>2026-04-26T14:51:23.455Z</time></trkpt><trkpt lat="45.3591657" lon="9.229654"><ele>96.0</ele><time>2026-04-26T14:51:24.455Z</time></trkpt><trkpt lat="45.3590939" lon="9.2296747"><ele>96.0</ele><time>2026-04-26T14:51:25.454Z</time></trkpt><trkpt lat="45.3589881" lon="9.2296741"><ele>96.0</ele><time>2026-04-26T14:51:27.443Z</time></trkpt><trkpt lat="45.358924" lon="9.2296828"><ele>96.0</ele><time>2026-04-26T14:51:29.443Z</time></trkpt></trkseg></trk></gpx>